Darstellungsparameter: Aktuell verwendete Einstellungen:
Skalierung der Graphiken ... ?
xyx+y,   Skalierungsfaktor:      Skalierung: Modus: x, Faktor: 1
Darstellungszeitraum ... ?
Vom - - bis: - -   Zeitraum: 23.10.2019 - 22.11.2019
Min/Max/Avg-Anzeige ... ?
Zeige MMA aktuell
Zeige MMA Monat
Zeige MMA alles
Zeige --A aktuell
Zeige --A Monat
Zeige --A alles
Keine MMA-Anzeige
MMA:
Keine MMA-Graphiken
MMA-Basis: 23.10.2019 - 22.11.2019
Quicknavigation für Darstellung... ?
Tage:      1T, 2T, 3T, 5T -1T -2T -3T -5T +1T +2T +3T +5T
Wochen: 1W, 2W, 3W -1W -2W -3W +1W +2W +3W
Monate: 1M, 3M, 6M -1M -3M -6M +1M +3M +6M
Jahre:    1J, 3J, 5J, 10J -1J -3J -5J -10J +1J +3J +5J +10J
Nutze für die Darstellung ... ?
Originaldaten oder Mittelwerte auf ...
Stundenbasis Tagesbasis Wochenbasis
Monatsbasis Jahresbasis      Datenbasis: Original-Daten
Darstellen als:
Statistik (Auto) Statistik J:M      Darstellung:
Zur Graphik,    zurück zur Übersicht aller Sensoren.
 
Tabellarische Datenbersicht: ?
 
Sensor: Nr:Datum:Temp:Feuchte:Taupunkt:
Aussen-T/F 1 23-10-2019 00:00:00 9.3 C 95 % 8.54 C
2 23-10-2019 00:05:00 9.3 C 95 % 8.54 C
3 23-10-2019 00:10:00 9.2 C 96 % 8.6 C
4 23-10-2019 00:15:00 9.1 C 96 % 8.5 C
5 23-10-2019 00:20:00 9.1 C 95 % 8.34 C
6 23-10-2019 00:25:00 9 C 96 % 8.4 C
7 23-10-2019 00:30:00 8.9 C 96 % 8.3 C
8 23-10-2019 00:35:00 8.8 C 96 % 8.2 C
9 23-10-2019 00:40:00 8.8 C 96 % 8.2 C
10 23-10-2019 00:45:00 8.8 C 96 % 8.2 C
11 23-10-2019 00:50:00 8.8 C 96 % 8.2 C
12 23-10-2019 00:55:00 8.7 C 96 % 8.1 C
13 23-10-2019 01:00:00 8.7 C 96 % 8.1 C
14 23-10-2019 01:05:00 8.7 C 96 % 8.1 C
15 23-10-2019 01:10:00 8.7 C 96 % 8.1 C
16 23-10-2019 01:15:00 8.7 C 96 % 8.1 C
17 23-10-2019 01:20:00 8.6 C 96 % 8 C
18 23-10-2019 01:25:00 8.6 C 96 % 8 C
19 23-10-2019 01:30:00 8.6 C 96 % 8 C
20 23-10-2019 01:35:00 8.5 C 96 % 7.9 C
21 23-10-2019 01:40:00 8.5 C 96 % 7.9 C
22 23-10-2019 01:45:00 8.6 C 96 % 8 C
23 23-10-2019 01:50:00 8.6 C 96 % 8 C
24 23-10-2019 01:55:00 8.6 C 96 % 8 C
25 23-10-2019 02:00:00 8.6 C 96 % 8 C
Sensor: Nr:Datum:Temp:Feuchte:Taupunkt:
Aussen-T/F 26 23-10-2019 02:05:00 8.4 C 96 % 7.8 C
27 23-10-2019 02:10:00 8.4 C 96 % 7.8 C
28 23-10-2019 02:15:00 8.3 C 96 % 7.7 C
29 23-10-2019 02:20:00 8.2 C 96 % 7.6 C
30 23-10-2019 02:25:00 8.2 C 96 % 7.6 C
31 23-10-2019 02:30:00 8.2 C 96 % 7.6 C
32 23-10-2019 02:35:00 8.1 C 96 % 7.5 C
33 23-10-2019 02:40:00 8.1 C 96 % 7.5 C
34 23-10-2019 02:45:00 8.1 C 96 % 7.5 C
35 23-10-2019 02:50:00 8 C 96 % 7.4 C
36 23-10-2019 02:55:00 7.9 C 96 % 7.3 C
37 23-10-2019 03:00:00 7.9 C 96 % 7.3 C
38 23-10-2019 03:05:00 8.1 C 97 % 7.65 C
39 23-10-2019 03:10:00 8.1 C 97 % 7.65 C
40 23-10-2019 03:15:00 8.1 C 97 % 7.65 C
41 23-10-2019 03:20:00 8 C 97 % 7.55 C
42 23-10-2019 03:25:00 8 C 96 % 7.4 C
43 23-10-2019 03:30:00 7.9 C 96 % 7.3 C
44 23-10-2019 03:35:00 8 C 97 % 7.55 C
45 23-10-2019 03:40:00 8 C 97 % 7.55 C
46 23-10-2019 03:45:00 8 C 97 % 7.55 C
47 23-10-2019 03:50:00 8 C 97 % 7.55 C
48 23-10-2019 03:55:00 8 C 97 % 7.55 C
49 23-10-2019 04:00:00 8.1 C 97 % 7.65 C
50 23-10-2019 04:05:00 8.1 C 97 % 7.65 C
Sensor: Nr:Datum:Temp:Feuchte:Taupunkt:
Aussen-T/F 51 23-10-2019 04:10:00 8.2 C 97 % 7.75 C
52 23-10-2019 04:15:00 8.1 C 97 % 7.65 C
53 23-10-2019 04:20:00 7.9 C 97 % 7.45 C
54 23-10-2019 04:25:00 7.8 C 97 % 7.35 C
55 23-10-2019 04:30:00 7.7 C 97 % 7.25 C
56 23-10-2019 04:35:00 7.7 C 97 % 7.25 C
57 23-10-2019 04:40:00 7.6 C 96 % 7 C
58 23-10-2019 04:45:00 7.6 C 97 % 7.16 C
59 23-10-2019 04:50:00 7.6 C 97 % 7.16 C
60 23-10-2019 04:55:00 7.6 C 97 % 7.16 C
61 23-10-2019 05:00:00 7.7 C 97 % 7.25 C
62 23-10-2019 05:05:00 7.8 C 97 % 7.35 C
63 23-10-2019 05:10:00 8 C 97 % 7.55 C
64 23-10-2019 05:15:00 8.1 C 97 % 7.65 C
65 23-10-2019 05:20:00 8.2 C 97 % 7.75 C
66 23-10-2019 05:25:00 8.3 C 97 % 7.85 C
67 23-10-2019 05:30:00 8.4 C 97 % 7.95 C
68 23-10-2019 05:35:00 8.4 C 97 % 7.95 C
69 23-10-2019 05:40:00 8.4 C 97 % 7.95 C
70 23-10-2019 05:45:00 8.3 C 97 % 7.85 C
71 23-10-2019 05:50:00 8.2 C 97 % 7.75 C
72 23-10-2019 05:55:00 8.2 C 97 % 7.75 C
73 23-10-2019 06:00:00 8.2 C 97 % 7.75 C
74 23-10-2019 06:05:00 8.3 C 97 % 7.85 C
75 23-10-2019 06:10:00 8.3 C 97 % 7.85 C
Sensor: Nr:Datum:Temp:Feuchte:Taupunkt:
Aussen-T/F 76 23-10-2019 06:15:00 8.3 C 97 % 7.85 C
77 23-10-2019 06:20:00 8.3 C 97 % 7.85 C
78 23-10-2019 06:25:00 8.1 C 97 % 7.65 C
79 23-10-2019 06:30:00 8 C 97 % 7.55 C
80 23-10-2019 06:35:00 7.9 C 97 % 7.45 C
81 23-10-2019 06:40:00 7.9 C 97 % 7.45 C
82 23-10-2019 06:45:00 8 C 97 % 7.55 C
83 23-10-2019 06:50:00 8.1 C 97 % 7.65 C
84 23-10-2019 06:55:00 8.2 C 97 % 7.75 C
85 23-10-2019 07:00:00 8.3 C 97 % 7.85 C
86 23-10-2019 07:05:00 8.3 C 97 % 7.85 C
87 23-10-2019 07:10:00 8.2 C 97 % 7.75 C
88 23-10-2019 07:15:00 8.2 C 97 % 7.75 C
89 23-10-2019 07:20:00 8.1 C 97 % 7.65 C
90 23-10-2019 07:25:00 8 C 97 % 7.55 C
91 23-10-2019 07:30:00 7.9 C 97 % 7.45 C
92 23-10-2019 07:35:00 7.8 C 97 % 7.35 C
93 23-10-2019 07:40:00 7.8 C 97 % 7.35 C
94 23-10-2019 07:45:00 7.7 C 97 % 7.25 C
95 23-10-2019 07:50:00 7.6 C 97 % 7.16 C
96 23-10-2019 07:55:00 7.5 C 97 % 7.06 C
97 23-10-2019 08:00:00 7.4 C 97 % 6.96 C
98 23-10-2019 08:05:00 7.4 C 97 % 6.96 C
99 23-10-2019 08:10:00 7.4 C 97 % 6.96 C
100 23-10-2019 08:15:00 7.6 C 97 % 7.16 C
Sensor: Nr:Datum:Temp:Feuchte:Taupunkt:
Aussen-T/F 101 23-10-2019 08:20:00 7.8 C 97 % 7.35 C
102 23-10-2019 08:25:00 7.9 C 98 % 7.6 C
103 23-10-2019 08:30:00 8 C 97 % 7.55 C
104 23-10-2019 08:35:00 8.1 C 97 % 7.65 C
105 23-10-2019 08:40:00 8.1 C 97 % 7.65 C
106 23-10-2019 08:45:00 8.2 C 97 % 7.75 C
107 23-10-2019 08:50:00 8.2 C 98 % 7.9 C
108 23-10-2019 08:55:00 8.3 C 98 % 8 C
109 23-10-2019 09:00:00 8.3 C 98 % 8 C
110 23-10-2019 09:05:00 8.4 C 97 % 7.95 C
111 23-10-2019 09:10:00 8.4 C 97 % 7.95 C
112 23-10-2019 09:15:00 8.6 C 98 % 8.3 C
113 23-10-2019 09:20:00 8.6 C 98 % 8.3 C
114 23-10-2019 09:25:00 8.7 C 98 % 8.4 C
115 23-10-2019 09:30:00 8.8 C 98 % 8.5 C
116 23-10-2019 09:35:00 8.8 C 98 % 8.5 C
117 23-10-2019 09:40:00 8.9 C 98 % 8.6 C
118 23-10-2019 09:45:00 8.9 C 98 % 8.6 C
119 23-10-2019 09:50:00 9 C 98 % 8.7 C
120 23-10-2019 09:55:00 9.1 C 98 % 8.8 C
121 23-10-2019 10:00:00 9.1 C 98 % 8.8 C
122 23-10-2019 10:05:00 9.2 C 98 % 8.9 C
123 23-10-2019 10:10:00 9.3 C 98 % 9 C
124 23-10-2019 10:15:00 9.4 C 98 % 9.1 C
125 23-10-2019 10:20:00 9.4 C 98 % 9.1 C
Sensor: Nr:Datum:Temp:Feuchte:Taupunkt:
Aussen-T/F 126 23-10-2019 10:25:00 9.6 C 98 % 9.3 C
127 23-10-2019 10:30:00 9.6 C 98 % 9.3 C
128 23-10-2019 10:35:00 9.7 C 98 % 9.4 C
129 23-10-2019 10:40:00 9.8 C 98 % 9.5 C
130 23-10-2019 10:45:00 9.9 C 98 % 9.6 C
131 23-10-2019 10:50:00 10.1 C 98 % 9.8 C
132 23-10-2019 10:55:00 10.2 C 98 % 9.9 C
133 23-10-2019 11:00:00 10.3 C 98 % 10 C
134 23-10-2019 11:05:00 10.4 C 98 % 10.1 C
135 23-10-2019 11:10:00 10.6 C 98 % 10.3 C
136 23-10-2019 11:15:00 10.7 C 98 % 10.4 C
137 23-10-2019 11:20:00 10.9 C 98 % 10.6 C
138 23-10-2019 11:25:00 11.1 C 98 % 10.8 C
139 23-10-2019 11:30:00 11.2 C 98 % 10.9 C
140 23-10-2019 11:35:00 11.3 C 98 % 11 C
141 23-10-2019 11:40:00 11.3 C 98 % 11 C
142 23-10-2019 11:45:00 11.3 C 98 % 11 C
143 23-10-2019 11:50:00 11.3 C 98 % 11 C
144 23-10-2019 11:55:00 11.4 C 98 % 11.1 C
145 23-10-2019 12:00:00 11.4 C 98 % 11.1 C
146 23-10-2019 12:05:00 11.5 C 98 % 11.2 C
147 23-10-2019 12:10:00 11.6 C 98 % 11.29 C
148 23-10-2019 12:15:00 11.7 C 98 % 11.39 C
149 23-10-2019 12:20:00 11.7 C 97 % 11.24 C
150 23-10-2019 12:25:00 11.7 C 97 % 11.24 C
Sensor: Nr:Datum:Temp:Feuchte:Taupunkt:
Aussen-T/F 151 23-10-2019 12:30:00 11.8 C 96 % 11.18 C
152 23-10-2019 12:35:00 11.9 C 96 % 11.28 C
153 23-10-2019 12:40:00 12 C 95 % 11.22 C
154 23-10-2019 12:45:00 12.1 C 95 % 11.32 C
155 23-10-2019 12:50:00 12.2 C 95 % 11.42 C
156 23-10-2019 12:55:00 12.3 C 94 % 11.36 C
157 23-10-2019 13:00:00 12.4 C 94 % 11.46 C
158 23-10-2019 13:05:00 12.6 C 93 % 11.5 C
159 23-10-2019 13:10:00 12.7 C 93 % 11.6 C
160 23-10-2019 13:15:00 12.8 C 93 % 11.7 C
161 23-10-2019 13:20:00 12.8 C 92 % 11.53 C
162 23-10-2019 13:25:00 12.9 C 92 % 11.63 C
163 23-10-2019 13:30:00 13 C 92 % 11.73 C
164 23-10-2019 13:35:00 13.1 C 92 % 11.83 C
165 23-10-2019 13:40:00 13.2 C 92 % 11.93 C
166 23-10-2019 13:45:00 13.3 C 92 % 12.03 C
167 23-10-2019 13:50:00 13.3 C 91 % 11.86 C
168 23-10-2019 13:55:00 13.4 C 91 % 11.96 C
169 23-10-2019 14:00:00 13.4 C 90 % 11.79 C
170 23-10-2019 14:05:00 13.6 C 91 % 12.16 C
171 23-10-2019 14:10:00 13.7 C 90 % 12.09 C
172 23-10-2019 14:15:00 13.7 C 90 % 12.09 C
173 23-10-2019 14:20:00 13.8 C 90 % 12.19 C
174 23-10-2019 14:25:00 13.8 C 90 % 12.19 C
175 23-10-2019 14:30:00 13.9 C 90 % 12.29 C
Sensor: Nr:Datum:Temp:Feuchte:Taupunkt:
Aussen-T/F 176 23-10-2019 14:35:00 13.9 C 90 % 12.29 C
177 23-10-2019 14:40:00 14 C 89 % 12.22 C
178 23-10-2019 14:45:00 14.1 C 89 % 12.32 C
179 23-10-2019 14:50:00 14.1 C 89 % 12.32 C
180 23-10-2019 14:55:00 14.1 C 89 % 12.32 C
181 23-10-2019 15:00:00 14.1 C 89 % 12.32 C
182 23-10-2019 15:05:00 14.2 C 89 % 12.41 C
183 23-10-2019 15:10:00 14.2 C 89 % 12.41 C
184 23-10-2019 15:15:00 14.2 C 89 % 12.41 C
185 23-10-2019 15:20:00 14.2 C 89 % 12.41 C
186 23-10-2019 15:25:00 14.3 C 89 % 12.51 C
187 23-10-2019 15:30:00 14.3 C 89 % 12.51 C
188 23-10-2019 15:35:00 14.3 C 89 % 12.51 C
189 23-10-2019 15:40:00 14.4 C 89 % 12.61 C
190 23-10-2019 15:45:00 14.4 C 89 % 12.61 C
191 23-10-2019 15:50:00 14.5 C 90 % 12.88 C
192 23-10-2019 15:55:00 14.5 C 89 % 12.71 C
193 23-10-2019 16:00:00 14.6 C 89 % 12.81 C
194 23-10-2019 16:05:00 14.6 C 89 % 12.81 C
195 23-10-2019 16:10:00 14.7 C 90 % 13.08 C
196 23-10-2019 16:15:00 14.7 C 90 % 13.08 C
197 23-10-2019 16:20:00 14.8 C 89 % 13.01 C
198 23-10-2019 16:25:00 14.8 C 89 % 13.01 C
199 23-10-2019 16:30:00 14.8 C 90 % 13.18 C
200 23-10-2019 16:35:00 14.9 C 89 % 13.1 C
Sensor: Nr:Datum:Temp:Feuchte:Taupunkt:
Aussen-T/F 201 23-10-2019 16:40:00 14.9 C 89 % 13.1 C
202 23-10-2019 16:45:00 14.9 C 89 % 13.1 C
203 23-10-2019 16:50:00 14.9 C 89 % 13.1 C
204 23-10-2019 16:55:00 14.9 C 89 % 13.1 C
205 23-10-2019 17:00:00 14.9 C 88 % 12.93 C
206 23-10-2019 17:05:00 14.9 C 89 % 13.1 C
207 23-10-2019 17:10:00 15 C 90 % 13.37 C
208 23-10-2019 17:15:00 15.1 C 90 % 13.47 C
209 23-10-2019 17:20:00 15.1 C 90 % 13.47 C
210 23-10-2019 17:25:00 15 C 90 % 13.37 C
211 23-10-2019 17:30:00 15 C 90 % 13.37 C
212 23-10-2019 17:35:00 15 C 90 % 13.37 C
213 23-10-2019 17:40:00 14.9 C 91 % 13.44 C
214 23-10-2019 17:45:00 14.9 C 91 % 13.44 C
215 23-10-2019 17:50:00 14.8 C 91 % 13.35 C
216 23-10-2019 17:55:00 14.7 C 91 % 13.25 C
217 23-10-2019 18:00:00 14.7 C 91 % 13.25 C
218 23-10-2019 18:05:00 14.6 C 91 % 13.15 C
219 23-10-2019 18:10:00 14.4 C 91 % 12.95 C
220 23-10-2019 18:15:00 14.4 C 91 % 12.95 C
221 23-10-2019 18:20:00 14.3 C 92 % 13.02 C
222 23-10-2019 18:25:00 14.2 C 92 % 12.92 C
223 23-10-2019 18:30:00 14.1 C 92 % 12.82 C
224 23-10-2019 18:35:00 14.1 C 92 % 12.82 C
225 23-10-2019 18:40:00 13.9 C 92 % 12.62 C
Sensor: Nr:Datum:Temp:Feuchte:Taupunkt:
Aussen-T/F 226 23-10-2019 18:45:00 13.9 C 92 % 12.62 C
227 23-10-2019 18:50:00 13.8 C 92 % 12.52 C
228 23-10-2019 18:55:00 13.7 C 92 % 12.42 C
229 23-10-2019 19:00:00 13.6 C 93 % 12.49 C
230 23-10-2019 19:05:00 13.6 C 93 % 12.49 C
231 23-10-2019 19:10:00 13.5 C 93 % 12.39 C
232 23-10-2019 19:15:00 13.4 C 93 % 12.29 C
233 23-10-2019 19:20:00 13.4 C 93 % 12.29 C
234 23-10-2019 19:25:00 13.4 C 93 % 12.29 C
235 23-10-2019 19:30:00 13.3 C 94 % 12.36 C
236 23-10-2019 19:35:00 13.3 C 94 % 12.36 C
237 23-10-2019 19:40:00 13.3 C 94 % 12.36 C
238 23-10-2019 19:45:00 13.3 C 94 % 12.36 C
239 23-10-2019 19:50:00 13.3 C 94 % 12.36 C
240 23-10-2019 19:55:00 13.3 C 94 % 12.36 C
241 23-10-2019 20:00:00 13.3 C 94 % 12.36 C
242 23-10-2019 20:05:00 13.3 C 94 % 12.36 C
243 23-10-2019 20:10:00 13.3 C 94 % 12.36 C
244 23-10-2019 20:15:00 13.3 C 94 % 12.36 C
245 23-10-2019 20:20:00 13.3 C 94 % 12.36 C
246 23-10-2019 20:25:00 13.2 C 94 % 12.26 C
247 23-10-2019 20:30:00 13.2 C 94 % 12.26 C
248 23-10-2019 20:35:00 13.2 C 94 % 12.26 C
249 23-10-2019 20:40:00 13.2 C 95 % 12.42 C
250 23-10-2019 20:45:00 13.2 C 95 % 12.42 C
Sensor: Nr:Datum:Temp:Feuchte:Taupunkt:
Aussen-T/F 251 23-10-2019 20:50:00 13.2 C 95 % 12.42 C
252 23-10-2019 20:55:00 13.2 C 95 % 12.42 C
253 23-10-2019 21:00:00 13.2 C 95 % 12.42 C
254 23-10-2019 21:05:00 13.2 C 95 % 12.42 C
255 23-10-2019 21:10:00 13.2 C 95 % 12.42 C
256 23-10-2019 21:15:00 13.2 C 95 % 12.42 C
257 23-10-2019 21:20:00 13.2 C 95 % 12.42 C
258 23-10-2019 21:25:00 13.2 C 95 % 12.42 C
259 23-10-2019 21:30:00 13.2 C 95 % 12.42 C
260 23-10-2019 21:35:00 13.2 C 95 % 12.42 C
261 23-10-2019 21:40:00 13.2 C 95 % 12.42 C
262 23-10-2019 21:45:00 13.2 C 95 % 12.42 C
263 23-10-2019 21:50:00 13.2 C 95 % 12.42 C
264 23-10-2019 21:55:00 13.1 C 95 % 12.32 C
265 23-10-2019 22:00:00 13.1 C 95 % 12.32 C
266 23-10-2019 22:05:00 13.1 C 95 % 12.32 C
267 23-10-2019 22:10:00 13 C 95 % 12.22 C
268 23-10-2019 22:15:00 12.9 C 95 % 12.12 C
269 23-10-2019 22:20:00 12.9 C 95 % 12.12 C
270 23-10-2019 22:25:00 12.9 C 95 % 12.12 C
271 23-10-2019 22:30:00 12.9 C 95 % 12.12 C
272 23-10-2019 22:35:00 12.9 C 95 % 12.12 C
273 23-10-2019 22:40:00 12.9 C 95 % 12.12 C
274 23-10-2019 22:45:00 12.9 C 95 % 12.12 C
275 23-10-2019 22:50:00 12.9 C 95 % 12.12 C
Sensor: Nr:Datum:Temp:Feuchte:Taupunkt:
Aussen-T/F 276 23-10-2019 22:55:00 12.9 C 95 % 12.12 C
277 23-10-2019 23:00:00 12.9 C 95 % 12.12 C
278 23-10-2019 23:05:00 12.8 C 95 % 12.02 C
279 23-10-2019 23:10:00 12.8 C 95 % 12.02 C
280 23-10-2019 23:15:00 12.8 C 95 % 12.02 C
281 23-10-2019 23:20:00 12.8 C 95 % 12.02 C
282 23-10-2019 23:25:00 12.8 C 95 % 12.02 C
283 23-10-2019 23:30:00 12.8 C 95 % 12.02 C
284 23-10-2019 23:35:00 12.8 C 95 % 12.02 C
285 23-10-2019 23:40:00 12.7 C 95 % 11.92 C
286 23-10-2019 23:45:00 12.7 C 95 % 11.92 C
287 23-10-2019 23:50:00 12.7 C 95 % 11.92 C
288 23-10-2019 23:55:00 12.6 C 95 % 11.82 C
289 24-10-2019 00:00:00 12.6 C 95 % 11.82 C
290 24-10-2019 00:05:00 12.6 C 96 % 11.98 C
291 24-10-2019 00:10:00 12.6 C 96 % 11.98 C
292 24-10-2019 00:15:00 12.5 C 95 % 11.72 C
293 24-10-2019 00:20:00 12.4 C 95 % 11.62 C
294 24-10-2019 00:25:00 12.4 C 95 % 11.62 C
295 24-10-2019 00:30:00 12.4 C 95 % 11.62 C
296 24-10-2019 00:35:00 12.3 C 96 % 11.68 C
297 24-10-2019 00:40:00 12.3 C 96 % 11.68 C
298 24-10-2019 00:45:00 12.2 C 96 % 11.58 C
299 24-10-2019 00:50:00 12.2 C 96 % 11.58 C
300 24-10-2019 00:55:00 12.2 C 96 % 11.58 C
Sensor: Nr:Datum:Temp:Feuchte:Taupunkt:
Aussen-T/F 301 24-10-2019 01:00:00 12.2 C 96 % 11.58 C
302 24-10-2019 01:05:00 12.1 C 96 % 11.48 C
303 24-10-2019 01:10:00 12.1 C 96 % 11.48 C
304 24-10-2019 01:15:00 12.1 C 96 % 11.48 C
305 24-10-2019 01:20:00 12.1 C 96 % 11.48 C
306 24-10-2019 01:25:00 12.1 C 96 % 11.48 C
307 24-10-2019 01:30:00 12.1 C 96 % 11.48 C
308 24-10-2019 01:35:00 12.1 C 96 % 11.48 C
309 24-10-2019 01:40:00 12.2 C 96 % 11.58 C
310 24-10-2019 01:45:00 12.2 C 96 % 11.58 C
311 24-10-2019 01:50:00 12.3 C 96 % 11.68 C
312 24-10-2019 01:55:00 12.3 C 96 % 11.68 C
313 24-10-2019 02:00:00 12.3 C 96 % 11.68 C
314 24-10-2019 02:05:00 12.4 C 97 % 11.94 C
315 24-10-2019 02:10:00 12.4 C 97 % 11.94 C
316 24-10-2019 02:15:00 12.4 C 97 % 11.94 C
317 24-10-2019 02:20:00 12.4 C 97 % 11.94 C
318 24-10-2019 02:25:00 12.3 C 96 % 11.68 C
319 24-10-2019 02:30:00 12.2 C 96 % 11.58 C
320 24-10-2019 02:35:00 12.2 C 96 % 11.58 C
321 24-10-2019 02:40:00 12.2 C 96 % 11.58 C
322 24-10-2019 02:45:00 12.1 C 96 % 11.48 C
323 24-10-2019 02:50:00 12.1 C 96 % 11.48 C
324 24-10-2019 02:55:00 12.1 C 96 % 11.48 C
325 24-10-2019 03:00:00 12 C 96 % 11.38 C
Sensor: Nr:Datum:Temp:Feuchte:Taupunkt:
Aussen-T/F 326 24-10-2019 03:05:00 12 C 96 % 11.38 C
327 24-10-2019 03:10:00 11.9 C 96 % 11.28 C
328 24-10-2019 03:15:00 11.9 C 96 % 11.28 C
329 24-10-2019 03:20:00 11.9 C 96 % 11.28 C
330 24-10-2019 03:25:00 11.9 C 96 % 11.28 C
331 24-10-2019 03:30:00 11.8 C 96 % 11.18 C
332 24-10-2019 03:35:00 11.7 C 96 % 11.08 C
333 24-10-2019 03:40:00 11.7 C 96 % 11.08 C
334 24-10-2019 03:45:00 11.7 C 96 % 11.08 C
335 24-10-2019 03:50:00 11.7 C 96 % 11.08 C
336 24-10-2019 03:55:00 11.6 C 96 % 10.98 C
337 24-10-2019 04:00:00 11.6 C 96 % 10.98 C
338 24-10-2019 04:05:00 11.6 C 97 % 11.14 C
339 24-10-2019 04:10:00 11.6 C 97 % 11.14 C
340 24-10-2019 04:15:00 11.4 C 96 % 10.79 C
341 24-10-2019 04:20:00 11.4 C 97 % 10.94 C
342 24-10-2019 04:25:00 11.4 C 97 % 10.94 C
343 24-10-2019 04:30:00 11.6 C 97 % 11.14 C
344 24-10-2019 04:35:00 11.6 C 97 % 11.14 C
345 24-10-2019 04:40:00 11.7 C 97 % 11.24 C
346 24-10-2019 04:45:00 11.7 C 97 % 11.24 C
347 24-10-2019 04:50:00 11.7 C 97 % 11.24 C
348 24-10-2019 04:55:00 11.8 C 97 % 11.34 C
349 24-10-2019 05:00:00 11.7 C 97 % 11.24 C
350 24-10-2019 05:05:00 11.8 C 97 % 11.34 C
Sensor: Nr:Datum:Temp:Feuchte:Taupunkt:
Aussen-T/F 351 24-10-2019 05:10:00 11.8 C 97 % 11.34 C
352 24-10-2019 05:15:00 11.8 C 97 % 11.34 C
353 24-10-2019 05:20:00 11.8 C 97 % 11.34 C
354 24-10-2019 05:25:00 11.8 C 97 % 11.34 C
355 24-10-2019 05:30:00 11.8 C 97 % 11.34 C
356 24-10-2019 05:35:00 11.9 C 97 % 11.44 C
357 24-10-2019 05:40:00 11.9 C 97 % 11.44 C
358 24-10-2019 05:45:00 11.9 C 97 % 11.44 C
359 24-10-2019 05:50:00 12 C 97 % 11.54 C
360 24-10-2019 05:55:00 12 C 97 % 11.54 C
361 24-10-2019 06:00:00 11.9 C 97 % 11.44 C
362 24-10-2019 06:05:00 11.9 C 97 % 11.44 C
363 24-10-2019 06:10:00 11.8 C 97 % 11.34 C
364 24-10-2019 06:15:00 11.8 C 97 % 11.34 C
365 24-10-2019 06:20:00 11.7 C 97 % 11.24 C
366 24-10-2019 06:25:00 11.7 C 97 % 11.24 C
367 24-10-2019 06:30:00 11.7 C 97 % 11.24 C
368 24-10-2019 06:35:00 11.8 C 97 % 11.34 C
369 24-10-2019 06:40:00 11.9 C 97 % 11.44 C
370 24-10-2019 06:45:00 12.1 C 97 % 11.64 C
371 24-10-2019 06:50:00 12.2 C 97 % 11.74 C
372 24-10-2019 06:55:00 12.2 C 98 % 11.89 C
373 24-10-2019 07:00:00 12.3 C 98 % 11.99 C
374 24-10-2019 07:05:00 12.3 C 97 % 11.84 C
375 24-10-2019 07:10:00 12.3 C 97 % 11.84 C
Sensor: Nr:Datum:Temp:Feuchte:Taupunkt:
Aussen-T/F 376 24-10-2019 07:15:00 12.3 C 97 % 11.84 C
377 24-10-2019 07:20:00 12.3 C 97 % 11.84 C
378 24-10-2019 07:25:00 12.3 C 97 % 11.84 C
379 24-10-2019 07:30:00 12.3 C 97 % 11.84 C
380 24-10-2019 07:35:00 12.3 C 97 % 11.84 C
381 24-10-2019 07:40:00 12.4 C 97 % 11.94 C
382 24-10-2019 07:45:00 12.4 C 97 % 11.94 C
383 24-10-2019 07:50:00 12.4 C 97 % 11.94 C
384 24-10-2019 07:55:00 12.4 C 97 % 11.94 C
385 24-10-2019 08:00:00 12.4 C 97 % 11.94 C
386 24-10-2019 08:05:00 12.4 C 97 % 11.94 C
387 24-10-2019 08:10:00 12.4 C 97 % 11.94 C
388 24-10-2019 08:15:00 12.4 C 97 % 11.94 C
389 24-10-2019 08:20:00 12.4 C 97 % 11.94 C
390 24-10-2019 08:25:00 12.4 C 97 % 11.94 C
391 24-10-2019 08:30:00 12.5 C 97 % 12.04 C
392 24-10-2019 08:35:00 12.6 C 97 % 12.14 C
393 24-10-2019 08:40:00 12.6 C 97 % 12.14 C
394 24-10-2019 08:45:00 12.6 C 97 % 12.14 C
395 24-10-2019 08:50:00 12.6 C 97 % 12.14 C
396 24-10-2019 08:55:00 12.6 C 97 % 12.14 C
397 24-10-2019 09:00:00 12.7 C 97 % 12.24 C
398 24-10-2019 09:05:00 12.8 C 97 % 12.34 C
399 24-10-2019 09:10:00 12.9 C 97 % 12.44 C
400 24-10-2019 09:15:00 12.9 C 97 % 12.44 C
Sensor: Nr:Datum:Temp:Feuchte:Taupunkt:
Aussen-T/F 401 24-10-2019 09:20:00 13 C 97 % 12.54 C
402 24-10-2019 09:25:00 13 C 97 % 12.54 C
403 24-10-2019 09:30:00 13.1 C 97 % 12.63 C
404 24-10-2019 09:35:00 13.1 C 97 % 12.63 C
405 24-10-2019 09:40:00 13.1 C 97 % 12.63 C
406 24-10-2019 09:45:00 13.1 C 97 % 12.63 C
407 24-10-2019 09:50:00 13.2 C 97 % 12.73 C
408 24-10-2019 09:55:00 13.3 C 97 % 12.83 C
409 24-10-2019 10:00:00 13.3 C 97 % 12.83 C
410 24-10-2019 10:05:00 13.3 C 97 % 12.83 C
411 24-10-2019 10:10:00 13.4 C 97 % 12.93 C
412 24-10-2019 10:15:00 13.4 C 97 % 12.93 C
413 24-10-2019 10:20:00 13.5 C 97 % 13.03 C
414 24-10-2019 10:25:00 13.5 C 97 % 13.03 C
415 24-10-2019 10:30:00 13.6 C 97 % 13.13 C
416 24-10-2019 10:35:00 13.7 C 97 % 13.23 C
417 24-10-2019 10:40:00 13.8 C 97 % 13.33 C
418 24-10-2019 10:45:00 13.8 C 97 % 13.33 C
419 24-10-2019 10:50:00 13.8 C 96 % 13.17 C
420 24-10-2019 10:55:00 13.9 C 96 % 13.27 C
421 24-10-2019 11:00:00 14.1 C 96 % 13.47 C
422 24-10-2019 11:05:00 14.1 C 95 % 13.31 C
423 24-10-2019 11:10:00 14.2 C 95 % 13.41 C
424 24-10-2019 11:15:00 14.3 C 95 % 13.51 C
425 24-10-2019 11:20:00 14.4 C 94 % 13.45 C
Sensor: Nr:Datum:Temp:Feuchte:Taupunkt:
Aussen-T/F 426 24-10-2019 11:25:00 14.5 C 94 % 13.55 C
427 24-10-2019 11:30:00 14.6 C 93 % 13.48 C
428 24-10-2019 11:35:00 14.7 C 93 % 13.58 C
429 24-10-2019 11:40:00 14.8 C 92 % 13.51 C
430 24-10-2019 11:45:00 14.8 C 92 % 13.51 C
431 24-10-2019 11:50:00 14.8 C 92 % 13.51 C
432 24-10-2019 11:55:00 14.9 C 92 % 13.61 C
433 24-10-2019 12:00:00 14.9 C 92 % 13.61 C
434 24-10-2019 12:05:00 15 C 92 % 13.71 C
435 24-10-2019 12:10:00 15 C 92 % 13.71 C
436 24-10-2019 12:15:00 15 C 92 % 13.71 C
437 24-10-2019 12:20:00 15 C 92 % 13.71 C
438 24-10-2019 12:25:00 15.1 C 93 % 13.98 C
439 24-10-2019 12:30:00 15.1 C 93 % 13.98 C
440 24-10-2019 12:35:00 15.1 C 93 % 13.98 C
441 24-10-2019 12:40:00 15.2 C 93 % 14.08 C
442 24-10-2019 12:45:00 15.4 C 93 % 14.27 C
443 24-10-2019 12:50:00 15.6 C 93 % 14.47 C
444 24-10-2019 12:55:00 15.7 C 93 % 14.57 C
445 24-10-2019 13:00:00 15.9 C 93 % 14.77 C
446 24-10-2019 13:05:00 15.9 C 92 % 14.6 C
447 24-10-2019 13:10:00 16.2 C 92 % 14.9 C
448 24-10-2019 13:15:00 16.3 C 92 % 15 C
449 24-10-2019 13:20:00 16.4 C 91 % 14.93 C
450 24-10-2019 13:25:00 16.4 C 90 % 14.76 C
Sensor: Nr:Datum:Temp:Feuchte:Taupunkt:
Aussen-T/F 451 24-10-2019 13:30:00 16.4 C 90 % 14.76 C
452 24-10-2019 13:35:00 16.4 C 89 % 14.58 C
453 24-10-2019 13:40:00 16.6 C 88 % 14.6 C
454 24-10-2019 13:45:00 16.8 C 86 % 14.45 C
455 24-10-2019 13:50:00 17 C 87 % 14.82 C
456 24-10-2019 13:55:00 17.2 C 87 % 15.02 C
457 24-10-2019 14:00:00 17.3 C 86 % 14.94 C
458 24-10-2019 14:05:00 17.3 C 86 % 14.94 C
459 24-10-2019 14:10:00 17.3 C 87 % 15.12 C
460 24-10-2019 14:15:00 17.3 C 87 % 15.12 C
461 24-10-2019 14:20:00 17.3 C 88 % 15.29 C
462 24-10-2019 14:25:00 17.3 C 85 % 14.76 C
463 24-10-2019 14:30:00 17.4 C 88 % 15.39 C
464 24-10-2019 14:35:00 17.4 C 86 % 15.03 C
465 24-10-2019 14:40:00 17.6 C 87 % 15.41 C
466 24-10-2019 14:45:00 17.7 C 87 % 15.51 C
467 24-10-2019 14:50:00 17.8 C 88 % 15.79 C
468 24-10-2019 14:55:00 17.9 C 88 % 15.88 C
469 24-10-2019 15:00:00 18 C 87 % 15.8 C
470 24-10-2019 15:05:00 18.1 C 88 % 16.08 C
471 24-10-2019 15:10:00 18.2 C 86 % 15.82 C
472 24-10-2019 15:15:00 18.3 C 85 % 15.74 C
473 24-10-2019 15:20:00 18.4 C 83 % 15.46 C
474 24-10-2019 15:25:00 18.7 C 85 % 16.13 C
475 24-10-2019 15:30:00 18.8 C 85 % 16.23 C
Sensor: Nr:Datum:Temp:Feuchte:Taupunkt:
Aussen-T/F 476 24-10-2019 15:35:00 18.8 C 84 % 16.04 C
477 24-10-2019 15:40:00 18.9 C 84 % 16.14 C
478 24-10-2019 15:45:00 18.8 C 83 % 15.85 C
479 24-10-2019 15:50:00 18.7 C 81 % 15.37 C
480 24-10-2019 15:55:00 18.6 C 79 % 14.89 C
481 24-10-2019 16:00:00 18.4 C 80 % 14.89 C
482 24-10-2019 16:05:00 18.3 C 81 % 14.98 C
483 24-10-2019 16:10:00 18.1 C 81 % 14.79 C
484 24-10-2019 16:15:00 18 C 80 % 14.5 C
485 24-10-2019 16:20:00 18 C 83 % 15.07 C
486 24-10-2019 16:25:00 18.1 C 77 % 14.01 C
487 24-10-2019 16:30:00 18.4 C 77 % 14.3 C
488 24-10-2019 16:35:00 18.7 C 80 % 15.18 C
489 24-10-2019 16:40:00 18.8 C 77 % 14.68 C
490 24-10-2019 16:45:00 18.9 C 77 % 14.78 C
491 24-10-2019 16:50:00 18.9 C 78 % 14.98 C
492 24-10-2019 16:55:00 18.7 C 79 % 14.99 C
493 24-10-2019 17:00:00 18.5 C 81 % 15.18 C
494 24-10-2019 17:05:00 18.3 C 81 % 14.98 C
495 24-10-2019 17:10:00 18.1 C 81 % 14.79 C
496 24-10-2019 17:15:00 17.8 C 82 % 14.69 C
497 24-10-2019 17:20:00 17.8 C 82 % 14.69 C
498 24-10-2019 17:25:00 17.6 C 83 % 14.68 C
499 24-10-2019 17:30:00 17.4 C 82 % 14.3 C
500 24-10-2019 17:35:00 17.3 C 82 % 14.2 C
Sensor: Nr:Datum:Temp:Feuchte:Taupunkt:
Aussen-T/F 501 24-10-2019 17:40:00 17.1 C 81 % 13.82 C
502 24-10-2019 17:45:00 16.9 C 81 % 13.62 C
503 24-10-2019 17:50:00 16.8 C 82 % 13.71 C
504 24-10-2019 17:55:00 16.7 C 82 % 13.61 C
505 24-10-2019 18:00:00 16.6 C 83 % 13.7 C
506 24-10-2019 18:05:00 16.3 C 84 % 13.59 C
507 24-10-2019 18:10:00 16.2 C 84 % 13.5 C
508 24-10-2019 18:15:00 16 C 85 % 13.48 C
509 24-10-2019 18:20:00 15.8 C 85 % 13.28 C
510 24-10-2019 18:25:00 15.7 C 85 % 13.19 C
511 24-10-2019 18:30:00 15.5 C 85 % 12.99 C
512 24-10-2019 18:35:00 15.4 C 86 % 13.07 C
513 24-10-2019 18:40:00 15.3 C 86 % 12.97 C
514 24-10-2019 18:45:00 15.3 C 87 % 13.15 C
515 24-10-2019 18:50:00 15.2 C 87 % 13.05 C
516 24-10-2019 18:55:00 15.2 C 87 % 13.05 C
517 24-10-2019 19:00:00 15.1 C 87 % 12.95 C
518 24-10-2019 19:05:00 15.1 C 87 % 12.95 C
519 24-10-2019 19:10:00 14.9 C 87 % 12.76 C
520 24-10-2019 19:15:00 14.9 C 88 % 12.93 C
521 24-10-2019 19:20:00 14.8 C 88 % 12.83 C
522 24-10-2019 19:25:00 14.8 C 88 % 12.83 C
523 24-10-2019 19:30:00 14.7 C 89 % 12.91 C
524 24-10-2019 19:35:00 14.6 C 89 % 12.81 C
525 24-10-2019 19:40:00 14.5 C 89 % 12.71 C
Sensor: Nr:Datum:Temp:Feuchte:Taupunkt:
Aussen-T/F 526 24-10-2019 19:45:00 14.4 C 89 % 12.61 C
527 24-10-2019 19:50:00 14.3 C 89 % 12.51 C
528 24-10-2019 19:55:00 14.2 C 89 % 12.41 C
529 24-10-2019 20:00:00 14.2 C 89 % 12.41 C
530 24-10-2019 20:05:00 14.1 C 90 % 12.49 C
531 24-10-2019 20:10:00 14 C 90 % 12.39 C
532 24-10-2019 20:15:00 13.9 C 90 % 12.29 C
533 24-10-2019 20:20:00 13.9 C 90 % 12.29 C
534 24-10-2019 20:25:00 13.8 C 90 % 12.19 C
535 24-10-2019 20:30:00 13.8 C 91 % 12.36 C
536 24-10-2019 20:35:00 13.8 C 91 % 12.36 C
537 24-10-2019 20:40:00 13.7 C 91 % 12.26 C
538 24-10-2019 20:45:00 13.7 C 91 % 12.26 C
539 24-10-2019 20:50:00 13.7 C 91 % 12.26 C
540 24-10-2019 20:55:00 13.7 C 91 % 12.26 C
541 24-10-2019 21:00:00 13.7 C 91 % 12.26 C
542 24-10-2019 21:05:00 13.7 C 91 % 12.26 C
543 24-10-2019 21:10:00 13.7 C 91 % 12.26 C
544 24-10-2019 21:15:00 13.7 C 91 % 12.26 C
545 24-10-2019 21:20:00 13.7 C 91 % 12.26 C
546 24-10-2019 21:25:00 13.6 C 91 % 12.16 C
547 24-10-2019 21:30:00 13.5 C 91 % 12.06 C
548 24-10-2019 21:35:00 13.5 C 91 % 12.06 C
549 24-10-2019 21:40:00 13.4 C 91 % 11.96 C
550 24-10-2019 21:45:00 13.4 C 91 % 11.96 C
Sensor: Nr:Datum:Temp:Feuchte:Taupunkt:
Aussen-T/F 551 24-10-2019 21:50:00 13.3 C 91 % 11.86 C
552 24-10-2019 21:55:00 13.3 C 91 % 11.86 C
553 24-10-2019 22:00:00 13.2 C 92 % 11.93 C
554 24-10-2019 22:05:00 13.2 C 92 % 11.93 C
555 24-10-2019 22:10:00 13.2 C 92 % 11.93 C
556 24-10-2019 22:15:00 13.2 C 92 % 11.93 C
557 24-10-2019 22:20:00 13.1 C 92 % 11.83 C
558 24-10-2019 22:25:00 13.1 C 92 % 11.83 C
559 24-10-2019 22:30:00 13.1 C 92 % 11.83 C
560 24-10-2019 22:35:00 13 C 92 % 11.73 C
561 24-10-2019 22:40:00 12.9 C 93 % 11.8 C
562 24-10-2019 22:45:00 12.9 C 93 % 11.8 C
563 24-10-2019 22:50:00 13 C 93 % 11.9 C
564 24-10-2019 22:55:00 13 C 94 % 12.06 C
565 24-10-2019 23:00:00 13.1 C 94 % 12.16 C
566 24-10-2019 23:05:00 13.2 C 94 % 12.26 C
567 24-10-2019 23:10:00 13.2 C 94 % 12.26 C
568 24-10-2019 23:15:00 13.3 C 94 % 12.36 C
569 24-10-2019 23:20:00 13.3 C 94 % 12.36 C
570 24-10-2019 23:25:00 13.3 C 94 % 12.36 C
571 24-10-2019 23:30:00 13.3 C 94 % 12.36 C
572 24-10-2019 23:35:00 13.3 C 94 % 12.36 C
573 24-10-2019 23:40:00 13.2 C 93 % 12.09 C
574 24-10-2019 23:45:00 13.1 C 93 % 11.99 C
575 24-10-2019 23:50:00 13 C 93 % 11.9 C
Sensor: Nr:Datum:Temp:Feuchte:Taupunkt:
Aussen-T/F 576 24-10-2019 23:55:00 12.9 C 93 % 11.8 C
577 25-10-2019 00:00:00 12.8 C 93 % 11.7 C
578 25-10-2019 00:05:00 12.7 C 93 % 11.6 C
579 25-10-2019 00:10:00 12.6 C 93 % 11.5 C
580 25-10-2019 00:15:00 12.6 C 93 % 11.5 C
581 25-10-2019 00:20:00 12.5 C 93 % 11.4 C
582 25-10-2019 00:25:00 12.4 C 94 % 11.46 C
583 25-10-2019 00:30:00 12.3 C 94 % 11.36 C
584 25-10-2019 00:35:00 12.3 C 94 % 11.36 C
585 25-10-2019 00:40:00 12.2 C 94 % 11.26 C
586 25-10-2019 00:45:00 12.2 C 94 % 11.26 C
587 25-10-2019 00:50:00 12.2 C 94 % 11.26 C
588 25-10-2019 00:55:00 12.1 C 94 % 11.16 C
589 25-10-2019 01:00:00 12.1 C 95 % 11.32 C
590 25-10-2019 01:05:00 12.1 C 95 % 11.32 C
591 25-10-2019 01:10:00 12.1 C 95 % 11.32 C
592 25-10-2019 01:15:00 12.1 C 95 % 11.32 C
593 25-10-2019 01:20:00 12 C 95 % 11.22 C
594 25-10-2019 01:25:00 12 C 95 % 11.22 C
595 25-10-2019 01:30:00 11.9 C 95 % 11.13 C
596 25-10-2019 01:35:00 11.9 C 95 % 11.13 C
597 25-10-2019 01:40:00 11.9 C 95 % 11.13 C
598 25-10-2019 01:45:00 11.8 C 95 % 11.03 C
599 25-10-2019 01:50:00 11.8 C 95 % 11.03 C
600 25-10-2019 01:55:00 11.7 C 95 % 10.93 C
Sensor: Nr:Datum:Temp:Feuchte:Taupunkt:
Aussen-T/F 601 25-10-2019 02:00:00 11.6 C 95 % 10.83 C
602 25-10-2019 02:05:00 11.6 C 95 % 10.83 C
603 25-10-2019 02:10:00 11.5 C 95 % 10.73 C
604 25-10-2019 02:15:00 11.5 C 95 % 10.73 C
605 25-10-2019 02:20:00 11.5 C 95 % 10.73 C
606 25-10-2019 02:25:00 11.4 C 95 % 10.63 C
607 25-10-2019 02:30:00 11.4 C 95 % 10.63 C
608 25-10-2019 02:35:00 11.4 C 95 % 10.63 C
609 25-10-2019 02:40:00 11.3 C 95 % 10.53 C
610 25-10-2019 02:45:00 11.4 C 96 % 10.79 C
611 25-10-2019 02:50:00 11.6 C 96 % 10.98 C
612 25-10-2019 02:55:00 11.7 C 95 % 10.93 C
613 25-10-2019 03:00:00 11.7 C 95 % 10.93 C
614 25-10-2019 03:05:00 12 C 96 % 11.38 C
615 25-10-2019 03:10:00 12.2 C 95 % 11.42 C
616 25-10-2019 03:15:00 12.3 C 94 % 11.36 C
617 25-10-2019 03:20:00 12.3 C 94 % 11.36 C
618 25-10-2019 03:25:00 12.3 C 94 % 11.36 C
619 25-10-2019 03:30:00 12.4 C 93 % 11.3 C
620 25-10-2019 03:35:00 12.4 C 93 % 11.3 C
621 25-10-2019 03:40:00 12.4 C 93 % 11.3 C
622 25-10-2019 03:45:00 12.6 C 93 % 11.5 C
623 25-10-2019 03:50:00 12.7 C 93 % 11.6 C
624 25-10-2019 03:55:00 12.8 C 93 % 11.7 C
625 25-10-2019 04:00:00 12.9 C 93 % 11.8 C
Sensor: Nr:Datum:Temp:Feuchte:Taupunkt:
Aussen-T/F 626 25-10-2019 04:05:00 12.8 C 92 % 11.53 C
627 25-10-2019 04:10:00 12.8 C 92 % 11.53 C
628 25-10-2019 04:15:00 12.8 C 92 % 11.53 C
629 25-10-2019 04:20:00 12.8 C 92 % 11.53 C
630 25-10-2019 04:25:00 12.8 C 92 % 11.53 C
631 25-10-2019 04:30:00 12.8 C 92 % 11.53 C
632 25-10-2019 04:35:00 12.9 C 92 % 11.63 C
633 25-10-2019 04:40:00 13 C 92 % 11.73 C
634 25-10-2019 04:45:00 13.1 C 91 % 11.67 C
635 25-10-2019 04:50:00 13 C 90 % 11.4 C
636 25-10-2019 04:55:00 12.9 C 90 % 11.3 C
637 25-10-2019 05:00:00 12.8 C 90 % 11.2 C
638 25-10-2019 05:05:00 12.7 C 90 % 11.1 C
639 25-10-2019 05:10:00 12.6 C 91 % 11.17 C
640 25-10-2019 05:15:00 12.6 C 91 % 11.17 C
641 25-10-2019 05:20:00 12.6 C 91 % 11.17 C
642 25-10-2019 05:25:00 12.6 C 91 % 11.17 C
643 25-10-2019 05:30:00 12.7 C 91 % 11.27 C
644 25-10-2019 05:35:00 12.7 C 91 % 11.27 C
645 25-10-2019 05:40:00 12.7 C 91 % 11.27 C
646 25-10-2019 05:45:00 12.7 C 91 % 11.27 C
647 25-10-2019 05:50:00 12.6 C 91 % 11.17 C
648 25-10-2019 05:55:00 12.6 C 91 % 11.17 C
649 25-10-2019 06:00:00 12.6 C 91 % 11.17 C
650 25-10-2019 06:05:00 12.5 C 91 % 11.07 C
Sensor: Nr:Datum:Temp:Feuchte:Taupunkt:
Aussen-T/F 651 25-10-2019 06:10:00 12.4 C 91 % 10.97 C
652 25-10-2019 06:15:00 12.3 C 92 % 11.04 C
653 25-10-2019 06:20:00 12.4 C 92 % 11.14 C
654 25-10-2019 06:25:00 12.4 C 93 % 11.3 C
655 25-10-2019 06:30:00 12.5 C 93 % 11.4 C
656 25-10-2019 06:35:00 12.6 C 93 % 11.5 C
657 25-10-2019 06:40:00 12.8 C 92 % 11.53 C
658 25-10-2019 06:45:00 12.9 C 92 % 11.63 C
659 25-10-2019 06:50:00 13.1 C 92 % 11.83 C
660 25-10-2019 06:55:00 13.1 C 92 % 11.83 C
661 25-10-2019 07:00:00 13.2 C 91 % 11.76 C
662 25-10-2019 07:05:00 13.3 C 91 % 11.86 C
663 25-10-2019 07:10:00 13.3 C 91 % 11.86 C
664 25-10-2019 07:15:00 13.3 C 90 % 11.7 C
665 25-10-2019 07:20:00 13.2 C 90 % 11.6 C
666 25-10-2019 07:25:00 13.2 C 90 % 11.6 C
667 25-10-2019 07:30:00 13.1 C 90 % 11.5 C
668 25-10-2019 07:35:00 13.1 C 91 % 11.67 C
669 25-10-2019 07:40:00 13.1 C 91 % 11.67 C
670 25-10-2019 07:45:00 13.1 C 91 % 11.67 C
671 25-10-2019 07:50:00 13.1 C 91 % 11.67 C
672 25-10-2019 07:55:00 13.1 C 91 % 11.67 C
673 25-10-2019 08:00:00 13 C 91 % 11.57 C
674 25-10-2019 08:05:00 12.9 C 91 % 11.47 C
675 25-10-2019 08:10:00 12.8 C 91 % 11.37 C
Sensor: Nr:Datum:Temp:Feuchte:Taupunkt:
Aussen-T/F 676 25-10-2019 08:15:00 12.8 C 91 % 11.37 C
677 25-10-2019 08:20:00 12.8 C 91 % 11.37 C
678 25-10-2019 08:25:00 12.7 C 91 % 11.27 C
679 25-10-2019 08:30:00 12.6 C 92 % 11.34 C
680 25-10-2019 08:35:00 12.6 C 92 % 11.34 C
681 25-10-2019 08:40:00 12.5 C 92 % 11.24 C
682 25-10-2019 08:45:00 12.5 C 92 % 11.24 C
683 25-10-2019 08:50:00 12.5 C 93 % 11.4 C
684 25-10-2019 08:55:00 12.5 C 93 % 11.4 C
685 25-10-2019 09:00:00 12.6 C 93 % 11.5 C
686 25-10-2019 09:05:00 12.6 C 93 % 11.5 C
687 25-10-2019 09:10:00 12.6 C 93 % 11.5 C
688 25-10-2019 09:15:00 12.7 C 93 % 11.6 C
689 25-10-2019 09:20:00 12.8 C 94 % 11.86 C
690 25-10-2019 09:25:00 12.9 C 94 % 11.96 C
691 25-10-2019 09:30:00 12.9 C 94 % 11.96 C
692 25-10-2019 09:35:00 13.1 C 93 % 11.99 C
693 25-10-2019 09:40:00 13.1 C 93 % 11.99 C
694 25-10-2019 09:45:00 13.2 C 92 % 11.93 C
695 25-10-2019 09:50:00 13.3 C 92 % 12.03 C
696 25-10-2019 09:55:00 13.4 C 92 % 12.13 C
697 25-10-2019 10:00:00 13.4 C 92 % 12.13 C
698 25-10-2019 10:05:00 13.5 C 92 % 12.23 C
699 25-10-2019 10:10:00 13.5 C 92 % 12.23 C
700 25-10-2019 10:15:00 13.4 C 91 % 11.96 C
Sensor: Nr:Datum:Temp:Feuchte:Taupunkt:
Aussen-T/F 701 25-10-2019 10:20:00 13.5 C 90 % 11.89 C
702 25-10-2019 10:25:00 13.6 C 90 % 11.99 C
703 25-10-2019 10:30:00 13.7 C 89 % 11.92 C
704 25-10-2019 10:35:00 13.8 C 89 % 12.02 C
705 25-10-2019 10:40:00 13.9 C 88 % 11.95 C
706 25-10-2019 10:45:00 14.1 C 87 % 11.97 C
707 25-10-2019 10:50:00 14.3 C 85 % 11.81 C
708 25-10-2019 10:55:00 14.6 C 84 % 11.93 C
709 25-10-2019 11:00:00 14.7 C 84 % 12.03 C
710 25-10-2019 11:05:00 14.7 C 83 % 11.85 C
711 25-10-2019 11:10:00 14.8 C 83 % 11.94 C
712 25-10-2019 11:15:00 14.8 C 83 % 11.94 C
713 25-10-2019 11:20:00 14.9 C 83 % 12.04 C
714 25-10-2019 11:25:00 14.9 C 82 % 11.86 C
715 25-10-2019 11:30:00 14.9 C 82 % 11.86 C
716 25-10-2019 11:35:00 15 C 82 % 11.95 C
717 25-10-2019 11:40:00 15 C 82 % 11.95 C
718 25-10-2019 11:45:00 15 C 82 % 11.95 C
719 25-10-2019 11:50:00 15.1 C 82 % 12.05 C
720 25-10-2019 11:55:00 15.1 C 82 % 12.05 C
721 25-10-2019 12:00:00 15.1 C 81 % 11.87 C
722 25-10-2019 12:05:00 15 C 80 % 11.58 C
723 25-10-2019 12:10:00 15.1 C 81 % 11.87 C
724 25-10-2019 12:15:00 15.1 C 80 % 11.68 C
725 25-10-2019 12:20:00 15.2 C 80 % 11.78 C
Sensor: Nr:Datum:Temp:Feuchte:Taupunkt:
Aussen-T/F 726 25-10-2019 12:25:00 15.2 C 79 % 11.59 C
727 25-10-2019 12:30:00 15.2 C 79 % 11.59 C
728 25-10-2019 12:35:00 15.3 C 79 % 11.68 C
729 25-10-2019 12:40:00 15.4 C 78 % 11.59 C
730 25-10-2019 12:45:00 15.4 C 78 % 11.59 C
731 25-10-2019 12:50:00 15.6 C 79 % 11.97 C
732 25-10-2019 12:55:00 15.7 C 78 % 11.88 C
733 25-10-2019 13:00:00 15.7 C 76 % 11.48 C
734 25-10-2019 13:05:00 15.9 C 78 % 12.07 C
735 25-10-2019 13:10:00 16.1 C 75 % 11.67 C
736 25-10-2019 13:15:00 16.2 C 74 % 11.56 C
737 25-10-2019 13:20:00 16.2 C 75 % 11.77 C
738 25-10-2019 13:25:00 16.3 C 75 % 11.86 C
739 25-10-2019 13:30:00 16.4 C 73 % 11.55 C
740 25-10-2019 13:35:00 16.5 C 73 % 11.65 C
741 25-10-2019 13:40:00 16.4 C 70 % 10.92 C
742 25-10-2019 13:45:00 16.3 C 71 % 11.04 C
743 25-10-2019 13:50:00 16.2 C 72 % 11.15 C
744 25-10-2019 13:55:00 16.1 C 73 % 11.26 C
745 25-10-2019 14:00:00 16 C 73 % 11.17 C
746 25-10-2019 14:05:00 16 C 73 % 11.17 C
747 25-10-2019 14:10:00 16.1 C 73 % 11.26 C
748 25-10-2019 14:15:00 16.2 C 74 % 11.56 C
749 25-10-2019 14:20:00 16.2 C 75 % 11.77 C
750 25-10-2019 14:25:00 16.3 C 76 % 12.07 C
Sensor: Nr:Datum:Temp:Feuchte:Taupunkt:
Aussen-T/F 751 25-10-2019 14:30:00 16.3 C 75 % 11.86 C
752 25-10-2019 14:35:00 16.4 C 74 % 11.76 C
753 25-10-2019 14:40:00 16.5 C 74 % 11.85 C
754 25-10-2019 14:45:00 16.5 C 74 % 11.85 C
755 25-10-2019 14:50:00 16.5 C 73 % 11.65 C
756 25-10-2019 14:55:00 16.5 C 72 % 11.44 C
757 25-10-2019 15:00:00 16.5 C 72 % 11.44 C
758 25-10-2019 15:05:00 16.6 C 71 % 11.32 C
759 25-10-2019 15:10:00 16.6 C 71 % 11.32 C
760 25-10-2019 15:15:00 16.5 C 71 % 11.23 C
761 25-10-2019 15:20:00 16.4 C 70 % 10.92 C
762 25-10-2019 15:25:00 16.4 C 70 % 10.92 C
763 25-10-2019 15:30:00 16.4 C 70 % 10.92 C
764 25-10-2019 15:35:00 16.4 C 72 % 11.34 C
765 25-10-2019 15:40:00 16.4 C 70 % 10.92 C
766 25-10-2019 15:45:00 16.4 C 69 % 10.7 C
767 25-10-2019 15:50:00 16.3 C 70 % 10.82 C
768 25-10-2019 15:55:00 16.3 C 70 % 10.82 C
769 25-10-2019 16:00:00 16.3 C 70 % 10.82 C
770 25-10-2019 16:05:00 16.3 C 70 % 10.82 C
771 25-10-2019 16:10:00 16.3 C 73 % 11.46 C
772 25-10-2019 16:15:00 16.2 C 71 % 10.94 C
773 25-10-2019 16:20:00 16.2 C 74 % 11.56 C
774 25-10-2019 16:25:00 16.1 C 72 % 11.06 C
775 25-10-2019 16:30:00 16.1 C 74 % 11.47 C
Sensor: Nr:Datum:Temp:Feuchte:Taupunkt:
Aussen-T/F 776 25-10-2019 16:35:00 16.1 C 73 % 11.26 C
777 25-10-2019 16:40:00 15.9 C 75 % 11.48 C
778 25-10-2019 16:45:00 15.8 C 76 % 11.58 C
779 25-10-2019 16:50:00 15.7 C 74 % 11.08 C
780 25-10-2019 16:55:00 15.7 C 76 % 11.48 C
781 25-10-2019 17:00:00 15.5 C 78 % 11.68 C
782 25-10-2019 17:05:00 15.3 C 79 % 11.68 C
783 25-10-2019 17:10:00 15.1 C 80 % 11.68 C
784 25-10-2019 17:15:00 14.9 C 80 % 11.48 C
785 25-10-2019 17:20:00 14.7 C 81 % 11.48 C
786 25-10-2019 17:25:00 14.6 C 82 % 11.56 C
787 25-10-2019 17:30:00 14.4 C 82 % 11.37 C
788 25-10-2019 17:35:00 14.3 C 83 % 11.45 C
789 25-10-2019 17:40:00 14.2 C 83 % 11.36 C
790 25-10-2019 17:45:00 14.1 C 84 % 11.44 C
791 25-10-2019 17:50:00 13.9 C 84 % 11.24 C
792 25-10-2019 17:55:00 13.8 C 85 % 11.32 C
793 25-10-2019 18:00:00 13.7 C 85 % 11.23 C
794 25-10-2019 18:05:00 13.6 C 85 % 11.13 C
795 25-10-2019 18:10:00 13.4 C 86 % 11.11 C
796 25-10-2019 18:15:00 13.2 C 86 % 10.91 C
797 25-10-2019 18:20:00 13.1 C 86 % 10.81 C
798 25-10-2019 18:25:00 13 C 87 % 10.89 C
799 25-10-2019 18:30:00 12.9 C 87 % 10.79 C
800 25-10-2019 18:35:00 12.8 C 86 % 10.52 C
Sensor: Nr:Datum:Temp:Feuchte:Taupunkt:
Aussen-T/F 801 25-10-2019 18:40:00 12.7 C 87 % 10.59 C
802 25-10-2019 18:45:00 12.7 C 87 % 10.59 C
803 25-10-2019 18:50:00 12.6 C 87 % 10.5 C
804 25-10-2019 18:55:00 12.5 C 88 % 10.57 C
805 25-10-2019 19:00:00 12.4 C 88 % 10.47 C
806 25-10-2019 19:05:00 12.3 C 89 % 10.54 C
807 25-10-2019 19:10:00 12.2 C 89 % 10.44 C
808 25-10-2019 19:15:00 12.2 C 89 % 10.44 C
809 25-10-2019 19:20:00 12.1 C 90 % 10.51 C
810 25-10-2019 19:25:00 12 C 90 % 10.41 C
811 25-10-2019 19:30:00 11.9 C 90 % 10.31 C
812 25-10-2019 19:35:00 11.8 C 90 % 10.21 C
813 25-10-2019 19:40:00 11.8 C 91 % 10.38 C
814 25-10-2019 19:45:00 11.8 C 91 % 10.38 C
815 25-10-2019 19:50:00 11.7 C 91 % 10.28 C
816 25-10-2019 19:55:00 11.7 C 91 % 10.28 C
817 25-10-2019 20:00:00 11.6 C 91 % 10.18 C
818 25-10-2019 20:05:00 11.6 C 91 % 10.18 C
819 25-10-2019 20:10:00 11.6 C 92 % 10.35 C
820 25-10-2019 20:15:00 11.6 C 91 % 10.18 C
821 25-10-2019 20:20:00 11.6 C 91 % 10.18 C
822 25-10-2019 20:25:00 11.5 C 91 % 10.08 C
823 25-10-2019 20:30:00 11.4 C 91 % 9.98 C
824 25-10-2019 20:35:00 11.3 C 91 % 9.89 C
825 25-10-2019 20:40:00 11.3 C 91 % 9.89 C
Sensor: Nr:Datum:Temp:Feuchte:Taupunkt:
Aussen-T/F 826 25-10-2019 20:45:00 11.3 C 92 % 10.05 C
827 25-10-2019 20:50:00 11.3 C 92 % 10.05 C
828 25-10-2019 20:55:00 11.3 C 92 % 10.05 C
829 25-10-2019 21:00:00 11.3 C 92 % 10.05 C
830 25-10-2019 21:05:00 11.3 C 92 % 10.05 C
831 25-10-2019 21:10:00 11.2 C 92 % 9.95 C
832 25-10-2019 21:15:00 11.2 C 92 % 9.95 C
833 25-10-2019 21:20:00 11.1 C 92 % 9.85 C
834 25-10-2019 21:25:00 11.1 C 92 % 9.85 C
835 25-10-2019 21:30:00 10.9 C 92 % 9.65 C
836 25-10-2019 21:35:00 10.9 C 92 % 9.65 C
837 25-10-2019 21:40:00 10.9 C 93 % 9.81 C
838 25-10-2019 21:45:00 10.9 C 93 % 9.81 C
839 25-10-2019 21:50:00 10.8 C 93 % 9.71 C
840 25-10-2019 21:55:00 10.7 C 93 % 9.62 C
841 25-10-2019 22:00:00 10.8 C 94 % 9.87 C
842 25-10-2019 22:05:00 10.9 C 94 % 9.97 C
843 25-10-2019 22:10:00 11.1 C 94 % 10.17 C
844 25-10-2019 22:15:00 11.2 C 94 % 10.27 C
845 25-10-2019 22:20:00 11.3 C 94 % 10.37 C
846 25-10-2019 22:25:00 11.3 C 94 % 10.37 C
847 25-10-2019 22:30:00 11.3 C 94 % 10.37 C
848 25-10-2019 22:35:00 11.4 C 94 % 10.47 C
849 25-10-2019 22:40:00 11.4 C 94 % 10.47 C
850 25-10-2019 22:45:00 11.6 C 93 % 10.51 C
Sensor: Nr:Datum:Temp:Feuchte:Taupunkt:
Aussen-T/F 851 25-10-2019 22:50:00 11.6 C 93 % 10.51 C
852 25-10-2019 22:55:00 11.7 C 93 % 10.61 C
853 25-10-2019 23:00:00 11.8 C 93 % 10.71 C
854 25-10-2019 23:05:00 11.9 C 93 % 10.81 C
855 25-10-2019 23:10:00 12.1 C 93 % 11 C
856 25-10-2019 23:15:00 12.2 C 93 % 11.1 C
857 25-10-2019 23:20:00 12.3 C 93 % 11.2 C
858 25-10-2019 23:25:00 12.4 C 93 % 11.3 C
859 25-10-2019 23:30:00 12.6 C 93 % 11.5 C
860 25-10-2019 23:35:00 12.7 C 92 % 11.43 C
861 25-10-2019 23:40:00 12.8 C 91 % 11.37 C
862 25-10-2019 23:45:00 12.8 C 91 % 11.37 C
863 25-10-2019 23:50:00 12.9 C 91 % 11.47 C
864 25-10-2019 23:55:00 13.1 C 91 % 11.67 C
865 26-10-2019 00:00:00 13.1 C 90 % 11.5 C
866 26-10-2019 00:05:00 13.2 C 91 % 11.76 C
867 26-10-2019 00:10:00 13.2 C 90 % 11.6 C
868 26-10-2019 00:15:00 13.3 C 90 % 11.7 C
869 26-10-2019 00:20:00 13.4 C 90 % 11.79 C
870 26-10-2019 00:25:00 13.5 C 89 % 11.72 C
871 26-10-2019 00:30:00 13.6 C 89 % 11.82 C
872 26-10-2019 00:35:00 13.7 C 88 % 11.75 C
873 26-10-2019 00:40:00 13.7 C 89 % 11.92 C
874 26-10-2019 00:45:00 13.7 C 88 % 11.75 C
875 26-10-2019 00:50:00 13.7 C 88 % 11.75 C
Sensor: Nr:Datum:Temp:Feuchte:Taupunkt:
Aussen-T/F 876 26-10-2019 00:55:00 13.7 C 88 % 11.75 C
877 26-10-2019 01:00:00 13.7 C 88 % 11.75 C
878 26-10-2019 01:05:00 13.7 C 88 % 11.75 C
879 26-10-2019 01:10:00 13.6 C 88 % 11.65 C
880 26-10-2019 01:15:00 13.6 C 88 % 11.65 C
881 26-10-2019 01:20:00 13.5 C 88 % 11.55 C
882 26-10-2019 01:25:00 13.4 C 88 % 11.45 C
883 26-10-2019 01:30:00 13.4 C 89 % 11.63 C
884 26-10-2019 01:35:00 13.6 C 88 % 11.65 C
885 26-10-2019 01:40:00 13.8 C 88 % 11.85 C
886 26-10-2019 01:45:00 13.8 C 88 % 11.85 C
887 26-10-2019 01:50:00 13.9 C 88 % 11.95 C
888 26-10-2019 01:55:00 14.1 C 88 % 12.14 C
889 26-10-2019 02:00:00 14.1 C 87 % 11.97 C
890 26-10-2019 02:05:00 14.2 C 86 % 11.89 C
891 26-10-2019 02:10:00 14.1 C 86 % 11.8 C
892 26-10-2019 02:15:00 13.9 C 86 % 11.6 C
893 26-10-2019 02:20:00 13.8 C 87 % 11.68 C
894 26-10-2019 02:25:00 13.6 C 87 % 11.48 C
895 26-10-2019 02:30:00 13.4 C 88 % 11.45 C
896 26-10-2019 02:35:00 13.3 C 89 % 11.53 C
897 26-10-2019 02:40:00 13.2 C 89 % 11.43 C
898 26-10-2019 02:45:00 13.1 C 89 % 11.33 C
899 26-10-2019 02:50:00 12.9 C 89 % 11.13 C
900 26-10-2019 02:55:00 12.8 C 90 % 11.2 C
Sensor: Nr:Datum:Temp:Feuchte:Taupunkt:
Aussen-T/F 901 26-10-2019 03:00:00 12.8 C 90 % 11.2 C
902 26-10-2019 03:05:00 12.7 C 90 % 11.1 C
903 26-10-2019 03:10:00 12.6 C 91 % 11.17 C
904 26-10-2019 03:15:00 12.5 C 91 % 11.07 C
905 26-10-2019 03:20:00 12.4 C 91 % 10.97 C
906 26-10-2019 03:25:00 12.3 C 91 % 10.87 C
907 26-10-2019 03:30:00 12.3 C 91 % 10.87 C
908 26-10-2019 03:35:00 12.2 C 91 % 10.78 C
909 26-10-2019 03:40:00 12 C 92 % 10.74 C
910 26-10-2019 03:45:00 11.9 C 92 % 10.64 C
911 26-10-2019 03:50:00 11.8 C 92 % 10.54 C
912 26-10-2019 03:55:00 11.7 C 92 % 10.44 C
913 26-10-2019 04:00:00 11.7 C 93 % 10.61 C
914 26-10-2019 04:05:00 11.6 C 93 % 10.51 C
915 26-10-2019 04:10:00 11.6 C 93 % 10.51 C
916 26-10-2019 04:15:00 11.5 C 93 % 10.41 C
917 26-10-2019 04:20:00 11.4 C 93 % 10.31 C
918 26-10-2019 04:25:00 11.3 C 93 % 10.21 C
919 26-10-2019 04:30:00 11.3 C 94 % 10.37 C
920 26-10-2019 04:35:00 11.4 C 94 % 10.47 C
921 26-10-2019 04:40:00 11.7 C 95 % 10.93 C
922 26-10-2019 04:45:00 11.8 C 95 % 11.03 C
923 26-10-2019 04:50:00 11.9 C 94 % 10.97 C
924 26-10-2019 04:55:00 11.9 C 94 % 10.97 C
925 26-10-2019 05:00:00 12.1 C 94 % 11.16 C
Sensor: Nr:Datum:Temp:Feuchte:Taupunkt:
Aussen-T/F 926 26-10-2019 05:05:00 12.2 C 94 % 11.26 C
927 26-10-2019 05:10:00 12.2 C 94 % 11.26 C
928 26-10-2019 05:15:00 12.3 C 94 % 11.36 C
929 26-10-2019 05:20:00 12.3 C 94 % 11.36 C
930 26-10-2019 05:25:00 12.4 C 93 % 11.3 C
931 26-10-2019 05:30:00 12.4 C 93 % 11.3 C
932 26-10-2019 05:35:00 12.4 C 93 % 11.3 C
933 26-10-2019 05:40:00 12.4 C 92 % 11.14 C
934 26-10-2019 05:45:00 12.3 C 92 % 11.04 C
935 26-10-2019 05:50:00 12.3 C 92 % 11.04 C
936 26-10-2019 05:55:00 12.2 C 92 % 10.94 C
937 26-10-2019 06:00:00 12.2 C 92 % 10.94 C
938 26-10-2019 06:05:00 12.1 C 93 % 11 C
939 26-10-2019 06:10:00 12.1 C 93 % 11 C
940 26-10-2019 06:15:00 11.9 C 93 % 10.81 C
941 26-10-2019 06:20:00 11.9 C 93 % 10.81 C
942 26-10-2019 06:25:00 11.8 C 93 % 10.71 C
943 26-10-2019 06:30:00 11.8 C 93 % 10.71 C
944 26-10-2019 06:35:00 11.8 C 94 % 10.87 C
945 26-10-2019 06:40:00 11.7 C 94 % 10.77 C
946 26-10-2019 06:45:00 11.7 C 94 % 10.77 C
947 26-10-2019 06:50:00 11.7 C 94 % 10.77 C
948 26-10-2019 06:55:00 11.7 C 94 % 10.77 C
949 26-10-2019 07:00:00 11.7 C 94 % 10.77 C
950 26-10-2019 07:05:00 11.6 C 94 % 10.67 C
Sensor: Nr:Datum:Temp:Feuchte:Taupunkt:
Aussen-T/F 951 26-10-2019 07:10:00 11.5 C 94 % 10.57 C
952 26-10-2019 07:15:00 11.4 C 94 % 10.47 C
953 26-10-2019 07:20:00 11.3 C 94 % 10.37 C
954 26-10-2019 07:25:00 11.2 C 94 % 10.27 C
955 26-10-2019 07:30:00 11.1 C 94 % 10.17 C
956 26-10-2019 07:35:00 10.9 C 94 % 9.97 C
957 26-10-2019 07:40:00 10.8 C 94 % 9.87 C
958 26-10-2019 07:45:00 10.7 C 94 % 9.77 C
959 26-10-2019 07:50:00 10.6 C 94 % 9.68 C
960 26-10-2019 07:55:00 10.4 C 94 % 9.48 C
961 26-10-2019 08:00:00 10.4 C 94 % 9.48 C
962 26-10-2019 08:05:00 10.3 C 94 % 9.38 C
963 26-10-2019 08:10:00 10.2 C 94 % 9.28 C
964 26-10-2019 08:15:00 10.1 C 94 % 9.18 C
965 26-10-2019 08:20:00 10.1 C 95 % 9.34 C
966 26-10-2019 08:25:00 10.1 C 95 % 9.34 C
967 26-10-2019 08:30:00 10.1 C 95 % 9.34 C
968 26-10-2019 08:35:00 10.1 C 95 % 9.34 C
969 26-10-2019 08:40:00 10.1 C 95 % 9.34 C
970 26-10-2019 08:45:00 10.1 C 95 % 9.34 C
971 26-10-2019 08:50:00 10.2 C 96 % 9.59 C
972 26-10-2019 08:55:00 10.1 C 95 % 9.34 C
973 26-10-2019 09:00:00 10.1 C 96 % 9.49 C
974 26-10-2019 09:05:00 10.1 C 96 % 9.49 C
975 26-10-2019 09:10:00 10.1 C 96 % 9.49 C
Sensor: Nr:Datum:Temp:Feuchte:Taupunkt:
Aussen-T/F 976 26-10-2019 09:15:00 10.2 C 96 % 9.59 C
977 26-10-2019 09:20:00 10.2 C 96 % 9.59 C
978 26-10-2019 09:25:00 10.3 C 96 % 9.69 C
979 26-10-2019 09:30:00 10.3 C 96 % 9.69 C
980 26-10-2019 09:35:00 10.4 C 96 % 9.79 C
981 26-10-2019 09:40:00 10.4 C 96 % 9.79 C
982 26-10-2019 09:45:00 10.5 C 96 % 9.89 C
983 26-10-2019 09:50:00 10.6 C 96 % 9.99 C
984 26-10-2019 09:55:00 10.7 C 96 % 10.09 C
985 26-10-2019 10:00:00 10.7 C 96 % 10.09 C
986 26-10-2019 10:05:00 10.8 C 96 % 10.19 C
987 26-10-2019 10:10:00 10.9 C 96 % 10.29 C
988 26-10-2019 10:15:00 11 C 96 % 10.39 C
989 26-10-2019 10:20:00 11.1 C 97 % 10.64 C
990 26-10-2019 10:25:00 11.2 C 97 % 10.74 C
991 26-10-2019 10:30:00 11.3 C 97 % 10.84 C
992 26-10-2019 10:35:00 11.4 C 97 % 10.94 C
993 26-10-2019 10:40:00 11.5 C 97 % 11.04 C
994 26-10-2019 10:45:00 11.7 C 97 % 11.24 C
995 26-10-2019 10:50:00 11.8 C 97 % 11.34 C
996 26-10-2019 10:55:00 11.8 C 97 % 11.34 C
997 26-10-2019 11:00:00 11.9 C 97 % 11.44 C
998 26-10-2019 11:05:00 12 C 97 % 11.54 C
999 26-10-2019 11:10:00 12.2 C 97 % 11.74 C
1000 26-10-2019 11:15:00 12.2 C 97 % 11.74 C
Sensor: Nr:Datum:Temp:Feuchte:Taupunkt:
Aussen-T/F 1001 26-10-2019 11:20:00 12.3 C 97 % 11.84 C
1002 26-10-2019 11:25:00 12.4 C 97 % 11.94 C
1003 26-10-2019 11:30:00 12.6 C 97 % 12.14 C
1004 26-10-2019 11:35:00 12.7 C 97 % 12.24 C
1005 26-10-2019 11:40:00 12.8 C 97 % 12.34 C
1006 26-10-2019 11:45:00 12.8 C 97 % 12.34 C
1007 26-10-2019 11:50:00 12.9 C 96 % 12.28 C
1008 26-10-2019 11:55:00 12.9 C 96 % 12.28 C
1009 26-10-2019 12:00:00 13.1 C 96 % 12.48 C
1010 26-10-2019 12:05:00 13.1 C 96 % 12.48 C
1011 26-10-2019 12:10:00 13.3 C 96 % 12.68 C
1012 26-10-2019 12:15:00 13.4 C 96 % 12.78 C
1013 26-10-2019 12:20:00 13.6 C 96 % 12.97 C
1014 26-10-2019 12:25:00 13.8 C 96 % 13.17 C
1015 26-10-2019 12:30:00 13.9 C 95 % 13.11 C
1016 26-10-2019 12:35:00 14.1 C 95 % 13.31 C
1017 26-10-2019 12:40:00 14.2 C 95 % 13.41 C
1018 26-10-2019 12:45:00 14.3 C 94 % 13.35 C
1019 26-10-2019 12:50:00 14.4 C 94 % 13.45 C
1020 26-10-2019 12:55:00 14.6 C 92 % 13.32 C
1021 26-10-2019 13:00:00 14.7 C 92 % 13.41 C
1022 26-10-2019 13:05:00 14.8 C 92 % 13.51 C
1023 26-10-2019 13:10:00 14.9 C 91 % 13.44 C
1024 26-10-2019 13:15:00 15.1 C 91 % 13.64 C
1025 26-10-2019 13:20:00 15.1 C 90 % 13.47 C
Sensor: Nr:Datum:Temp:Feuchte:Taupunkt:
Aussen-T/F 1026 26-10-2019 13:25:00 15.2 C 90 % 13.57 C
1027 26-10-2019 13:30:00 15.3 C 90 % 13.67 C
1028 26-10-2019 13:35:00 15.3 C 90 % 13.67 C
1029 26-10-2019 13:40:00 15.3 C 89 % 13.5 C
1030 26-10-2019 13:45:00 15.3 C 88 % 13.33 C
1031 26-10-2019 13:50:00 15.5 C 88 % 13.52 C
1032 26-10-2019 13:55:00 15.7 C 88 % 13.72 C
1033 26-10-2019 14:00:00 15.8 C 87 % 13.64 C
1034 26-10-2019 14:05:00 16.1 C 87 % 13.94 C
1035 26-10-2019 14:10:00 16.3 C 84 % 13.59 C
1036 26-10-2019 14:15:00 16.5 C 85 % 13.97 C
1037 26-10-2019 14:20:00 16.6 C 85 % 14.07 C
1038 26-10-2019 14:25:00 16.7 C 86 % 14.35 C
1039 26-10-2019 14:30:00 16.7 C 86 % 14.35 C
1040 26-10-2019 14:35:00 16.7 C 85 % 14.17 C
1041 26-10-2019 14:40:00 16.7 C 84 % 13.98 C
1042 26-10-2019 14:45:00 16.7 C 84 % 13.98 C
1043 26-10-2019 14:50:00 16.8 C 84 % 14.08 C
1044 26-10-2019 14:55:00 16.8 C 84 % 14.08 C
1045 26-10-2019 15:00:00 16.8 C 83 % 13.9 C
1046 26-10-2019 15:05:00 16.8 C 84 % 14.08 C
1047 26-10-2019 15:10:00 16.9 C 84 % 14.18 C
1048 26-10-2019 15:15:00 16.9 C 84 % 14.18 C
1049 26-10-2019 15:20:00 16.8 C 84 % 14.08 C
1050 26-10-2019 15:25:00 16.8 C 85 % 14.26 C
Sensor: Nr:Datum:Temp:Feuchte:Taupunkt:
Aussen-T/F 1051 26-10-2019 15:30:00 16.8 C 85 % 14.26 C
1052 26-10-2019 15:35:00 16.8 C 85 % 14.26 C
1053 26-10-2019 15:40:00 16.7 C 85 % 14.17 C
1054 26-10-2019 15:45:00 16.7 C 85 % 14.17 C
1055 26-10-2019 15:50:00 16.7 C 86 % 14.35 C
1056 26-10-2019 15:55:00 16.7 C 86 % 14.35 C
1057 26-10-2019 16:00:00 16.7 C 86 % 14.35 C
1058 26-10-2019 16:05:00 16.7 C 86 % 14.35 C
1059 26-10-2019 16:10:00 16.6 C 84 % 13.89 C
1060 26-10-2019 16:15:00 16.7 C 86 % 14.35 C
1061 26-10-2019 16:20:00 16.8 C 86 % 14.45 C
1062 26-10-2019 16:25:00 16.7 C 85 % 14.17 C
1063 26-10-2019 16:30:00 16.7 C 86 % 14.35 C
1064 26-10-2019 16:35:00 16.6 C 86 % 14.25 C
1065 26-10-2019 16:40:00 16.4 C 86 % 14.05 C
1066 26-10-2019 16:45:00 16.3 C 86 % 13.95 C
1067 26-10-2019 16:50:00 16.2 C 86 % 13.86 C
1068 26-10-2019 16:55:00 16 C 86 % 13.66 C
1069 26-10-2019 17:00:00 15.9 C 87 % 13.74 C
1070 26-10-2019 17:05:00 15.8 C 87 % 13.64 C
1071 26-10-2019 17:10:00 15.7 C 87 % 13.54 C
1072 26-10-2019 17:15:00 15.6 C 87 % 13.45 C
1073 26-10-2019 17:20:00 15.5 C 87 % 13.35 C
1074 26-10-2019 17:25:00 15.4 C 87 % 13.25 C
1075 26-10-2019 17:30:00 15.3 C 87 % 13.15 C
Sensor: Nr:Datum:Temp:Feuchte:Taupunkt:
Aussen-T/F 1076 26-10-2019 17:35:00 15.2 C 88 % 13.23 C
1077 26-10-2019 17:40:00 15 C 88 % 13.03 C
1078 26-10-2019 17:45:00 14.9 C 88 % 12.93 C
1079 26-10-2019 17:50:00 14.8 C 88 % 12.83 C
1080 26-10-2019 17:55:00 14.7 C 88 % 12.73 C
1081 26-10-2019 18:00:00 14.6 C 88 % 12.64 C
1082 26-10-2019 18:05:00 14.4 C 88 % 12.44 C
1083 26-10-2019 18:10:00 14.3 C 88 % 12.34 C
1084 26-10-2019 18:15:00 14.2 C 89 % 12.41 C
1085 26-10-2019 18:20:00 14.1 C 89 % 12.32 C
1086 26-10-2019 18:25:00 14.1 C 89 % 12.32 C
1087 26-10-2019 18:30:00 13.9 C 89 % 12.12 C
1088 26-10-2019 18:35:00 13.7 C 89 % 11.92 C
1089 26-10-2019 18:40:00 13.6 C 90 % 11.99 C
1090 26-10-2019 18:45:00 13.5 C 90 % 11.89 C
1091 26-10-2019 18:50:00 13.4 C 90 % 11.79 C
1092 26-10-2019 18:55:00 13.3 C 90 % 11.7 C
1093 26-10-2019 19:00:00 13.3 C 90 % 11.7 C
1094 26-10-2019 19:05:00 13.3 C 90 % 11.7 C
1095 26-10-2019 19:10:00 13.2 C 90 % 11.6 C
1096 26-10-2019 19:15:00 13.2 C 90 % 11.6 C
1097 26-10-2019 19:20:00 13.1 C 91 % 11.67 C
1098 26-10-2019 19:25:00 13 C 91 % 11.57 C
1099 26-10-2019 19:30:00 12.9 C 91 % 11.47 C
1100 26-10-2019 19:35:00 12.8 C 91 % 11.37 C
Sensor: Nr:Datum:Temp:Feuchte:Taupunkt:
Aussen-T/F 1101 26-10-2019 19:40:00 12.8 C 92 % 11.53 C
1102 26-10-2019 19:45:00 12.7 C 92 % 11.43 C
1103 26-10-2019 19:50:00 12.7 C 92 % 11.43 C
1104 26-10-2019 19:55:00 12.7 C 92 % 11.43 C
1105 26-10-2019 20:00:00 12.7 C 92 % 11.43 C
1106 26-10-2019 20:05:00 12.7 C 92 % 11.43 C
1107 26-10-2019 20:10:00 12.8 C 93 % 11.7 C
1108 26-10-2019 20:15:00 12.8 C 93 % 11.7 C
1109 26-10-2019 20:20:00 12.8 C 93 % 11.7 C
1110 26-10-2019 20:25:00 12.9 C 93 % 11.8 C
1111 26-10-2019 20:30:00 12.9 C 93 % 11.8 C
1112 26-10-2019 20:35:00 12.9 C 93 % 11.8 C
1113 26-10-2019 20:40:00 12.9 C 93 % 11.8 C
1114 26-10-2019 20:45:00 13 C 93 % 11.9 C
1115 26-10-2019 20:50:00 13 C 92 % 11.73 C
1116 26-10-2019 20:55:00 13 C 92 % 11.73 C
1117 26-10-2019 21:00:00 13 C 92 % 11.73 C
1118 26-10-2019 21:05:00 12.9 C 92 % 11.63 C
1119 26-10-2019 21:10:00 13 C 92 % 11.73 C
1120 26-10-2019 21:15:00 13.1 C 92 % 11.83 C
1121 26-10-2019 21:20:00 13.1 C 92 % 11.83 C
1122 26-10-2019 21:25:00 13.1 C 92 % 11.83 C
1123 26-10-2019 21:30:00 13 C 92 % 11.73 C
1124 26-10-2019 21:35:00 13 C 92 % 11.73 C
1125 26-10-2019 21:40:00 13 C 92 % 11.73 C
Sensor: Nr:Datum:Temp:Feuchte:Taupunkt:
Aussen-T/F 1126 26-10-2019 21:45:00 12.9 C 92 % 11.63 C
1127 26-10-2019 21:50:00 12.9 C 92 % 11.63 C
1128 26-10-2019 21:55:00 12.9 C 93 % 11.8 C
1129 26-10-2019 22:00:00 12.8 C 93 % 11.7 C
1130 26-10-2019 22:05:00 12.8 C 93 % 11.7 C
1131 26-10-2019 22:10:00 12.7 C 93 % 11.6 C
1132 26-10-2019 22:15:00 12.7 C 93 % 11.6 C
1133 26-10-2019 22:20:00 12.7 C 93 % 11.6 C
1134 26-10-2019 22:25:00 12.7 C 93 % 11.6 C
1135 26-10-2019 22:30:00 12.6 C 93 % 11.5 C
1136 26-10-2019 22:35:00 12.6 C 93 % 11.5 C
1137 26-10-2019 22:40:00 12.6 C 93 % 11.5 C
1138 26-10-2019 22:45:00 12.6 C 93 % 11.5 C
1139 26-10-2019 22:50:00 12.5 C 93 % 11.4 C
1140 26-10-2019 22:55:00 12.4 C 93 % 11.3 C
1141 26-10-2019 23:00:00 12.4 C 94 % 11.46 C
1142 26-10-2019 23:05:00 12.4 C 94 % 11.46 C
1143 26-10-2019 23:10:00 12.4 C 94 % 11.46 C
1144 26-10-2019 23:15:00 12.5 C 94 % 11.56 C
1145 26-10-2019 23:20:00 12.6 C 94 % 11.66 C
1146 26-10-2019 23:25:00 12.6 C 94 % 11.66 C
1147 26-10-2019 23:30:00 12.6 C 94 % 11.66 C
1148 26-10-2019 23:35:00 12.7 C 94 % 11.76 C
1149 26-10-2019 23:40:00 12.8 C 94 % 11.86 C
1150 26-10-2019 23:45:00 12.8 C 94 % 11.86 C
Sensor: Nr:Datum:Temp:Feuchte:Taupunkt:
Aussen-T/F 1151 26-10-2019 23:50:00 12.8 C 93 % 11.7 C
1152 26-10-2019 23:55:00 12.9 C 93 % 11.8 C
1153 27-10-2019 00:00:00 12.8 C 93 % 11.7 C
1154 27-10-2019 00:05:00 12.9 C 93 % 11.8 C
1155 27-10-2019 00:10:00 13 C 93 % 11.9 C
1156 27-10-2019 00:15:00 13.1 C 92 % 11.83 C
1157 27-10-2019 00:20:00 13.1 C 92 % 11.83 C
1158 27-10-2019 00:25:00 13.1 C 92 % 11.83 C
1159 27-10-2019 00:30:00 13.2 C 92 % 11.93 C
1160 27-10-2019 00:35:00 13.7 C 88 % 11.75 C
1161 27-10-2019 00:40:00 14.1 C 88 % 12.14 C
1162 27-10-2019 00:45:00 14.2 C 88 % 12.24 C
1163 27-10-2019 00:50:00 14.1 C 87 % 11.97 C
1164 27-10-2019 00:55:00 14.2 C 86 % 11.89 C
1165 27-10-2019 01:00:00 14.2 C 87 % 12.07 C
1166 27-10-2019 01:05:00 14.1 C 86 % 11.8 C
1167 27-10-2019 01:10:00 14 C 87 % 11.87 C
1168 27-10-2019 01:15:00 13.9 C 86 % 11.6 C
1169 27-10-2019 01:20:00 13.9 C 87 % 11.77 C
1170 27-10-2019 01:25:00 13.9 C 87 % 11.77 C
1171 27-10-2019 01:30:00 13.7 C 87 % 11.58 C
1172 27-10-2019 01:35:00 13.6 C 88 % 11.65 C
1173 27-10-2019 01:40:00 13.6 C 88 % 11.65 C
1174 27-10-2019 01:45:00 13.4 C 89 % 11.63 C
1175 27-10-2019 01:50:00 13.3 C 89 % 11.53 C
Sensor: Nr:Datum:Temp:Feuchte:Taupunkt:
Aussen-T/F 1176 27-10-2019 01:55:00 13.3 C 89 % 11.53 C
1177 27-10-2019 02:00:00 13.2 C 89 % 11.43 C
1178 27-10-2019 02:05:00 13.3 C 89 % 11.53 C
1179 27-10-2019 02:10:00 13.3 C 89 % 11.53 C
1180 27-10-2019 02:15:00 13.2 C 89 % 11.43 C
1181 27-10-2019 02:20:00 13.2 C 89 % 11.43 C
1182 27-10-2019 02:25:00 13 C 89 % 11.23 C
1183 27-10-2019 02:30:00 12.9 C 90 % 11.3 C
1184 27-10-2019 02:35:00 12.8 C 90 % 11.2 C
1185 27-10-2019 02:40:00 12.8 C 90 % 11.2 C
1186 27-10-2019 02:45:00 12.7 C 90 % 11.1 C
1187 27-10-2019 02:50:00 12.7 C 90 % 11.1 C
1188 27-10-2019 02:55:00 12.7 C 90 % 11.1 C
1189 27-10-2019 04:00:00 12.7 C 91 % 11.27 C
1190 27-10-2019 04:05:00 12.6 C 91 % 11.17 C
1191 27-10-2019 04:05:00 11.9 C 93 % 10.81 C
1192 27-10-2019 04:10:00 12.6 C 91 % 11.17 C
1193 27-10-2019 04:10:00 11.9 C 93 % 10.81 C
1194 27-10-2019 04:15:00 12.4 C 91 % 10.97 C
1195 27-10-2019 04:15:00 11.9 C 93 % 10.81 C
1196 27-10-2019 04:20:00 12.4 C 92 % 11.14 C
1197 27-10-2019 04:20:00 11.9 C 93 % 10.81 C
1198 27-10-2019 04:25:00 12.4 C 92 % 11.14 C
1199 27-10-2019 04:25:00 11.9 C 93 % 10.81 C
1200 27-10-2019 04:30:00 12.3 C 92 % 11.04 C
Sensor: Nr:Datum:Temp:Feuchte:Taupunkt:
Aussen-T/F 1201 27-10-2019 04:30:00 11.9 C 93 % 10.81 C
1202 27-10-2019 04:35:00 12.2 C 92 % 10.94 C
1203 27-10-2019 04:35:00 11.9 C 93 % 10.81 C
1204 27-10-2019 04:40:00 12.2 C 91 % 10.78 C
1205 27-10-2019 04:40:00 12.1 C 93 % 11 C
1206 27-10-2019 04:45:00 12.1 C 92 % 10.84 C
1207 27-10-2019 04:45:00 12.1 C 93 % 11 C
1208 27-10-2019 04:50:00 11.9 C 92 % 10.64 C
1209 27-10-2019 04:50:00 12.3 C 93 % 11.2 C
1210 27-10-2019 04:55:00 11.9 C 92 % 10.64 C
1211 27-10-2019 04:55:00 12.5 C 92 % 11.24 C
1212 27-10-2019 05:00:00 11.9 C 93 % 10.81 C
1213 27-10-2019 05:00:00 12.6 C 91 % 11.17 C
1214 27-10-2019 05:05:00 12.7 C 91 % 11.27 C
1215 27-10-2019 05:10:00 12.7 C 91 % 11.27 C
1216 27-10-2019 05:15:00 12.8 C 91 % 11.37 C
1217 27-10-2019 05:20:00 12.8 C 91 % 11.37 C
1218 27-10-2019 05:25:00 12.9 C 92 % 11.63 C
1219 27-10-2019 05:30:00 13 C 91 % 11.57 C
1220 27-10-2019 05:35:00 13.1 C 91 % 11.67 C
1221 27-10-2019 05:40:00 13.1 C 91 % 11.67 C
1222 27-10-2019 05:45:00 13.2 C 91 % 11.76 C
1223 27-10-2019 05:50:00 13.3 C 91 % 11.86 C
1224 27-10-2019 05:55:00 13.3 C 91 % 11.86 C
1225 27-10-2019 06:00:00 13.4 C 89 % 11.63 C
Sensor: Nr:Datum:Temp:Feuchte:Taupunkt:
Aussen-T/F 1226 27-10-2019 06:05:00 13.7 C 88 % 11.75 C
1227 27-10-2019 06:10:00 13.9 C 87 % 11.77 C
1228 27-10-2019 06:15:00 14.2 C 87 % 12.07 C
1229 27-10-2019 06:20:00 14.2 C 86 % 11.89 C
1230 27-10-2019 06:25:00 14.3 C 85 % 11.81 C
1231 27-10-2019 06:30:00 14.3 C 85 % 11.81 C
1232 27-10-2019 06:35:00 14.3 C 85 % 11.81 C
1233 27-10-2019 06:40:00 14.3 C 85 % 11.81 C
1234 27-10-2019 06:45:00 14.3 C 85 % 11.81 C
1235 27-10-2019 06:50:00 14.3 C 85 % 11.81 C
1236 27-10-2019 06:55:00 14.3 C 85 % 11.81 C
1237 27-10-2019 07:00:00 14.4 C 85 % 11.91 C
1238 27-10-2019 07:05:00 14.4 C 85 % 11.91 C
1239 27-10-2019 07:10:00 14.5 C 85 % 12.01 C
1240 27-10-2019 07:15:00 14.5 C 85 % 12.01 C
1241 27-10-2019 07:20:00 14.5 C 86 % 12.19 C
1242 27-10-2019 07:25:00 14.4 C 87 % 12.27 C
1243 27-10-2019 07:30:00 14.3 C 88 % 12.34 C
1244 27-10-2019 07:35:00 14.2 C 88 % 12.24 C
1245 27-10-2019 07:40:00 14.1 C 89 % 12.32 C
1246 27-10-2019 07:45:00 13.9 C 90 % 12.29 C
1247 27-10-2019 07:50:00 13.6 C 90 % 11.99 C
1248 27-10-2019 07:55:00 13.2 C 90 % 11.6 C
1249 27-10-2019 08:00:00 12.8 C 90 % 11.2 C
1250 27-10-2019 08:05:00 12.6 C 91 % 11.17 C
Sensor: Nr:Datum:Temp:Feuchte:Taupunkt:
Aussen-T/F 1251 27-10-2019 08:10:00 12.3 C 91 % 10.87 C
1252 27-10-2019 08:15:00 12.2 C 91 % 10.78 C
1253 27-10-2019 08:20:00 12.1 C 92 % 10.84 C
1254 27-10-2019 08:25:00 11.9 C 92 % 10.64 C
1255 27-10-2019 08:30:00 11.8 C 92 % 10.54 C
1256 27-10-2019 08:35:00 11.7 C 92 % 10.44 C
1257 27-10-2019 08:40:00 11.7 C 93 % 10.61 C
1258 27-10-2019 08:45:00 11.6 C 93 % 10.51 C
1259 27-10-2019 08:50:00 11.6 C 92 % 10.35 C
1260 27-10-2019 08:55:00 11.4 C 93 % 10.31 C
1261 27-10-2019 09:00:00 11.4 C 93 % 10.31 C
1262 27-10-2019 09:05:00 11.3 C 93 % 10.21 C
1263 27-10-2019 09:10:00 11.1 C 93 % 10.01 C
1264 27-10-2019 09:15:00 10.8 C 92 % 9.55 C
1265 27-10-2019 09:20:00 10.6 C 92 % 9.36 C
1266 27-10-2019 09:25:00 10.3 C 93 % 9.22 C
1267 27-10-2019 09:30:00 10.1 C 92 % 8.86 C
1268 27-10-2019 09:35:00 10.1 C 93 % 9.02 C
1269 27-10-2019 09:40:00 10.1 C 93 % 9.02 C
1270 27-10-2019 09:45:00 9.9 C 94 % 8.98 C
1271 27-10-2019 09:50:00 9.8 C 93 % 8.72 C
1272 27-10-2019 09:55:00 9.6 C 93 % 8.53 C
1273 27-10-2019 10:00:00 9.4 C 92 % 8.17 C
1274 27-10-2019 10:05:00 9.4 C 93 % 8.33 C
1275 27-10-2019 10:10:00 9.4 C 93 % 8.33 C
Sensor: Nr:Datum:Temp:Feuchte:Taupunkt:
Aussen-T/F 1276 27-10-2019 10:15:00 9.5 C 94 % 8.58 C
1277 27-10-2019 10:20:00 9.6 C 94 % 8.68 C
1278 27-10-2019 10:25:00 9.6 C 94 % 8.68 C
1279 27-10-2019 10:30:00 9.4 C 94 % 8.48 C
1280 27-10-2019 10:35:00 9.4 C 94 % 8.48 C
1281 27-10-2019 10:40:00 9.3 C 93 % 8.23 C
1282 27-10-2019 10:45:00 9.3 C 94 % 8.39 C
1283 27-10-2019 10:50:00 9.4 C 94 % 8.48 C
1284 27-10-2019 10:55:00 9.6 C 95 % 8.84 C
1285 27-10-2019 11:00:00 9.7 C 95 % 8.94 C
1286 27-10-2019 11:05:00 9.7 C 95 % 8.94 C
1287 27-10-2019 11:10:00 9.8 C 95 % 9.04 C
1288 27-10-2019 11:15:00 9.7 C 94 % 8.78 C
1289 27-10-2019 11:20:00 9.7 C 94 % 8.78 C
1290 27-10-2019 11:25:00 9.7 C 95 % 8.94 C
1291 27-10-2019 11:30:00 9.8 C 95 % 9.04 C
1292 27-10-2019 11:35:00 9.8 C 95 % 9.04 C
1293 27-10-2019 11:40:00 9.8 C 94 % 8.88 C
1294 27-10-2019 11:45:00 9.8 C 94 % 8.88 C
1295 27-10-2019 11:50:00 9.8 C 94 % 8.88 C
1296 27-10-2019 11:55:00 9.8 C 94 % 8.88 C
1297 27-10-2019 12:00:00 9.9 C 94 % 8.98 C
1298 27-10-2019 12:05:00 10 C 95 % 9.24 C
1299 27-10-2019 12:10:00 10.1 C 95 % 9.34 C
1300 27-10-2019 12:15:00 10.1 C 95 % 9.34 C
Sensor: Nr:Datum:Temp:Feuchte:Taupunkt:
Aussen-T/F 1301 27-10-2019 12:20:00 10 C 94 % 9.08 C
1302 27-10-2019 12:25:00 10 C 94 % 9.08 C
1303 27-10-2019 12:30:00 10.1 C 95 % 9.34 C
1304 27-10-2019 12:35:00 10.1 C 95 % 9.34 C
1305 27-10-2019 12:40:00 10 C 94 % 9.08 C
1306 27-10-2019 12:45:00 9.9 C 94 % 8.98 C
1307 27-10-2019 12:50:00 9.9 C 94 % 8.98 C
1308 27-10-2019 12:55:00 9.9 C 94 % 8.98 C
1309 27-10-2019 13:00:00 9.9 C 95 % 9.14 C
1310 27-10-2019 13:05:00 9.9 C 95 % 9.14 C
1311 27-10-2019 13:10:00 9.9 C 95 % 9.14 C
1312 27-10-2019 13:15:00 9.9 C 94 % 8.98 C
1313 27-10-2019 13:20:00 9.9 C 94 % 8.98 C
1314 27-10-2019 13:25:00 9.9 C 95 % 9.14 C
1315 27-10-2019 13:30:00 9.9 C 95 % 9.14 C
1316 27-10-2019 13:35:00 9.9 C 95 % 9.14 C
1317 27-10-2019 13:40:00 9.9 C 95 % 9.14 C
1318 27-10-2019 13:45:00 9.9 C 95 % 9.14 C
1319 27-10-2019 13:50:00 9.9 C 94 % 8.98 C
1320 27-10-2019 13:55:00 9.9 C 94 % 8.98 C
1321 27-10-2019 14:00:00 9.8 C 94 % 8.88 C
1322 27-10-2019 14:05:00 9.8 C 94 % 8.88 C
1323 27-10-2019 14:10:00 9.7 C 94 % 8.78 C
1324 27-10-2019 14:15:00 9.7 C 94 % 8.78 C
1325 27-10-2019 14:20:00 9.6 C 94 % 8.68 C
Sensor: Nr:Datum:Temp:Feuchte:Taupunkt:
Aussen-T/F 1326 27-10-2019 14:25:00 9.4 C 94 % 8.48 C
1327 27-10-2019 14:30:00 9.4 C 94 % 8.48 C
1328 27-10-2019 14:35:00 9.4 C 94 % 8.48 C
1329 27-10-2019 14:40:00 9.4 C 94 % 8.48 C
1330 27-10-2019 14:45:00 9.4 C 95 % 8.64 C
1331 27-10-2019 14:50:00 9.4 C 95 % 8.64 C
1332 27-10-2019 14:55:00 9.4 C 95 % 8.64 C
1333 27-10-2019 15:00:00 9.4 C 95 % 8.64 C
1334 27-10-2019 15:05:00 9.4 C 95 % 8.64 C
1335 27-10-2019 15:10:00 9.5 C 95 % 8.74 C
1336 27-10-2019 15:15:00 9.5 C 95 % 8.74 C
1337 27-10-2019 15:20:00 9.5 C 95 % 8.74 C
1338 27-10-2019 15:25:00 9.5 C 95 % 8.74 C
1339 27-10-2019 15:30:00 9.4 C 95 % 8.64 C
1340 27-10-2019 15:35:00 9.4 C 95 % 8.64 C
1341 27-10-2019 15:40:00 9.4 C 95 % 8.64 C
1342 27-10-2019 15:45:00 9.4 C 95 % 8.64 C
1343 27-10-2019 15:50:00 9.4 C 95 % 8.64 C
1344 27-10-2019 15:55:00 9.4 C 95 % 8.64 C
1345 27-10-2019 16:00:00 9.4 C 95 % 8.64 C
1346 27-10-2019 16:05:00 9.4 C 95 % 8.64 C
1347 27-10-2019 16:10:00 9.3 C 95 % 8.54 C
1348 27-10-2019 16:15:00 9.3 C 95 % 8.54 C
1349 27-10-2019 16:20:00 9.3 C 95 % 8.54 C
1350 27-10-2019 16:25:00 9.2 C 95 % 8.44 C
Sensor: Nr:Datum:Temp:Feuchte:Taupunkt:
Aussen-T/F 1351 27-10-2019 16:30:00 9.2 C 95 % 8.44 C
1352 27-10-2019 16:35:00 9.1 C 95 % 8.34 C
1353 27-10-2019 16:40:00 9.1 C 95 % 8.34 C
1354 27-10-2019 16:45:00 9 C 95 % 8.24 C
1355 27-10-2019 16:50:00 8.9 C 95 % 8.14 C
1356 27-10-2019 16:55:00 8.8 C 95 % 8.04 C
1357 27-10-2019 17:00:00 8.8 C 95 % 8.04 C
1358 27-10-2019 17:05:00 8.7 C 95 % 7.94 C
1359 27-10-2019 17:10:00 8.7 C 95 % 7.94 C
1360 27-10-2019 17:15:00 8.6 C 95 % 7.85 C
1361 27-10-2019 17:20:00 8.6 C 95 % 7.85 C
1362 27-10-2019 17:25:00 8.6 C 95 % 7.85 C
1363 27-10-2019 17:30:00 8.5 C 95 % 7.75 C
1364 27-10-2019 17:35:00 8.5 C 95 % 7.75 C
1365 27-10-2019 17:40:00 8.4 C 96 % 7.8 C
1366 27-10-2019 17:45:00 8.4 C 96 % 7.8 C
1367 27-10-2019 17:50:00 8.4 C 96 % 7.8 C
1368 27-10-2019 17:55:00 8.4 C 96 % 7.8 C
1369 27-10-2019 18:00:00 8.4 C 96 % 7.8 C
1370 27-10-2019 18:05:00 8.4 C 96 % 7.8 C
1371 27-10-2019 18:10:00 8.4 C 96 % 7.8 C
1372 27-10-2019 18:15:00 8.4 C 96 % 7.8 C
1373 27-10-2019 18:20:00 8.4 C 96 % 7.8 C
1374 27-10-2019 18:25:00 8.4 C 96 % 7.8 C
1375 27-10-2019 18:30:00 8.3 C 96 % 7.7 C
Sensor: Nr:Datum:Temp:Feuchte:Taupunkt:
Aussen-T/F 1376 27-10-2019 18:35:00 8.3 C 96 % 7.7 C
1377 27-10-2019 18:40:00 8.3 C 96 % 7.7 C
1378 27-10-2019 18:45:00 8.3 C 96 % 7.7 C
1379 27-10-2019 18:50:00 8.3 C 96 % 7.7 C
1380 27-10-2019 18:55:00 8.3 C 96 % 7.7 C
1381 27-10-2019 19:00:00 8.3 C 96 % 7.7 C
1382 27-10-2019 19:05:00 8.3 C 96 % 7.7 C
1383 27-10-2019 19:10:00 8.3 C 96 % 7.7 C
1384 27-10-2019 19:15:00 8.3 C 96 % 7.7 C
1385 27-10-2019 19:20:00 8.3 C 96 % 7.7 C
1386 27-10-2019 19:25:00 8.3 C 96 % 7.7 C
1387 27-10-2019 19:30:00 8.3 C 96 % 7.7 C
1388 27-10-2019 19:35:00 8.3 C 96 % 7.7 C
1389 27-10-2019 19:40:00 8.3 C 96 % 7.7 C
1390 27-10-2019 19:45:00 8.3 C 96 % 7.7 C
1391 27-10-2019 19:50:00 8.2 C 96 % 7.6 C
1392 27-10-2019 19:55:00 8.1 C 96 % 7.5 C
1393 27-10-2019 20:00:00 8.1 C 96 % 7.5 C
1394 27-10-2019 20:05:00 7.9 C 96 % 7.3 C
1395 27-10-2019 20:10:00 7.8 C 96 % 7.2 C
1396 27-10-2019 20:15:00 7.7 C 96 % 7.1 C
1397 27-10-2019 20:20:00 7.6 C 96 % 7 C
1398 27-10-2019 20:25:00 7.5 C 96 % 6.9 C
1399 27-10-2019 20:30:00 7.4 C 96 % 6.8 C
1400 27-10-2019 20:35:00 7.3 C 96 % 6.71 C
Sensor: Nr:Datum:Temp:Feuchte:Taupunkt:
Aussen-T/F 1401 27-10-2019 20:40:00 7.3 C 96 % 6.71 C
1402 27-10-2019 20:45:00 7.2 C 96 % 6.61 C
1403 27-10-2019 20:50:00 7.2 C 96 % 6.61 C
1404 27-10-2019 20:55:00 7.1 C 96 % 6.51 C
1405 27-10-2019 21:00:00 7.1 C 96 % 6.51 C
1406 27-10-2019 21:05:00 7.1 C 96 % 6.51 C
1407 27-10-2019 21:10:00 7.1 C 96 % 6.51 C
1408 27-10-2019 21:15:00 7.1 C 96 % 6.51 C
1409 27-10-2019 21:20:00 7 C 96 % 6.41 C
1410 27-10-2019 21:25:00 7 C 96 % 6.41 C
1411 27-10-2019 21:30:00 6.9 C 96 % 6.31 C
1412 27-10-2019 21:35:00 6.9 C 96 % 6.31 C
1413 27-10-2019 21:40:00 6.8 C 96 % 6.21 C
1414 27-10-2019 21:45:00 6.7 C 96 % 6.11 C
1415 27-10-2019 21:50:00 6.7 C 96 % 6.11 C
1416 27-10-2019 21:55:00 6.6 C 96 % 6.01 C
1417 27-10-2019 22:00:00 6.5 C 96 % 5.91 C
1418 27-10-2019 22:05:00 6.4 C 96 % 5.81 C
1419 27-10-2019 22:10:00 6.3 C 96 % 5.71 C
1420 27-10-2019 22:15:00 6.1 C 96 % 5.51 C
1421 27-10-2019 22:20:00 6 C 96 % 5.41 C
1422 27-10-2019 22:25:00 5.9 C 96 % 5.31 C
1423 27-10-2019 22:30:00 5.8 C 96 % 5.21 C
1424 27-10-2019 22:35:00 5.8 C 96 % 5.21 C
1425 27-10-2019 22:40:00 5.7 C 96 % 5.11 C
Sensor: Nr:Datum:Temp:Feuchte:Taupunkt:
Aussen-T/F 1426 27-10-2019 22:45:00 5.6 C 96 % 5.01 C
1427 27-10-2019 22:50:00 5.6 C 96 % 5.01 C
1428 27-10-2019 22:55:00 5.4 C 96 % 4.81 C
1429 27-10-2019 23:00:00 5.3 C 96 % 4.72 C
1430 27-10-2019 23:05:00 5.3 C 96 % 4.72 C
1431 27-10-2019 23:10:00 5.2 C 96 % 4.62 C
1432 27-10-2019 23:15:00 5.2 C 96 % 4.62 C
1433 27-10-2019 23:20:00 5.1 C 96 % 4.52 C
1434 27-10-2019 23:25:00 5 C 96 % 4.42 C
1435 27-10-2019 23:30:00 5 C 96 % 4.42 C
1436 27-10-2019 23:35:00 4.9 C 96 % 4.32 C
1437 27-10-2019 23:40:00 5.1 C 97 % 4.66 C
1438 27-10-2019 23:45:00 5.1 C 97 % 4.66 C
1439 27-10-2019 23:50:00 5.1 C 97 % 4.66 C
1440 27-10-2019 23:55:00 5.2 C 97 % 4.76 C
1441 28-10-2019 00:00:00 5.2 C 97 % 4.76 C
1442 28-10-2019 00:05:00 5.2 C 97 % 4.76 C
1443 28-10-2019 00:10:00 5.2 C 97 % 4.76 C
1444 28-10-2019 00:15:00 5.3 C 97 % 4.86 C
1445 28-10-2019 00:20:00 5.3 C 97 % 4.86 C
1446 28-10-2019 00:25:00 5.3 C 97 % 4.86 C
1447 28-10-2019 00:30:00 5.3 C 97 % 4.86 C
1448 28-10-2019 00:35:00 5.4 C 97 % 4.96 C
1449 28-10-2019 00:40:00 5.4 C 97 % 4.96 C
1450 28-10-2019 00:45:00 5.4 C 97 % 4.96 C
Sensor: Nr:Datum:Temp:Feuchte:Taupunkt:
Aussen-T/F 1451 28-10-2019 00:50:00 5.4 C 97 % 4.96 C
1452 28-10-2019 00:55:00 5.5 C 97 % 5.06 C
1453 28-10-2019 01:00:00 5.6 C 97 % 5.16 C
1454 28-10-2019 01:05:00 5.6 C 97 % 5.16 C
1455 28-10-2019 01:10:00 5.7 C 97 % 5.26 C
1456 28-10-2019 01:15:00 5.7 C 97 % 5.26 C
1457 28-10-2019 01:20:00 5.8 C 97 % 5.36 C
1458 28-10-2019 01:25:00 5.8 C 97 % 5.36 C
1459 28-10-2019 01:30:00 5.9 C 97 % 5.46 C
1460 28-10-2019 01:35:00 5.9 C 97 % 5.46 C
1461 28-10-2019 01:40:00 5.9 C 97 % 5.46 C
1462 28-10-2019 01:45:00 5.9 C 97 % 5.46 C
1463 28-10-2019 01:50:00 5.9 C 97 % 5.46 C
1464 28-10-2019 01:55:00 5.9 C 97 % 5.46 C
1465 28-10-2019 02:00:00 5.9 C 97 % 5.46 C
1466 28-10-2019 02:05:00 5.9 C 97 % 5.46 C
1467 28-10-2019 02:10:00 5.9 C 97 % 5.46 C
1468 28-10-2019 02:15:00 5.8 C 97 % 5.36 C
1469 28-10-2019 02:20:00 5.8 C 97 % 5.36 C
1470 28-10-2019 02:25:00 5.7 C 97 % 5.26 C
1471 28-10-2019 02:30:00 5.5 C 97 % 5.06 C
1472 28-10-2019 02:35:00 5.4 C 97 % 4.96 C
1473 28-10-2019 02:40:00 5.3 C 97 % 4.86 C
1474 28-10-2019 02:45:00 5.3 C 97 % 4.86 C
1475 28-10-2019 02:50:00 5.3 C 97 % 4.86 C
Sensor: Nr:Datum:Temp:Feuchte:Taupunkt:
Aussen-T/F 1476 28-10-2019 02:55:00 5.3 C 97 % 4.86 C
1477 28-10-2019 03:00:00 5.3 C 97 % 4.86 C
1478 28-10-2019 03:05:00 5.4 C 97 % 4.96 C
1479 28-10-2019 03:10:00 5.5 C 97 % 5.06 C
1480 28-10-2019 03:15:00 5.6 C 97 % 5.16 C
1481 28-10-2019 03:20:00 5.5 C 97 % 5.06 C
1482 28-10-2019 03:25:00 5.5 C 97 % 5.06 C
1483 28-10-2019 03:30:00 5.4 C 97 % 4.96 C
1484 28-10-2019 03:35:00 5.5 C 97 % 5.06 C
1485 28-10-2019 03:40:00 5.4 C 97 % 4.96 C
1486 28-10-2019 03:45:00 5.4 C 97 % 4.96 C
1487 28-10-2019 03:50:00 5.4 C 97 % 4.96 C
1488 28-10-2019 03:55:00 5.4 C 97 % 4.96 C
1489 28-10-2019 04:00:00 5.4 C 97 % 4.96 C
1490 28-10-2019 04:05:00 5.3 C 97 % 4.86 C
1491 28-10-2019 04:10:00 5.3 C 97 % 4.86 C
1492 28-10-2019 04:15:00 5.3 C 97 % 4.86 C
1493 28-10-2019 04:20:00 5.3 C 97 % 4.86 C
1494 28-10-2019 04:25:00 5.3 C 97 % 4.86 C
1495 28-10-2019 04:30:00 5.3 C 97 % 4.86 C
1496 28-10-2019 04:35:00 5.3 C 97 % 4.86 C
1497 28-10-2019 04:40:00 5.3 C 97 % 4.86 C
1498 28-10-2019 04:45:00 5.3 C 97 % 4.86 C
1499 28-10-2019 04:50:00 5.3 C 97 % 4.86 C
1500 28-10-2019 04:55:00 5.3 C 97 % 4.86 C
Sensor: Nr:Datum:Temp:Feuchte:Taupunkt:
Aussen-T/F 1501 28-10-2019 05:00:00 5.2 C 97 % 4.76 C
1502 28-10-2019 05:05:00 5.2 C 97 % 4.76 C
1503 28-10-2019 05:10:00 5.2 C 97 % 4.76 C
1504 28-10-2019 05:15:00 5.2 C 97 % 4.76 C
1505 28-10-2019 05:20:00 5.2 C 97 % 4.76 C
1506 28-10-2019 05:25:00 5.2 C 97 % 4.76 C
1507 28-10-2019 05:30:00 5.2 C 97 % 4.76 C
1508 28-10-2019 05:35:00 5.2 C 97 % 4.76 C
1509 28-10-2019 05:40:00 5.2 C 97 % 4.76 C
1510 28-10-2019 05:45:00 5.2 C 97 % 4.76 C
1511 28-10-2019 05:50:00 5.2 C 97 % 4.76 C
1512 28-10-2019 05:55:00 5.2 C 97 % 4.76 C
1513 28-10-2019 06:00:00 5.2 C 97 % 4.76 C
1514 28-10-2019 06:05:00 5.2 C 97 % 4.76 C
1515 28-10-2019 06:10:00 5.2 C 97 % 4.76 C
1516 28-10-2019 06:15:00 5.1 C 97 % 4.66 C
1517 28-10-2019 06:20:00 5.1 C 97 % 4.66 C
1518 28-10-2019 06:25:00 5.1 C 97 % 4.66 C
1519 28-10-2019 06:30:00 5.1 C 97 % 4.66 C
1520 28-10-2019 06:35:00 5.1 C 97 % 4.66 C
1521 28-10-2019 06:40:00 5.1 C 97 % 4.66 C
1522 28-10-2019 06:45:00 5.1 C 97 % 4.66 C
1523 28-10-2019 06:50:00 5.1 C 97 % 4.66 C
1524 28-10-2019 06:55:00 5.2 C 97 % 4.76 C
1525 28-10-2019 07:00:00 5.2 C 97 % 4.76 C
Sensor: Nr:Datum:Temp:Feuchte:Taupunkt:
Aussen-T/F 1526 28-10-2019 07:05:00 5.2 C 97 % 4.76 C
1527 28-10-2019 07:10:00 5.2 C 97 % 4.76 C
1528 28-10-2019 07:15:00 5.2 C 97 % 4.76 C
1529 28-10-2019 07:20:00 5.3 C 97 % 4.86 C
1530 28-10-2019 07:25:00 5.3 C 97 % 4.86 C
1531 28-10-2019 07:30:00 5.3 C 97 % 4.86 C
1532 28-10-2019 07:35:00 5.3 C 97 % 4.86 C
1533 28-10-2019 07:40:00 5.3 C 97 % 4.86 C
1534 28-10-2019 07:45:00 5.3 C 97 % 4.86 C
1535 28-10-2019 07:50:00 5.3 C 97 % 4.86 C
1536 28-10-2019 07:55:00 5.3 C 97 % 4.86 C
1537 28-10-2019 08:00:00 5.4 C 97 % 4.96 C
1538 28-10-2019 08:05:00 5.4 C 98 % 5.11 C
1539 28-10-2019 08:10:00 5.4 C 98 % 5.11 C
1540 28-10-2019 08:15:00 5.4 C 97 % 4.96 C
1541 28-10-2019 08:20:00 5.4 C 97 % 4.96 C
1542 28-10-2019 08:25:00 5.5 C 97 % 5.06 C
1543 28-10-2019 08:30:00 5.6 C 97 % 5.16 C
1544 28-10-2019 08:35:00 5.6 C 97 % 5.16 C
1545 28-10-2019 08:40:00 5.6 C 97 % 5.16 C
1546 28-10-2019 08:45:00 5.6 C 97 % 5.16 C
1547 28-10-2019 08:50:00 5.6 C 98 % 5.31 C
1548 28-10-2019 08:55:00 5.7 C 98 % 5.41 C
1549 28-10-2019 09:00:00 5.7 C 98 % 5.41 C
1550 28-10-2019 09:05:00 5.7 C 98 % 5.41 C
Sensor: Nr:Datum:Temp:Feuchte:Taupunkt:
Aussen-T/F 1551 28-10-2019 09:10:00 5.7 C 98 % 5.41 C
1552 28-10-2019 09:15:00 5.7 C 98 % 5.41 C
1553 28-10-2019 09:20:00 5.8 C 98 % 5.51 C
1554 28-10-2019 09:25:00 5.8 C 98 % 5.51 C
1555 28-10-2019 09:30:00 5.8 C 98 % 5.51 C
1556 28-10-2019 09:35:00 5.8 C 98 % 5.51 C
1557 28-10-2019 09:40:00 5.8 C 98 % 5.51 C
1558 28-10-2019 09:45:00 5.9 C 98 % 5.61 C
1559 28-10-2019 09:50:00 5.9 C 98 % 5.61 C
1560 28-10-2019 09:55:00 6 C 98 % 5.71 C
1561 28-10-2019 10:00:00 6 C 98 % 5.71 C
1562 28-10-2019 10:05:00 6 C 98 % 5.71 C
1563 28-10-2019 10:10:00 6 C 98 % 5.71 C
1564 28-10-2019 10:15:00 6.2 C 98 % 5.91 C
1565 28-10-2019 10:20:00 6.2 C 98 % 5.91 C
1566 28-10-2019 10:25:00 6.2 C 98 % 5.91 C
1567 28-10-2019 10:30:00 6.2 C 98 % 5.91 C
1568 28-10-2019 10:35:00 6.2 C 98 % 5.91 C
1569 28-10-2019 10:40:00 6.3 C 98 % 6.01 C
1570 28-10-2019 10:45:00 6.3 C 98 % 6.01 C
1571 28-10-2019 10:50:00 6.3 C 98 % 6.01 C
1572 28-10-2019 10:55:00 6.3 C 98 % 6.01 C
1573 28-10-2019 11:00:00 6.3 C 98 % 6.01 C
1574 28-10-2019 11:05:00 6.3 C 98 % 6.01 C
1575 28-10-2019 11:10:00 6.3 C 98 % 6.01 C
Sensor: Nr:Datum:Temp:Feuchte:Taupunkt:
Aussen-T/F 1576 28-10-2019 11:15:00 6.4 C 98 % 6.11 C
1577 28-10-2019 11:20:00 6.4 C 98 % 6.11 C
1578 28-10-2019 11:25:00 6.4 C 98 % 6.11 C
1579 28-10-2019 11:30:00 6.4 C 98 % 6.11 C
1580 28-10-2019 11:35:00 6.4 C 98 % 6.11 C
1581 28-10-2019 11:40:00 6.4 C 98 % 6.11 C
1582 28-10-2019 11:45:00 6.4 C 98 % 6.11 C
1583 28-10-2019 11:50:00 6.4 C 98 % 6.11 C
1584 28-10-2019 11:55:00 6.5 C 98 % 6.21 C
1585 28-10-2019 12:00:00 6.5 C 98 % 6.21 C
1586 28-10-2019 12:05:00 6.5 C 98 % 6.21 C
1587 28-10-2019 12:10:00 6.6 C 98 % 6.31 C
1588 28-10-2019 12:15:00 6.6 C 98 % 6.31 C
1589 28-10-2019 12:20:00 6.6 C 98 % 6.31 C
1590 28-10-2019 12:25:00 6.5 C 98 % 6.21 C
1591 28-10-2019 12:30:00 6.4 C 98 % 6.11 C
1592 28-10-2019 12:35:00 6.5 C 98 % 6.21 C
1593 28-10-2019 12:40:00 6.5 C 98 % 6.21 C
1594 28-10-2019 12:45:00 6.5 C 97 % 6.06 C
1595 28-10-2019 12:50:00 6.4 C 97 % 5.96 C
1596 28-10-2019 12:55:00 6.4 C 97 % 5.96 C
1597 28-10-2019 13:00:00 6.5 C 97 % 6.06 C
1598 28-10-2019 13:05:00 6.5 C 97 % 6.06 C
1599 28-10-2019 13:10:00 6.6 C 97 % 6.16 C
1600 28-10-2019 13:15:00 6.6 C 97 % 6.16 C
Sensor: Nr:Datum:Temp:Feuchte:Taupunkt:
Aussen-T/F 1601 28-10-2019 13:20:00 6.6 C 97 % 6.16 C
1602 28-10-2019 13:25:00 6.6 C 97 % 6.16 C
1603 28-10-2019 13:30:00 6.8 C 97 % 6.36 C
1604 28-10-2019 13:35:00 6.9 C 97 % 6.46 C
1605 28-10-2019 13:40:00 6.9 C 97 % 6.46 C
1606 28-10-2019 13:45:00 6.9 C 97 % 6.46 C
1607 28-10-2019 13:50:00 6.9 C 97 % 6.46 C
1608 28-10-2019 13:55:00 6.9 C 97 % 6.46 C
1609 28-10-2019 14:00:00 7.1 C 97 % 6.66 C
1610 28-10-2019 14:05:00 7.1 C 97 % 6.66 C
1611 28-10-2019 14:10:00 7.2 C 97 % 6.76 C
1612 28-10-2019 14:15:00 7.3 C 97 % 6.86 C
1613 28-10-2019 14:20:00 7.4 C 97 % 6.96 C
1614 28-10-2019 14:25:00 7.4 C 97 % 6.96 C
1615 28-10-2019 14:30:00 7.4 C 97 % 6.96 C
1616 28-10-2019 14:35:00 7.4 C 97 % 6.96 C
1617 28-10-2019 14:40:00 7.5 C 96 % 6.9 C
1618 28-10-2019 14:45:00 7.6 C 96 % 7 C
1619 28-10-2019 14:50:00 7.6 C 96 % 7 C
1620 28-10-2019 14:55:00 7.7 C 96 % 7.1 C
1621 28-10-2019 15:00:00 7.8 C 96 % 7.2 C
1622 28-10-2019 15:05:00 7.8 C 96 % 7.2 C
1623 28-10-2019 15:10:00 7.9 C 96 % 7.3 C
1624 28-10-2019 15:15:00 8 C 96 % 7.4 C
1625 28-10-2019 15:20:00 8.1 C 95 % 7.35 C
Sensor: Nr:Datum:Temp:Feuchte:Taupunkt:
Aussen-T/F 1626 28-10-2019 15:25:00 8 C 95 % 7.25 C
1627 28-10-2019 15:30:00 8 C 95 % 7.25 C
1628 28-10-2019 15:35:00 8 C 94 % 7.09 C
1629 28-10-2019 15:40:00 8.1 C 94 % 7.19 C
1630 28-10-2019 15:45:00 8.1 C 95 % 7.35 C
1631 28-10-2019 15:50:00 8.2 C 95 % 7.45 C
1632 28-10-2019 15:55:00 8.2 C 95 % 7.45 C
1633 28-10-2019 16:00:00 8.2 C 95 % 7.45 C
1634 28-10-2019 16:05:00 8.2 C 95 % 7.45 C
1635 28-10-2019 16:10:00 8.2 C 95 % 7.45 C
1636 28-10-2019 16:15:00 8.1 C 95 % 7.35 C
1637 28-10-2019 16:20:00 7.9 C 95 % 7.15 C
1638 28-10-2019 16:25:00 7.8 C 95 % 7.05 C
1639 28-10-2019 16:30:00 7.7 C 94 % 6.8 C
1640 28-10-2019 16:35:00 7.7 C 95 % 6.95 C
1641 28-10-2019 16:40:00 7.6 C 95 % 6.85 C
1642 28-10-2019 16:45:00 7.5 C 95 % 6.75 C
1643 28-10-2019 16:50:00 7.4 C 95 % 6.65 C
1644 28-10-2019 16:55:00 7.2 C 95 % 6.45 C
1645 28-10-2019 17:00:00 7.1 C 94 % 6.2 C
1646 28-10-2019 17:05:00 7 C 95 % 6.26 C
1647 28-10-2019 17:10:00 6.9 C 95 % 6.16 C
1648 28-10-2019 17:15:00 6.9 C 95 % 6.16 C
1649 28-10-2019 17:20:00 6.9 C 95 % 6.16 C
1650 28-10-2019 17:25:00 6.9 C 95 % 6.16 C
Sensor: Nr:Datum:Temp:Feuchte:Taupunkt:
Aussen-T/F 1651 28-10-2019 17:30:00 6.9 C 96 % 6.31 C
1652 28-10-2019 17:35:00 7 C 96 % 6.41 C
1653 28-10-2019 17:40:00 7.1 C 96 % 6.51 C
1654 28-10-2019 17:45:00 7.1 C 96 % 6.51 C
1655 28-10-2019 17:50:00 7.1 C 96 % 6.51 C
1656 28-10-2019 17:55:00 7.1 C 96 % 6.51 C
1657 28-10-2019 18:00:00 7.1 C 96 % 6.51 C
1658 28-10-2019 18:05:00 7.1 C 96 % 6.51 C
1659 28-10-2019 18:10:00 7.1 C 96 % 6.51 C
1660 28-10-2019 18:15:00 7.2 C 96 % 6.61 C
1661 28-10-2019 18:20:00 7.2 C 96 % 6.61 C
1662 28-10-2019 18:25:00 7.2 C 96 % 6.61 C
1663 28-10-2019 18:30:00 7.2 C 96 % 6.61 C
1664 28-10-2019 18:35:00 7.2 C 96 % 6.61 C
1665 28-10-2019 18:40:00 7.2 C 96 % 6.61 C
1666 28-10-2019 18:45:00 7.2 C 96 % 6.61 C
1667 28-10-2019 18:50:00 7.2 C 96 % 6.61 C
1668 28-10-2019 18:55:00 7.2 C 96 % 6.61 C
1669 28-10-2019 19:00:00 7.2 C 96 % 6.61 C
1670 28-10-2019 19:05:00 7.2 C 96 % 6.61 C
1671 28-10-2019 19:10:00 7.2 C 96 % 6.61 C
1672 28-10-2019 19:15:00 7.2 C 96 % 6.61 C
1673 28-10-2019 19:20:00 7.2 C 96 % 6.61 C
1674 28-10-2019 19:25:00 7.2 C 96 % 6.61 C
1675 28-10-2019 19:30:00 7.2 C 96 % 6.61 C
Sensor: Nr:Datum:Temp:Feuchte:Taupunkt:
Aussen-T/F 1676 28-10-2019 19:35:00 7.2 C 96 % 6.61 C
1677 28-10-2019 19:40:00 7.2 C 96 % 6.61 C
1678 28-10-2019 19:45:00 7.1 C 96 % 6.51 C
1679 28-10-2019 19:50:00 7.1 C 96 % 6.51 C
1680 28-10-2019 19:55:00 6.9 C 96 % 6.31 C
1681 28-10-2019 20:00:00 6.9 C 96 % 6.31 C
1682 28-10-2019 20:05:00 6.9 C 96 % 6.31 C
1683 28-10-2019 20:10:00 6.9 C 96 % 6.31 C
1684 28-10-2019 20:15:00 6.9 C 96 % 6.31 C
1685 28-10-2019 20:20:00 6.9 C 96 % 6.31 C
1686 28-10-2019 20:25:00 6.9 C 97 % 6.46 C
1687 28-10-2019 20:30:00 7 C 96 % 6.41 C
1688 28-10-2019 20:35:00 7.1 C 97 % 6.66 C
1689 28-10-2019 20:40:00 7.1 C 97 % 6.66 C
1690 28-10-2019 20:45:00 7.1 C 97 % 6.66 C
1691 28-10-2019 20:50:00 7.1 C 97 % 6.66 C
1692 28-10-2019 20:55:00 7.1 C 97 % 6.66 C
1693 28-10-2019 21:00:00 7.1 C 97 % 6.66 C
1694 28-10-2019 21:05:00 7.1 C 97 % 6.66 C
1695 28-10-2019 21:10:00 7.1 C 97 % 6.66 C
1696 28-10-2019 21:15:00 7 C 97 % 6.56 C
1697 28-10-2019 21:20:00 7 C 97 % 6.56 C
1698 28-10-2019 21:25:00 6.9 C 96 % 6.31 C
1699 28-10-2019 21:30:00 6.9 C 96 % 6.31 C
1700 28-10-2019 21:35:00 6.9 C 96 % 6.31 C
Sensor: Nr:Datum:Temp:Feuchte:Taupunkt:
Aussen-T/F 1701 28-10-2019 21:40:00 6.8 C 96 % 6.21 C
1702 28-10-2019 21:45:00 6.8 C 97 % 6.36 C
1703 28-10-2019 21:50:00 6.8 C 97 % 6.36 C
1704 28-10-2019 21:55:00 6.9 C 97 % 6.46 C
1705 28-10-2019 22:00:00 6.8 C 97 % 6.36 C
1706 28-10-2019 22:05:00 6.8 C 97 % 6.36 C
1707 28-10-2019 22:10:00 6.8 C 97 % 6.36 C
1708 28-10-2019 22:15:00 6.8 C 97 % 6.36 C
1709 28-10-2019 22:20:00 6.8 C 97 % 6.36 C
1710 28-10-2019 22:25:00 6.8 C 97 % 6.36 C
1711 28-10-2019 22:30:00 6.8 C 97 % 6.36 C
1712 28-10-2019 22:35:00 6.8 C 97 % 6.36 C
1713 28-10-2019 22:40:00 6.8 C 97 % 6.36 C
1714 28-10-2019 22:45:00 6.8 C 97 % 6.36 C
1715 28-10-2019 22:50:00 6.7 C 97 % 6.26 C
1716 28-10-2019 22:55:00 6.7 C 97 % 6.26 C
1717 28-10-2019 23:00:00 6.7 C 97 % 6.26 C
1718 28-10-2019 23:05:00 6.7 C 97 % 6.26 C
1719 28-10-2019 23:10:00 6.7 C 97 % 6.26 C
1720 28-10-2019 23:15:00 6.7 C 97 % 6.26 C
1721 28-10-2019 23:20:00 6.7 C 97 % 6.26 C
1722 28-10-2019 23:25:00 6.7 C 96 % 6.11 C
1723 28-10-2019 23:30:00 6.7 C 96 % 6.11 C
1724 28-10-2019 23:35:00 6.7 C 96 % 6.11 C
1725 28-10-2019 23:40:00 6.7 C 96 % 6.11 C
Sensor: Nr:Datum:Temp:Feuchte:Taupunkt:
Aussen-T/F 1726 28-10-2019 23:45:00 6.7 C 96 % 6.11 C
1727 28-10-2019 23:50:00 6.7 C 96 % 6.11 C
1728 28-10-2019 23:55:00 6.7 C 96 % 6.11 C
1729 29-10-2019 00:00:00 6.7 C 96 % 6.11 C
1730 29-10-2019 00:05:00 6.7 C 96 % 6.11 C
1731 29-10-2019 00:10:00 6.7 C 96 % 6.11 C
1732 29-10-2019 00:15:00 6.7 C 96 % 6.11 C
1733 29-10-2019 00:20:00 6.7 C 96 % 6.11 C
1734 29-10-2019 00:25:00 6.7 C 96 % 6.11 C
1735 29-10-2019 00:30:00 6.7 C 96 % 6.11 C
1736 29-10-2019 00:35:00 6.7 C 96 % 6.11 C
1737 29-10-2019 00:40:00 6.7 C 96 % 6.11 C
1738 29-10-2019 00:45:00 6.7 C 96 % 6.11 C
1739 29-10-2019 00:50:00 6.6 C 96 % 6.01 C
1740 29-10-2019 00:55:00 6.6 C 96 % 6.01 C
1741 29-10-2019 01:00:00 6.6 C 96 % 6.01 C
1742 29-10-2019 01:05:00 6.6 C 96 % 6.01 C
1743 29-10-2019 01:10:00 6.5 C 96 % 5.91 C
1744 29-10-2019 01:15:00 6.5 C 96 % 5.91 C
1745 29-10-2019 01:20:00 6.4 C 96 % 5.81 C
1746 29-10-2019 01:25:00 6.4 C 96 % 5.81 C
1747 29-10-2019 01:30:00 6.4 C 96 % 5.81 C
1748 29-10-2019 01:35:00 6.4 C 96 % 5.81 C
1749 29-10-2019 01:40:00 6.3 C 96 % 5.71 C
1750 29-10-2019 01:45:00 6.3 C 96 % 5.71 C
Sensor: Nr:Datum:Temp:Feuchte:Taupunkt:
Aussen-T/F 1751 29-10-2019 01:50:00 6.3 C 96 % 5.71 C
1752 29-10-2019 01:55:00 6.3 C 96 % 5.71 C
1753 29-10-2019 02:00:00 6.3 C 96 % 5.71 C
1754 29-10-2019 02:05:00 6.3 C 96 % 5.71 C
1755 29-10-2019 02:10:00 6.3 C 96 % 5.71 C
1756 29-10-2019 02:15:00 6.3 C 96 % 5.71 C
1757 29-10-2019 02:20:00 6.3 C 96 % 5.71 C
1758 29-10-2019 02:25:00 6.3 C 96 % 5.71 C
1759 29-10-2019 02:30:00 6.3 C 96 % 5.71 C
1760 29-10-2019 02:35:00 6.3 C 96 % 5.71 C
1761 29-10-2019 02:40:00 6.3 C 96 % 5.71 C
1762 29-10-2019 02:45:00 6.3 C 96 % 5.71 C
1763 29-10-2019 02:50:00 6.3 C 96 % 5.71 C
1764 29-10-2019 02:55:00 6.3 C 96 % 5.71 C
1765 29-10-2019 03:00:00 6.3 C 96 % 5.71 C
1766 29-10-2019 03:05:00 6.3 C 96 % 5.71 C
1767 29-10-2019 03:10:00 6.3 C 96 % 5.71 C
1768 29-10-2019 03:15:00 6.3 C 96 % 5.71 C
1769 29-10-2019 03:20:00 6.3 C 96 % 5.71 C
1770 29-10-2019 03:25:00 6.3 C 96 % 5.71 C
1771 29-10-2019 03:30:00 6.3 C 96 % 5.71 C
1772 29-10-2019 03:35:00 6.3 C 96 % 5.71 C
1773 29-10-2019 03:40:00 6.3 C 96 % 5.71 C
1774 29-10-2019 03:45:00 6.2 C 96 % 5.61 C
1775 29-10-2019 03:50:00 6.2 C 96 % 5.61 C
Sensor: Nr:Datum:Temp:Feuchte:Taupunkt:
Aussen-T/F 1776 29-10-2019 03:55:00 6.2 C 96 % 5.61 C
1777 29-10-2019 04:00:00 6.2 C 96 % 5.61 C
1778 29-10-2019 04:05:00 6.2 C 96 % 5.61 C
1779 29-10-2019 04:10:00 6.2 C 96 % 5.61 C
1780 29-10-2019 04:15:00 6.2 C 96 % 5.61 C
1781 29-10-2019 04:20:00 6.2 C 96 % 5.61 C
1782 29-10-2019 04:25:00 6.2 C 96 % 5.61 C
1783 29-10-2019 04:30:00 6.2 C 96 % 5.61 C
1784 29-10-2019 04:35:00 6.2 C 96 % 5.61 C
1785 29-10-2019 04:40:00 6.2 C 96 % 5.61 C
1786 29-10-2019 04:45:00 6.2 C 96 % 5.61 C
1787 29-10-2019 04:50:00 6.2 C 96 % 5.61 C
1788 29-10-2019 04:55:00 6.2 C 96 % 5.61 C
1789 29-10-2019 05:00:00 6.2 C 96 % 5.61 C
1790 29-10-2019 05:05:00 6.2 C 96 % 5.61 C
1791 29-10-2019 05:10:00 6.2 C 96 % 5.61 C
1792 29-10-2019 05:15:00 6.2 C 96 % 5.61 C
1793 29-10-2019 05:20:00 6.2 C 96 % 5.61 C
1794 29-10-2019 05:25:00 6.2 C 96 % 5.61 C
1795 29-10-2019 05:30:00 6.2 C 96 % 5.61 C
1796 29-10-2019 05:35:00 6.2 C 96 % 5.61 C
1797 29-10-2019 05:40:00 6.2 C 96 % 5.61 C
1798 29-10-2019 05:45:00 6.2 C 96 % 5.61 C
1799 29-10-2019 05:50:00 6.2 C 96 % 5.61 C
1800 29-10-2019 05:55:00 6.2 C 96 % 5.61 C
Sensor: Nr:Datum:Temp:Feuchte:Taupunkt:
Aussen-T/F 1801 29-10-2019 06:00:00 6.2 C 96 % 5.61 C
1802 29-10-2019 06:05:00 6.1 C 96 % 5.51 C
1803 29-10-2019 06:10:00 6.1 C 96 % 5.51 C
1804 29-10-2019 06:15:00 6.1 C 96 % 5.51 C
1805 29-10-2019 06:20:00 6.1 C 96 % 5.51 C
1806 29-10-2019 06:25:00 6.1 C 96 % 5.51 C
1807 29-10-2019 06:30:00 6.1 C 96 % 5.51 C
1808 29-10-2019 06:35:00 6.1 C 95 % 5.36 C
1809 29-10-2019 06:40:00 6.1 C 95 % 5.36 C
1810 29-10-2019 06:45:00 6.1 C 96 % 5.51 C
1811 29-10-2019 06:50:00 6.1 C 96 % 5.51 C
1812 29-10-2019 06:55:00 6.1 C 95 % 5.36 C
1813 29-10-2019 07:00:00 6.1 C 96 % 5.51 C
1814 29-10-2019 07:05:00 6 C 95 % 5.26 C
1815 29-10-2019 07:10:00 6 C 95 % 5.26 C
1816 29-10-2019 07:15:00 6 C 95 % 5.26 C
1817 29-10-2019 07:20:00 6 C 95 % 5.26 C
1818 29-10-2019 07:25:00 5.9 C 95 % 5.16 C
1819 29-10-2019 07:30:00 5.9 C 95 % 5.16 C
1820 29-10-2019 07:35:00 5.9 C 95 % 5.16 C
1821 29-10-2019 07:40:00 5.9 C 95 % 5.16 C
1822 29-10-2019 07:45:00 6 C 96 % 5.41 C
1823 29-10-2019 07:50:00 6 C 96 % 5.41 C
1824 29-10-2019 07:55:00 6 C 96 % 5.41 C
1825 29-10-2019 08:00:00 6.1 C 96 % 5.51 C
Sensor: Nr:Datum:Temp:Feuchte:Taupunkt:
Aussen-T/F 1826 29-10-2019 08:05:00 6.1 C 96 % 5.51 C
1827 29-10-2019 08:10:00 6.1 C 96 % 5.51 C
1828 29-10-2019 08:15:00 6.2 C 96 % 5.61 C
1829 29-10-2019 08:20:00 6.2 C 96 % 5.61 C
1830 29-10-2019 08:25:00 6.3 C 96 % 5.71 C
1831 29-10-2019 08:30:00 6.3 C 96 % 5.71 C
1832 29-10-2019 08:35:00 6.3 C 95 % 5.56 C
1833 29-10-2019 08:40:00 6.2 C 95 % 5.46 C
1834 29-10-2019 08:45:00 6.3 C 95 % 5.56 C
1835 29-10-2019 08:50:00 6.3 C 95 % 5.56 C
1836 29-10-2019 08:55:00 6.3 C 95 % 5.56 C
1837 29-10-2019 09:00:00 6.3 C 95 % 5.56 C
1838 29-10-2019 09:05:00 6.4 C 95 % 5.66 C
1839 29-10-2019 09:10:00 6.4 C 95 % 5.66 C
1840 29-10-2019 09:15:00 6.5 C 95 % 5.76 C
1841 29-10-2019 09:20:00 6.6 C 95 % 5.86 C
1842 29-10-2019 09:25:00 6.7 C 95 % 5.96 C
1843 29-10-2019 09:30:00 6.7 C 95 % 5.96 C
1844 29-10-2019 09:35:00 6.8 C 95 % 6.06 C
1845 29-10-2019 09:40:00 6.9 C 95 % 6.16 C
1846 29-10-2019 09:45:00 6.9 C 94 % 6 C
1847 29-10-2019 09:50:00 7 C 94 % 6.1 C
1848 29-10-2019 09:55:00 7.1 C 94 % 6.2 C
1849 29-10-2019 10:00:00 7.1 C 94 % 6.2 C
1850 29-10-2019 10:05:00 7.2 C 94 % 6.3 C
Sensor: Nr:Datum:Temp:Feuchte:Taupunkt:
Aussen-T/F 1851 29-10-2019 10:10:00 7.3 C 94 % 6.4 C
1852 29-10-2019 10:15:00 7.3 C 93 % 6.25 C
1853 29-10-2019 10:20:00 7.3 C 92 % 6.09 C
1854 29-10-2019 10:25:00 7.4 C 93 % 6.34 C
1855 29-10-2019 10:30:00 7.5 C 93 % 6.44 C
1856 29-10-2019 10:35:00 7.6 C 92 % 6.39 C
1857 29-10-2019 10:40:00 7.7 C 92 % 6.48 C
1858 29-10-2019 10:45:00 7.7 C 92 % 6.48 C
1859 29-10-2019 10:50:00 7.8 C 92 % 6.58 C
1860 29-10-2019 10:55:00 7.8 C 92 % 6.58 C
1861 29-10-2019 11:00:00 7.9 C 92 % 6.68 C
1862 29-10-2019 11:05:00 8 C 92 % 6.78 C
1863 29-10-2019 11:10:00 8.1 C 91 % 6.72 C
1864 29-10-2019 11:15:00 8.1 C 91 % 6.72 C
1865 29-10-2019 11:20:00 8.2 C 91 % 6.82 C
1866 29-10-2019 11:25:00 8.2 C 90 % 6.66 C
1867 29-10-2019 11:30:00 8.2 C 90 % 6.66 C
1868 29-10-2019 11:35:00 8.3 C 90 % 6.76 C
1869 29-10-2019 11:40:00 8.3 C 90 % 6.76 C
1870 29-10-2019 11:45:00 8.4 C 90 % 6.86 C
1871 29-10-2019 11:50:00 8.5 C 90 % 6.96 C
1872 29-10-2019 11:55:00 8.6 C 90 % 7.06 C
1873 29-10-2019 12:00:00 8.7 C 89 % 6.99 C
1874 29-10-2019 12:05:00 8.7 C 89 % 6.99 C
1875 29-10-2019 12:10:00 8.8 C 89 % 7.09 C
Sensor: Nr:Datum:Temp:Feuchte:Taupunkt:
Aussen-T/F 1876 29-10-2019 12:15:00 8.8 C 88 % 6.93 C
1877 29-10-2019 12:20:00 8.8 C 88 % 6.93 C
1878 29-10-2019 12:25:00 8.8 C 88 % 6.93 C
1879 29-10-2019 12:30:00 8.9 C 88 % 7.02 C
1880 29-10-2019 12:35:00 9 C 89 % 7.29 C
1881 29-10-2019 12:40:00 9.1 C 88 % 7.22 C
1882 29-10-2019 12:45:00 9.1 C 88 % 7.22 C
1883 29-10-2019 12:50:00 9.2 C 88 % 7.32 C
1884 29-10-2019 12:55:00 9.2 C 88 % 7.32 C
1885 29-10-2019 13:00:00 9.2 C 87 % 7.15 C
1886 29-10-2019 13:05:00 9.3 C 88 % 7.42 C
1887 29-10-2019 13:10:00 9.3 C 87 % 7.25 C
1888 29-10-2019 13:15:00 9.4 C 88 % 7.52 C
1889 29-10-2019 13:20:00 9.6 C 88 % 7.71 C
1890 29-10-2019 13:25:00 9.7 C 86 % 7.47 C
1891 29-10-2019 13:30:00 9.7 C 84 % 7.13 C
1892 29-10-2019 13:35:00 9.8 C 83 % 7.05 C
1893 29-10-2019 13:40:00 10 C 82 % 7.07 C
1894 29-10-2019 13:45:00 10.2 C 81 % 7.09 C
1895 29-10-2019 13:50:00 10.3 C 81 % 7.19 C
1896 29-10-2019 13:55:00 10.4 C 78 % 6.74 C
1897 29-10-2019 14:00:00 10.3 C 78 % 6.64 C
1898 29-10-2019 14:05:00 10.3 C 79 % 6.82 C
1899 29-10-2019 14:10:00 10.3 C 78 % 6.64 C
1900 29-10-2019 14:15:00 10.3 C 79 % 6.82 C
Sensor: Nr:Datum:Temp:Feuchte:Taupunkt:
Aussen-T/F 1901 29-10-2019 14:20:00 10.3 C 79 % 6.82 C
1902 29-10-2019 14:25:00 10.4 C 77 % 6.55 C
1903 29-10-2019 14:30:00 10.6 C 77 % 6.74 C
1904 29-10-2019 14:35:00 10.8 C 75 % 6.55 C
1905 29-10-2019 14:40:00 11 C 74 % 6.55 C
1906 29-10-2019 14:45:00 11.1 C 74 % 6.65 C
1907 29-10-2019 14:50:00 10.9 C 72 % 6.06 C
1908 29-10-2019 14:55:00 10.8 C 75 % 6.55 C
1909 29-10-2019 15:00:00 10.7 C 72 % 5.87 C
1910 29-10-2019 15:05:00 10.5 C 74 % 6.07 C
1911 29-10-2019 15:10:00 10.3 C 76 % 6.26 C
1912 29-10-2019 15:15:00 10.1 C 77 % 6.26 C
1913 29-10-2019 15:20:00 9.9 C 80 % 6.62 C
1914 29-10-2019 15:25:00 9.7 C 80 % 6.42 C
1915 29-10-2019 15:30:00 9.4 C 82 % 6.49 C
1916 29-10-2019 15:35:00 9.2 C 83 % 6.47 C
1917 29-10-2019 15:40:00 9 C 84 % 6.45 C
1918 29-10-2019 15:45:00 8.8 C 85 % 6.42 C
1919 29-10-2019 15:50:00 8.7 C 85 % 6.32 C
1920 29-10-2019 15:55:00 8.6 C 86 % 6.39 C
1921 29-10-2019 16:00:00 8.6 C 87 % 6.56 C
1922 29-10-2019 16:05:00 8.6 C 88 % 6.73 C
1923 29-10-2019 16:10:00 8.5 C 88 % 6.63 C
1924 29-10-2019 16:15:00 8.5 C 88 % 6.63 C
1925 29-10-2019 16:20:00 8.4 C 87 % 6.37 C
Sensor: Nr:Datum:Temp:Feuchte:Taupunkt:
Aussen-T/F 1926 29-10-2019 16:25:00 8.3 C 88 % 6.43 C
1927 29-10-2019 16:30:00 8.2 C 88 % 6.33 C
1928 29-10-2019 16:35:00 8.1 C 89 % 6.4 C
1929 29-10-2019 16:40:00 8.1 C 89 % 6.4 C
1930 29-10-2019 16:45:00 8.1 C 89 % 6.4 C
1931 29-10-2019 16:50:00 8 C 89 % 6.3 C
1932 29-10-2019 16:55:00 7.9 C 89 % 6.2 C
1933 29-10-2019 17:00:00 7.7 C 89 % 6 C
1934 29-10-2019 17:05:00 7.5 C 89 % 5.81 C
1935 29-10-2019 17:10:00 7.3 C 89 % 5.61 C
1936 29-10-2019 17:15:00 7.2 C 89 % 5.51 C
1937 29-10-2019 17:20:00 7.1 C 89 % 5.41 C
1938 29-10-2019 17:25:00 6.9 C 89 % 5.22 C
1939 29-10-2019 17:30:00 6.8 C 90 % 5.28 C
1940 29-10-2019 17:35:00 6.7 C 90 % 5.18 C
1941 29-10-2019 17:40:00 6.6 C 89 % 4.92 C
1942 29-10-2019 17:45:00 6.6 C 90 % 5.08 C
1943 29-10-2019 17:50:00 6.5 C 90 % 4.98 C
1944 29-10-2019 17:55:00 6.4 C 90 % 4.88 C
1945 29-10-2019 18:00:00 6.3 C 90 % 4.78 C
1946 29-10-2019 18:05:00 6.2 C 90 % 4.69 C
1947 29-10-2019 18:10:00 6.2 C 91 % 4.84 C
1948 29-10-2019 18:15:00 6.2 C 91 % 4.84 C
1949 29-10-2019 18:20:00 6.1 C 91 % 4.74 C
1950 29-10-2019 18:25:00 6.1 C 91 % 4.74 C
Sensor: Nr:Datum:Temp:Feuchte:Taupunkt:
Aussen-T/F 1951 29-10-2019 18:30:00 5.9 C 91 % 4.55 C
1952 29-10-2019 18:35:00 5.9 C 91 % 4.55 C
1953 29-10-2019 18:40:00 5.8 C 91 % 4.45 C
1954 29-10-2019 18:45:00 5.7 C 91 % 4.35 C
1955 29-10-2019 18:50:00 5.6 C 91 % 4.25 C
1956 29-10-2019 18:55:00 5.6 C 92 % 4.41 C
1957 29-10-2019 19:00:00 5.4 C 92 % 4.21 C
1958 29-10-2019 19:05:00 5.3 C 92 % 4.11 C
1959 29-10-2019 19:10:00 5.3 C 92 % 4.11 C
1960 29-10-2019 19:15:00 5.2 C 92 % 4.01 C
1961 29-10-2019 19:20:00 5.1 C 92 % 3.91 C
1962 29-10-2019 19:25:00 5 C 92 % 3.81 C
1963 29-10-2019 19:30:00 4.9 C 92 % 3.71 C
1964 29-10-2019 19:35:00 4.8 C 93 % 3.77 C
1965 29-10-2019 19:40:00 4.7 C 93 % 3.67 C
1966 29-10-2019 19:45:00 4.7 C 93 % 3.67 C
1967 29-10-2019 19:50:00 4.6 C 93 % 3.57 C
1968 29-10-2019 19:55:00 4.6 C 94 % 3.72 C
1969 29-10-2019 20:00:00 4.6 C 94 % 3.72 C
1970 29-10-2019 20:05:00 4.6 C 94 % 3.72 C
1971 29-10-2019 20:10:00 4.5 C 94 % 3.62 C
1972 29-10-2019 20:15:00 4.4 C 94 % 3.52 C
1973 29-10-2019 20:20:00 4.4 C 94 % 3.52 C
1974 29-10-2019 20:25:00 4.4 C 94 % 3.52 C
1975 29-10-2019 20:30:00 4.4 C 94 % 3.52 C
Sensor: Nr:Datum:Temp:Feuchte:Taupunkt:
Aussen-T/F 1976 29-10-2019 20:35:00 4.4 C 94 % 3.52 C
1977 29-10-2019 20:40:00 4.4 C 94 % 3.52 C
1978 29-10-2019 20:45:00 4.4 C 94 % 3.52 C
1979 29-10-2019 20:50:00 4.3 C 94 % 3.42 C
1980 29-10-2019 20:55:00 4.3 C 94 % 3.42 C
1981 29-10-2019 21:00:00 4.1 C 94 % 3.22 C
1982 29-10-2019 21:05:00 4 C 94 % 3.12 C
1983 29-10-2019 21:10:00 3.9 C 94 % 3.02 C
1984 29-10-2019 21:15:00 3.8 C 94 % 2.93 C
1985 29-10-2019 21:20:00 3.7 C 94 % 2.83 C
1986 29-10-2019 21:25:00 3.7 C 94 % 2.83 C
1987 29-10-2019 21:30:00 3.6 C 94 % 2.73 C
1988 29-10-2019 21:35:00 3.5 C 94 % 2.63 C
1989 29-10-2019 21:40:00 3.4 C 94 % 2.53 C
1990 29-10-2019 21:45:00 3.3 C 94 % 2.43 C
1991 29-10-2019 21:50:00 3.3 C 95 % 2.58 C
1992 29-10-2019 21:55:00 3.3 C 95 % 2.58 C
1993 29-10-2019 22:00:00 3.2 C 95 % 2.48 C
1994 29-10-2019 22:05:00 3.2 C 95 % 2.48 C
1995 29-10-2019 22:10:00 3.2 C 95 % 2.48 C
1996 29-10-2019 22:15:00 3.1 C 95 % 2.38 C
1997 29-10-2019 22:20:00 3.1 C 95 % 2.38 C
1998 29-10-2019 22:25:00 3.1 C 95 % 2.38 C
1999 29-10-2019 22:30:00 3 C 95 % 2.28 C
2000 29-10-2019 22:35:00 2.9 C 95 % 2.18 C
Sensor: Nr:Datum:Temp:Feuchte:Taupunkt:
Aussen-T/F 2001 29-10-2019 22:40:00 2.8 C 95 % 2.08 C
2002 29-10-2019 22:45:00 2.8 C 95 % 2.08 C
2003 29-10-2019 22:50:00 2.8 C 95 % 2.08 C
2004 29-10-2019 22:55:00 2.7 C 95 % 1.98 C
2005 29-10-2019 23:00:00 2.8 C 95 % 2.08 C
2006 29-10-2019 23:05:00 2.8 C 96 % 2.23 C
2007 29-10-2019 23:10:00 2.8 C 96 % 2.23 C
2008 29-10-2019 23:15:00 2.9 C 96 % 2.33 C
2009 29-10-2019 23:20:00 3 C 96 % 2.43 C
2010 29-10-2019 23:25:00 2.9 C 96 % 2.33 C
2011 29-10-2019 23:30:00 2.8 C 96 % 2.23 C
2012 29-10-2019 23:35:00 2.7 C 95 % 1.98 C
2013 29-10-2019 23:40:00 2.7 C 96 % 2.13 C
2014 29-10-2019 23:45:00 2.7 C 96 % 2.13 C
2015 29-10-2019 23:50:00 2.6 C 96 % 2.03 C
2016 29-10-2019 23:55:00 2.6 C 96 % 2.03 C
2017 30-10-2019 00:00:00 2.4 C 96 % 1.83 C
2018 30-10-2019 00:05:00 2.4 C 95 % 1.68 C
2019 30-10-2019 00:10:00 2.3 C 95 % 1.58 C
2020 30-10-2019 00:15:00 2.2 C 96 % 1.63 C
2021 30-10-2019 00:20:00 2.2 C 96 % 1.63 C
2022 30-10-2019 00:25:00 2.2 C 96 % 1.63 C
2023 30-10-2019 00:30:00 2.2 C 96 % 1.63 C
2024 30-10-2019 00:35:00 2.1 C 96 % 1.53 C
2025 30-10-2019 00:40:00 2.1 C 96 % 1.53 C
Sensor: Nr:Datum:Temp:Feuchte:Taupunkt:
Aussen-T/F 2026 30-10-2019 00:45:00 2.1 C 96 % 1.53 C
2027 30-10-2019 00:50:00 2.1 C 96 % 1.53 C
2028 30-10-2019 00:55:00 2.2 C 96 % 1.63 C
2029 30-10-2019 01:00:00 2.2 C 96 % 1.63 C
2030 30-10-2019 01:05:00 2.2 C 96 % 1.63 C
2031 30-10-2019 01:10:00 2.2 C 96 % 1.63 C
2032 30-10-2019 01:15:00 2.2 C 96 % 1.63 C
2033 30-10-2019 01:20:00 2.1 C 96 % 1.53 C
2034 30-10-2019 01:25:00 2 C 96 % 1.43 C
2035 30-10-2019 01:30:00 1.9 C 96 % 1.33 C
2036 30-10-2019 01:35:00 1.9 C 96 % 1.33 C
2037 30-10-2019 01:40:00 1.9 C 96 % 1.33 C
2038 30-10-2019 01:45:00 1.8 C 96 % 1.23 C
2039 30-10-2019 01:50:00 1.7 C 96 % 1.13 C
2040 30-10-2019 01:55:00 1.7 C 96 % 1.13 C
2041 30-10-2019 02:00:00 1.7 C 96 % 1.13 C
2042 30-10-2019 02:05:00 1.7 C 96 % 1.13 C
2043 30-10-2019 02:10:00 1.8 C 96 % 1.23 C
2044 30-10-2019 02:15:00 1.9 C 96 % 1.33 C
2045 30-10-2019 02:20:00 1.9 C 96 % 1.33 C
2046 30-10-2019 02:25:00 2.1 C 96 % 1.53 C
2047 30-10-2019 02:30:00 2.1 C 96 % 1.53 C
2048 30-10-2019 02:35:00 2.1 C 96 % 1.53 C
2049 30-10-2019 02:40:00 2.2 C 96 % 1.63 C
2050 30-10-2019 02:45:00 2.1 C 96 % 1.53 C
Sensor: Nr:Datum:Temp:Feuchte:Taupunkt:
Aussen-T/F 2051 30-10-2019 02:50:00 2.1 C 96 % 1.53 C
2052 30-10-2019 02:55:00 2.1 C 96 % 1.53 C
2053 30-10-2019 03:00:00 2 C 96 % 1.43 C
2054 30-10-2019 03:05:00 1.9 C 96 % 1.33 C
2055 30-10-2019 03:10:00 1.8 C 96 % 1.23 C
2056 30-10-2019 03:15:00 1.7 C 96 % 1.13 C
2057 30-10-2019 03:20:00 1.7 C 96 % 1.13 C
2058 30-10-2019 03:25:00 1.6 C 96 % 1.03 C
2059 30-10-2019 03:30:00 1.4 C 96 % 0.83 C
2060 30-10-2019 03:35:00 1.3 C 96 % 0.73 C
2061 30-10-2019 03:40:00 1.3 C 96 % 0.73 C
2062 30-10-2019 03:45:00 1.2 C 96 % 0.63 C
2063 30-10-2019 03:50:00 1.2 C 96 % 0.63 C
2064 30-10-2019 03:55:00 1.1 C 96 % 0.54 C
2065 30-10-2019 04:00:00 1 C 96 % 0.44 C
2066 30-10-2019 04:05:00 1 C 96 % 0.44 C
2067 30-10-2019 04:10:00 1 C 96 % 0.44 C
2068 30-10-2019 04:15:00 1.1 C 96 % 0.54 C
2069 30-10-2019 04:20:00 1.2 C 96 % 0.63 C
2070 30-10-2019 04:25:00 1.2 C 97 % 0.78 C
2071 30-10-2019 04:30:00 1.3 C 97 % 0.88 C
2072 30-10-2019 04:35:00 1.3 C 97 % 0.88 C
2073 30-10-2019 04:40:00 1.2 C 97 % 0.78 C
2074 30-10-2019 04:45:00 1.2 C 96 % 0.63 C
2075 30-10-2019 04:50:00 1.1 C 96 % 0.54 C
Sensor: Nr:Datum:Temp:Feuchte:Taupunkt:
Aussen-T/F 2076 30-10-2019 04:55:00 1.1 C 96 % 0.54 C
2077 30-10-2019 05:00:00 1.1 C 96 % 0.54 C
2078 30-10-2019 05:05:00 1.1 C 96 % 0.54 C
2079 30-10-2019 05:10:00 1.2 C 96 % 0.63 C
2080 30-10-2019 05:15:00 1.3 C 97 % 0.88 C
2081 30-10-2019 05:20:00 1.3 C 97 % 0.88 C
2082 30-10-2019 05:25:00 1.4 C 97 % 0.98 C
2083 30-10-2019 05:30:00 1.4 C 97 % 0.98 C
2084 30-10-2019 05:35:00 1.4 C 97 % 0.98 C
2085 30-10-2019 05:40:00 1.5 C 97 % 1.08 C
2086 30-10-2019 05:45:00 1.5 C 97 % 1.08 C
2087 30-10-2019 05:50:00 1.5 C 97 % 1.08 C
2088 30-10-2019 05:55:00 1.5 C 97 % 1.08 C
2089 30-10-2019 06:00:00 1.5 C 97 % 1.08 C
2090 30-10-2019 06:05:00 1.6 C 97 % 1.18 C
2091 30-10-2019 06:10:00 1.6 C 97 % 1.18 C
2092 30-10-2019 06:15:00 1.5 C 97 % 1.08 C
2093 30-10-2019 06:20:00 1.5 C 97 % 1.08 C
2094 30-10-2019 06:25:00 1.4 C 97 % 0.98 C
2095 30-10-2019 06:30:00 1.3 C 97 % 0.88 C
2096 30-10-2019 06:35:00 1.3 C 97 % 0.88 C
2097 30-10-2019 06:40:00 1.2 C 97 % 0.78 C
2098 30-10-2019 06:45:00 1.3 C 97 % 0.88 C
2099 30-10-2019 06:50:00 1.3 C 97 % 0.88 C
2100 30-10-2019 06:55:00 1.3 C 97 % 0.88 C
Sensor: Nr:Datum:Temp:Feuchte:Taupunkt:
Aussen-T/F 2101 30-10-2019 07:00:00 1.3 C 97 % 0.88 C
2102 30-10-2019 07:05:00 1.4 C 97 % 0.98 C
2103 30-10-2019 07:10:00 1.4 C 97 % 0.98 C
2104 30-10-2019 07:15:00 1.4 C 97 % 0.98 C
2105 30-10-2019 07:20:00 1.4 C 97 % 0.98 C
2106 30-10-2019 07:25:00 1.4 C 97 % 0.98 C
2107 30-10-2019 07:30:00 1.4 C 97 % 0.98 C
2108 30-10-2019 07:35:00 1.4 C 97 % 0.98 C
2109 30-10-2019 07:40:00 1.6 C 97 % 1.18 C
2110 30-10-2019 07:45:00 1.6 C 97 % 1.18 C
2111 30-10-2019 07:50:00 1.6 C 97 % 1.18 C
2112 30-10-2019 07:55:00 1.6 C 97 % 1.18 C
2113 30-10-2019 08:00:00 1.7 C 97 % 1.28 C
2114 30-10-2019 08:05:00 1.7 C 97 % 1.28 C
2115 30-10-2019 08:10:00 1.7 C 97 % 1.28 C
2116 30-10-2019 08:15:00 1.7 C 97 % 1.28 C
2117 30-10-2019 08:20:00 1.8 C 97 % 1.38 C
2118 30-10-2019 08:25:00 1.8 C 97 % 1.38 C
2119 30-10-2019 08:30:00 1.9 C 97 % 1.48 C
2120 30-10-2019 08:35:00 1.9 C 97 % 1.48 C
2121 30-10-2019 08:40:00 1.9 C 97 % 1.48 C
2122 30-10-2019 08:45:00 1.9 C 97 % 1.48 C
2123 30-10-2019 08:50:00 2.1 C 97 % 1.67 C
2124 30-10-2019 08:55:00 2.2 C 97 % 1.77 C
2125 30-10-2019 09:00:00 2.2 C 97 % 1.77 C
Sensor: Nr:Datum:Temp:Feuchte:Taupunkt:
Aussen-T/F 2126 30-10-2019 09:05:00 2.2 C 97 % 1.77 C
2127 30-10-2019 09:10:00 2.3 C 97 % 1.87 C
2128 30-10-2019 09:15:00 2.3 C 97 % 1.87 C
2129 30-10-2019 09:20:00 2.3 C 97 % 1.87 C
2130 30-10-2019 09:25:00 2.3 C 97 % 1.87 C
2131 30-10-2019 09:30:00 2.4 C 97 % 1.97 C
2132 30-10-2019 09:35:00 2.4 C 97 % 1.97 C
2133 30-10-2019 09:40:00 2.6 C 97 % 2.17 C
2134 30-10-2019 09:45:00 2.6 C 97 % 2.17 C
2135 30-10-2019 09:50:00 2.6 C 97 % 2.17 C
2136 30-10-2019 09:55:00 2.6 C 97 % 2.17 C
2137 30-10-2019 10:00:00 2.7 C 97 % 2.27 C
2138 30-10-2019 10:05:00 2.9 C 97 % 2.47 C
2139 30-10-2019 10:10:00 3.2 C 98 % 2.92 C
2140 30-10-2019 10:15:00 3.4 C 98 % 3.11 C
2141 30-10-2019 10:20:00 3.6 C 98 % 3.31 C
2142 30-10-2019 10:25:00 3.7 C 98 % 3.41 C
2143 30-10-2019 10:30:00 3.8 C 98 % 3.51 C
2144 30-10-2019 10:35:00 4 C 98 % 3.71 C
2145 30-10-2019 10:40:00 4.1 C 98 % 3.81 C
2146 30-10-2019 10:45:00 4.2 C 98 % 3.91 C
2147 30-10-2019 10:50:00 4.3 C 98 % 4.01 C
2148 30-10-2019 10:55:00 4.4 C 98 % 4.11 C
2149 30-10-2019 11:00:00 4.6 C 98 % 4.31 C
2150 30-10-2019 11:05:00 4.7 C 98 % 4.41 C
Sensor: Nr:Datum:Temp:Feuchte:Taupunkt:
Aussen-T/F 2151 30-10-2019 11:10:00 4.7 C 98 % 4.41 C
2152 30-10-2019 11:15:00 4.8 C 98 % 4.51 C
2153 30-10-2019 11:20:00 4.9 C 98 % 4.61 C
2154 30-10-2019 11:25:00 4.9 C 98 % 4.61 C
2155 30-10-2019 11:30:00 4.9 C 98 % 4.61 C
2156 30-10-2019 11:35:00 5 C 98 % 4.71 C
2157 30-10-2019 11:40:00 5.1 C 98 % 4.81 C
2158 30-10-2019 11:45:00 5.2 C 98 % 4.91 C
2159 30-10-2019 11:50:00 5.2 C 98 % 4.91 C
2160 30-10-2019 11:55:00 5.3 C 98 % 5.01 C
2161 30-10-2019 12:00:00 5.3 C 98 % 5.01 C
2162 30-10-2019 12:05:00 5.4 C 98 % 5.11 C
2163 30-10-2019 12:10:00 5.5 C 97 % 5.06 C
2164 30-10-2019 12:15:00 5.6 C 97 % 5.16 C
2165 30-10-2019 12:20:00 5.7 C 97 % 5.26 C
2166 30-10-2019 12:25:00 5.7 C 97 % 5.26 C
2167 30-10-2019 12:30:00 5.8 C 97 % 5.36 C
2168 30-10-2019 12:35:00 5.8 C 97 % 5.36 C
2169 30-10-2019 12:40:00 5.8 C 97 % 5.36 C
2170 30-10-2019 12:45:00 5.9 C 97 % 5.46 C
2171 30-10-2019 12:50:00 6 C 96 % 5.41 C
2172 30-10-2019 12:55:00 6.1 C 95 % 5.36 C
2173 30-10-2019 13:00:00 6.1 C 94 % 5.21 C
2174 30-10-2019 13:05:00 6.2 C 94 % 5.31 C
2175 30-10-2019 13:10:00 6.2 C 93 % 5.15 C
Sensor: Nr:Datum:Temp:Feuchte:Taupunkt:
Aussen-T/F 2176 30-10-2019 13:15:00 6.3 C 93 % 5.25 C
2177 30-10-2019 13:20:00 6.4 C 93 % 5.35 C
2178 30-10-2019 13:25:00 6.5 C 92 % 5.3 C
2179 30-10-2019 13:30:00 6.7 C 91 % 5.34 C
2180 30-10-2019 13:35:00 6.8 C 90 % 5.28 C
2181 30-10-2019 13:40:00 6.9 C 90 % 5.38 C
2182 30-10-2019 13:45:00 7.1 C 88 % 5.25 C
2183 30-10-2019 13:50:00 7.2 C 88 % 5.35 C
2184 30-10-2019 13:55:00 7.2 C 86 % 5.02 C
2185 30-10-2019 14:00:00 7.3 C 86 % 5.12 C
2186 30-10-2019 14:05:00 7.4 C 87 % 5.38 C
2187 30-10-2019 14:10:00 7.4 C 86 % 5.22 C
2188 30-10-2019 14:15:00 7.5 C 85 % 5.15 C
2189 30-10-2019 14:20:00 7.5 C 85 % 5.15 C
2190 30-10-2019 14:25:00 7.6 C 83 % 4.9 C
2191 30-10-2019 14:30:00 7.6 C 83 % 4.9 C
2192 30-10-2019 14:35:00 7.7 C 84 % 5.17 C
2193 30-10-2019 14:40:00 7.7 C 84 % 5.17 C
2194 30-10-2019 14:45:00 7.7 C 84 % 5.17 C
2195 30-10-2019 14:50:00 7.8 C 83 % 5.1 C
2196 30-10-2019 14:55:00 7.8 C 84 % 5.27 C
2197 30-10-2019 15:00:00 7.8 C 84 % 5.27 C
2198 30-10-2019 15:05:00 7.8 C 83 % 5.1 C
2199 30-10-2019 15:10:00 7.8 C 82 % 4.92 C
2200 30-10-2019 15:15:00 7.8 C 84 % 5.27 C
Sensor: Nr:Datum:Temp:Feuchte:Taupunkt:
Aussen-T/F 2201 30-10-2019 15:20:00 7.8 C 84 % 5.27 C
2202 30-10-2019 15:25:00 7.8 C 83 % 5.1 C
2203 30-10-2019 15:30:00 7.8 C 84 % 5.27 C
2204 30-10-2019 15:35:00 7.8 C 85 % 5.44 C
2205 30-10-2019 15:40:00 7.7 C 85 % 5.34 C
2206 30-10-2019 15:45:00 7.7 C 86 % 5.51 C
2207 30-10-2019 15:50:00 7.6 C 86 % 5.41 C
2208 30-10-2019 15:55:00 7.6 C 86 % 5.41 C
2209 30-10-2019 16:00:00 7.5 C 87 % 5.48 C
2210 30-10-2019 16:05:00 7.4 C 87 % 5.38 C
2211 30-10-2019 16:10:00 7.3 C 87 % 5.28 C
2212 30-10-2019 16:15:00 7.3 C 87 % 5.28 C
2213 30-10-2019 16:20:00 7.2 C 88 % 5.35 C
2214 30-10-2019 16:25:00 7.1 C 88 % 5.25 C
2215 30-10-2019 16:30:00 6.9 C 88 % 5.05 C
2216 30-10-2019 16:35:00 6.9 C 88 % 5.05 C
2217 30-10-2019 16:40:00 6.8 C 89 % 5.12 C
2218 30-10-2019 16:45:00 6.7 C 89 % 5.02 C
2219 30-10-2019 16:50:00 6.6 C 89 % 4.92 C
2220 30-10-2019 16:55:00 6.5 C 89 % 4.82 C
2221 30-10-2019 17:00:00 6.4 C 89 % 4.72 C
2222 30-10-2019 17:05:00 6.3 C 89 % 4.62 C
2223 30-10-2019 17:10:00 6.2 C 89 % 4.53 C
2224 30-10-2019 17:15:00 6.1 C 89 % 4.43 C
2225 30-10-2019 17:20:00 5.9 C 89 % 4.23 C
Sensor: Nr:Datum:Temp:Feuchte:Taupunkt:
Aussen-T/F 2226 30-10-2019 17:25:00 5.8 C 89 % 4.13 C
2227 30-10-2019 17:30:00 5.7 C 89 % 4.03 C
2228 30-10-2019 17:35:00 5.6 C 89 % 3.93 C
2229 30-10-2019 17:40:00 5.5 C 89 % 3.84 C
2230 30-10-2019 17:45:00 5.4 C 89 % 3.74 C
2231 30-10-2019 17:50:00 5.2 C 90 % 3.7 C
2232 30-10-2019 17:55:00 5.1 C 90 % 3.6 C
2233 30-10-2019 18:00:00 5 C 90 % 3.5 C
2234 30-10-2019 18:05:00 4.8 C 90 % 3.3 C
2235 30-10-2019 18:10:00 4.7 C 90 % 3.2 C
2236 30-10-2019 18:15:00 4.7 C 90 % 3.2 C
2237 30-10-2019 18:20:00 4.6 C 90 % 3.1 C
2238 30-10-2019 18:25:00 4.5 C 91 % 3.16 C
2239 30-10-2019 18:30:00 4.4 C 91 % 3.06 C
2240 30-10-2019 18:35:00 4.3 C 91 % 2.96 C
2241 30-10-2019 18:40:00 4.2 C 91 % 2.87 C
2242 30-10-2019 18:45:00 4.2 C 91 % 2.87 C
2243 30-10-2019 18:50:00 4.1 C 91 % 2.77 C
2244 30-10-2019 18:55:00 4.1 C 91 % 2.77 C
2245 30-10-2019 19:00:00 4.1 C 91 % 2.77 C
2246 30-10-2019 19:05:00 4 C 91 % 2.67 C
2247 30-10-2019 19:10:00 3.9 C 91 % 2.57 C
2248 30-10-2019 19:15:00 3.8 C 92 % 2.62 C
2249 30-10-2019 19:20:00 3.8 C 92 % 2.62 C
2250 30-10-2019 19:25:00 3.8 C 92 % 2.62 C
Sensor: Nr:Datum:Temp:Feuchte:Taupunkt:
Aussen-T/F 2251 30-10-2019 19:30:00 3.8 C 92 % 2.62 C
2252 30-10-2019 19:35:00 3.8 C 92 % 2.62 C
2253 30-10-2019 19:40:00 3.7 C 92 % 2.52 C
2254 30-10-2019 19:45:00 3.7 C 92 % 2.52 C
2255 30-10-2019 19:50:00 3.6 C 93 % 2.58 C
2256 30-10-2019 19:55:00 3.6 C 93 % 2.58 C
2257 30-10-2019 20:00:00 3.5 C 93 % 2.48 C
2258 30-10-2019 20:05:00 3.4 C 93 % 2.38 C
2259 30-10-2019 20:10:00 3.4 C 93 % 2.38 C
2260 30-10-2019 20:15:00 3.4 C 93 % 2.38 C
2261 30-10-2019 20:20:00 3.3 C 93 % 2.28 C
2262 30-10-2019 20:25:00 3.3 C 93 % 2.28 C
2263 30-10-2019 20:30:00 3.3 C 94 % 2.43 C
2264 30-10-2019 20:35:00 3.2 C 94 % 2.33 C
2265 30-10-2019 20:40:00 3.2 C 94 % 2.33 C
2266 30-10-2019 20:45:00 3.1 C 93 % 2.08 C
2267 30-10-2019 20:50:00 2.9 C 93 % 1.88 C
2268 30-10-2019 20:55:00 2.8 C 94 % 1.93 C
2269 30-10-2019 21:00:00 2.7 C 94 % 1.83 C
2270 30-10-2019 21:05:00 2.8 C 94 % 1.93 C
2271 30-10-2019 21:10:00 2.8 C 94 % 1.93 C
2272 30-10-2019 21:15:00 2.8 C 94 % 1.93 C
2273 30-10-2019 21:20:00 2.7 C 94 % 1.83 C
2274 30-10-2019 21:25:00 2.7 C 94 % 1.83 C
2275 30-10-2019 21:30:00 2.6 C 94 % 1.73 C
Sensor: Nr:Datum:Temp:Feuchte:Taupunkt:
Aussen-T/F 2276 30-10-2019 21:35:00 2.6 C 95 % 1.88 C
2277 30-10-2019 21:40:00 2.7 C 95 % 1.98 C
2278 30-10-2019 21:45:00 2.7 C 95 % 1.98 C
2279 30-10-2019 21:50:00 2.7 C 95 % 1.98 C
2280 30-10-2019 21:55:00 2.7 C 95 % 1.98 C
2281 30-10-2019 22:00:00 2.6 C 95 % 1.88 C
2282 30-10-2019 22:05:00 2.6 C 95 % 1.88 C
2283 30-10-2019 22:10:00 2.4 C 94 % 1.54 C
2284 30-10-2019 22:15:00 2.4 C 94 % 1.54 C
2285 30-10-2019 22:20:00 2.2 C 94 % 1.34 C
2286 30-10-2019 22:25:00 2.2 C 94 % 1.34 C
2287 30-10-2019 22:30:00 2.1 C 95 % 1.38 C
2288 30-10-2019 22:35:00 2.1 C 95 % 1.38 C
2289 30-10-2019 22:40:00 2.1 C 95 % 1.38 C
2290 30-10-2019 22:45:00 2.1 C 95 % 1.38 C
2291 30-10-2019 22:50:00 2.1 C 95 % 1.38 C
2292 30-10-2019 22:55:00 2.1 C 95 % 1.38 C
2293 30-10-2019 23:00:00 2.1 C 95 % 1.38 C
2294 30-10-2019 23:05:00 2.1 C 95 % 1.38 C
2295 30-10-2019 23:10:00 2.1 C 95 % 1.38 C
2296 30-10-2019 23:15:00 1.9 C 95 % 1.19 C
2297 30-10-2019 23:20:00 1.9 C 95 % 1.19 C
2298 30-10-2019 23:25:00 1.8 C 95 % 1.09 C
2299 30-10-2019 23:30:00 1.8 C 95 % 1.09 C
2300 30-10-2019 23:35:00 1.7 C 95 % 0.99 C
Sensor: Nr:Datum:Temp:Feuchte:Taupunkt:
Aussen-T/F 2301 30-10-2019 23:40:00 1.7 C 95 % 0.99 C
2302 30-10-2019 23:45:00 1.6 C 95 % 0.89 C
2303 30-10-2019 23:50:00 1.6 C 95 % 0.89 C
2304 30-10-2019 23:55:00 1.4 C 95 % 0.69 C
2305 31-10-2019 00:00:00 1.3 C 95 % 0.59 C
2306 31-10-2019 00:05:00 1.2 C 95 % 0.49 C
2307 31-10-2019 00:10:00 1.2 C 95 % 0.49 C
2308 31-10-2019 00:15:00 1.1 C 95 % 0.39 C
2309 31-10-2019 00:20:00 1.1 C 95 % 0.39 C
2310 31-10-2019 00:25:00 1 C 95 % 0.29 C
2311 31-10-2019 00:30:00 0.9 C 95 % 0.19 C
2312 31-10-2019 00:35:00 0.9 C 95 % 0.19 C
2313 31-10-2019 00:40:00 0.9 C 95 % 0.19 C
2314 31-10-2019 00:45:00 0.9 C 95 % 0.19 C
2315 31-10-2019 00:50:00 0.9 C 95 % 0.19 C
2316 31-10-2019 00:55:00 0.9 C 95 % 0.19 C
2317 31-10-2019 01:00:00 0.9 C 95 % 0.19 C
2318 31-10-2019 01:05:00 0.9 C 96 % 0.34 C
2319 31-10-2019 01:10:00 0.9 C 96 % 0.34 C
2320 31-10-2019 01:15:00 0.9 C 96 % 0.34 C
2321 31-10-2019 01:20:00 0.9 C 96 % 0.34 C
2322 31-10-2019 01:25:00 0.9 C 96 % 0.34 C
2323 31-10-2019 01:30:00 0.9 C 96 % 0.34 C
2324 31-10-2019 01:35:00 0.9 C 96 % 0.34 C
2325 31-10-2019 01:40:00 0.9 C 96 % 0.34 C
Sensor: Nr:Datum:Temp:Feuchte:Taupunkt:
Aussen-T/F 2326 31-10-2019 01:45:00 0.9 C 96 % 0.34 C
2327 31-10-2019 01:50:00 0.9 C 96 % 0.34 C
2328 31-10-2019 01:55:00 0.8 C 96 % 0.24 C
2329 31-10-2019 02:00:00 0.8 C 96 % 0.24 C
2330 31-10-2019 02:05:00 0.7 C 96 % 0.14 C
2331 31-10-2019 02:10:00 0.7 C 96 % 0.14 C
2332 31-10-2019 02:15:00 0.7 C 96 % 0.14 C
2333 31-10-2019 02:20:00 0.6 C 96 % 0.04 C
2334 31-10-2019 02:25:00 0.5 C 96 % -0.06 C
2335 31-10-2019 02:30:00 0.5 C 96 % -0.06 C
2336 31-10-2019 02:35:00 0.5 C 96 % -0.06 C
2337 31-10-2019 02:40:00 0.4 C 96 % -0.16 C
2338 31-10-2019 02:45:00 0.4 C 96 % -0.16 C
2339 31-10-2019 02:50:00 0.3 C 96 % -0.26 C
2340 31-10-2019 02:55:00 0.3 C 96 % -0.26 C
2341 31-10-2019 03:00:00 0.3 C 96 % -0.26 C
2342 31-10-2019 03:05:00 0.3 C 96 % -0.26 C
2343 31-10-2019 03:10:00 0.3 C 96 % -0.26 C
2344 31-10-2019 03:15:00 0.4 C 96 % -0.16 C
2345 31-10-2019 03:20:00 0.3 C 96 % -0.26 C
2346 31-10-2019 03:25:00 0.3 C 96 % -0.26 C
2347 31-10-2019 03:30:00 0.2 C 96 % -0.36 C
2348 31-10-2019 03:35:00 0.2 C 96 % -0.36 C
2349 31-10-2019 03:40:00 0.2 C 96 % -0.36 C
2350 31-10-2019 03:45:00 0.3 C 96 % -0.26 C
Sensor: Nr:Datum:Temp:Feuchte:Taupunkt:
Aussen-T/F 2351 31-10-2019 03:50:00 0.3 C 96 % -0.26 C
2352 31-10-2019 03:55:00 0.3 C 96 % -0.26 C
2353 31-10-2019 04:00:00 0.3 C 96 % -0.26 C
2354 31-10-2019 04:05:00 0.2 C 96 % -0.36 C
2355 31-10-2019 04:10:00 0.1 C 96 % -0.46 C
2356 31-10-2019 04:15:00 0 C 96 % -0.56 C
2357 31-10-2019 04:20:00 0 C 96 % -0.56 C
2358 31-10-2019 04:25:00 0 C 96 % -0.56 C
2359 31-10-2019 04:30:00 0.1 C 96 % -0.46 C
2360 31-10-2019 04:35:00 0.1 C 96 % -0.46 C
2361 31-10-2019 04:40:00 0.1 C 96 % -0.46 C
2362 31-10-2019 04:45:00 0 C 96 % -0.56 C
2363 31-10-2019 04:50:00 0 C 96 % -0.56 C
2364 31-10-2019 04:55:00 -0.1 C 96 % -0.66 C
2365 31-10-2019 05:00:00 -0.1 C 96 % -0.66 C
2366 31-10-2019 05:05:00 -0.2 C 96 % -0.76 C
2367 31-10-2019 05:10:00 -0.2 C 96 % -0.76 C
2368 31-10-2019 05:15:00 -0.3 C 96 % -0.86 C
2369 31-10-2019 05:20:00 -0.3 C 96 % -0.86 C
2370 31-10-2019 05:25:00 -0.3 C 96 % -0.86 C
2371 31-10-2019 05:30:00 -0.3 C 96 % -0.86 C
2372 31-10-2019 05:35:00 -0.4 C 96 % -0.96 C
2373 31-10-2019 05:40:00 -0.4 C 96 % -0.96 C
2374 31-10-2019 05:45:00 -0.4 C 96 % -0.96 C
2375 31-10-2019 05:50:00 -0.5 C 96 % -1.06 C
Sensor: Nr:Datum:Temp:Feuchte:Taupunkt:
Aussen-T/F 2376 31-10-2019 05:55:00 -0.5 C 96 % -1.06 C
2377 31-10-2019 06:00:00 -0.5 C 96 % -1.06 C
2378 31-10-2019 06:05:00 -0.5 C 96 % -1.06 C
2379 31-10-2019 06:10:00 -0.5 C 96 % -1.06 C
2380 31-10-2019 06:15:00 -0.5 C 96 % -1.06 C
2381 31-10-2019 06:20:00 -0.4 C 96 % -0.96 C
2382 31-10-2019 06:25:00 -0.5 C 96 % -1.06 C
2383 31-10-2019 06:30:00 -0.5 C 96 % -1.06 C
2384 31-10-2019 06:35:00 -0.5 C 96 % -1.06 C
2385 31-10-2019 06:40:00 -0.5 C 96 % -1.06 C
2386 31-10-2019 06:45:00 -0.5 C 96 % -1.06 C
2387 31-10-2019 06:50:00 -0.6 C 96 % -1.16 C
2388 31-10-2019 06:55:00 -0.6 C 96 % -1.16 C
2389 31-10-2019 07:00:00 -0.6 C 96 % -1.16 C
2390 31-10-2019 07:05:00 -0.7 C 96 % -1.26 C
2391 31-10-2019 07:10:00 -0.7 C 96 % -1.26 C
2392 31-10-2019 07:15:00 -0.7 C 96 % -1.26 C
2393 31-10-2019 07:20:00 -0.8 C 96 % -1.36 C
2394 31-10-2019 07:25:00 -0.8 C 96 % -1.36 C
2395 31-10-2019 07:30:00 -0.8 C 97 % -1.22 C
2396 31-10-2019 07:35:00 -0.7 C 97 % -1.12 C
2397 31-10-2019 07:40:00 -0.8 C 97 % -1.22 C
2398 31-10-2019 07:45:00 -0.8 C 96 % -1.36 C
2399 31-10-2019 07:50:00 -0.8 C 96 % -1.36 C
2400 31-10-2019 07:55:00 -0.8 C 96 % -1.36 C
Sensor: Nr:Datum:Temp:Feuchte:Taupunkt:
Aussen-T/F 2401 31-10-2019 08:00:00 -0.8 C 96 % -1.36 C
2402 31-10-2019 08:05:00 -0.8 C 96 % -1.36 C
2403 31-10-2019 08:10:00 -0.7 C 96 % -1.26 C
2404 31-10-2019 08:15:00 -0.7 C 96 % -1.26 C
2405 31-10-2019 08:20:00 -0.6 C 96 % -1.16 C
2406 31-10-2019 08:25:00 -0.6 C 97 % -1.02 C
2407 31-10-2019 08:30:00 -0.6 C 97 % -1.02 C
2408 31-10-2019 08:35:00 -0.6 C 97 % -1.02 C
2409 31-10-2019 08:40:00 -0.6 C 97 % -1.02 C
2410 31-10-2019 08:45:00 -0.5 C 97 % -0.92 C
2411 31-10-2019 08:50:00 -0.5 C 97 % -0.92 C
2412 31-10-2019 08:55:00 -0.4 C 97 % -0.82 C
2413 31-10-2019 09:00:00 -0.4 C 97 % -0.82 C
2414 31-10-2019 09:05:00 -0.3 C 97 % -0.72 C
2415 31-10-2019 09:10:00 -0.2 C 97 % -0.62 C
2416 31-10-2019 09:15:00 -0.1 C 97 % -0.52 C
2417 31-10-2019 09:20:00 0 C 97 % -0.42 C
2418 31-10-2019 09:25:00 0.1 C 97 % -0.32 C
2419 31-10-2019 09:30:00 0.1 C 97 % -0.32 C
2420 31-10-2019 09:35:00 0.2 C 97 % -0.22 C
2421 31-10-2019 09:40:00 0.2 C 97 % -0.22 C
2422 31-10-2019 09:45:00 0.3 C 97 % -0.12 C
2423 31-10-2019 09:50:00 0.3 C 97 % -0.12 C
2424 31-10-2019 09:55:00 0.4 C 97 % -0.02 C
2425 31-10-2019 10:00:00 0.4 C 97 % -0.02 C
Sensor: Nr:Datum:Temp:Feuchte:Taupunkt:
Aussen-T/F 2426 31-10-2019 10:05:00 0.6 C 97 % 0.18 C
2427 31-10-2019 10:10:00 0.7 C 97 % 0.28 C
2428 31-10-2019 10:15:00 0.8 C 97 % 0.38 C
2429 31-10-2019 10:20:00 0.8 C 97 % 0.38 C
2430 31-10-2019 10:25:00 1 C 97 % 0.58 C
2431 31-10-2019 10:30:00 1.1 C 97 % 0.68 C
2432 31-10-2019 10:35:00 1.3 C 97 % 0.88 C
2433 31-10-2019 10:40:00 1.4 C 97 % 0.98 C
2434 31-10-2019 10:45:00 1.6 C 97 % 1.18 C
2435 31-10-2019 10:50:00 1.8 C 98 % 1.52 C
2436 31-10-2019 10:55:00 2.1 C 97 % 1.67 C
2437 31-10-2019 11:00:00 2.2 C 98 % 1.92 C
2438 31-10-2019 11:05:00 2.3 C 97 % 1.87 C
2439 31-10-2019 11:10:00 2.4 C 98 % 2.12 C
2440 31-10-2019 11:15:00 2.6 C 98 % 2.32 C
2441 31-10-2019 11:20:00 2.7 C 97 % 2.27 C
2442 31-10-2019 11:25:00 2.8 C 98 % 2.52 C
2443 31-10-2019 11:30:00 2.9 C 98 % 2.62 C
2444 31-10-2019 11:35:00 3.1 C 98 % 2.82 C
2445 31-10-2019 11:40:00 3.2 C 98 % 2.92 C
2446 31-10-2019 11:45:00 3.3 C 98 % 3.01 C
2447 31-10-2019 11:50:00 3.4 C 98 % 3.11 C
2448 31-10-2019 11:55:00 3.4 C 98 % 3.11 C
2449 31-10-2019 12:00:00 3.6 C 98 % 3.31 C
2450 31-10-2019 12:05:00 3.7 C 98 % 3.41 C
Sensor: Nr:Datum:Temp:Feuchte:Taupunkt:
Aussen-T/F 2451 31-10-2019 12:10:00 3.8 C 98 % 3.51 C
2452 31-10-2019 12:15:00 3.9 C 98 % 3.61 C
2453 31-10-2019 12:20:00 4.1 C 98 % 3.81 C
2454 31-10-2019 12:25:00 4.2 C 98 % 3.91 C
2455 31-10-2019 12:30:00 4.2 C 98 % 3.91 C
2456 31-10-2019 12:35:00 4.3 C 97 % 3.87 C
2457 31-10-2019 12:40:00 4.4 C 98 % 4.11 C
2458 31-10-2019 12:45:00 4.5 C 98 % 4.21 C
2459 31-10-2019 12:50:00 4.6 C 97 % 4.17 C
2460 31-10-2019 12:55:00 4.7 C 97 % 4.27 C
2461 31-10-2019 13:00:00 4.8 C 97 % 4.37 C
2462 31-10-2019 13:05:00 4.9 C 97 % 4.46 C
2463 31-10-2019 13:10:00 5.1 C 97 % 4.66 C
2464 31-10-2019 13:15:00 5.2 C 97 % 4.76 C
2465 31-10-2019 13:20:00 5.4 C 97 % 4.96 C
2466 31-10-2019 13:25:00 5.6 C 96 % 5.01 C
2467 31-10-2019 13:30:00 5.7 C 94 % 4.81 C
2468 31-10-2019 13:35:00 5.9 C 94 % 5.01 C
2469 31-10-2019 13:40:00 5.9 C 92 % 4.7 C
2470 31-10-2019 13:45:00 6.1 C 91 % 4.74 C
2471 31-10-2019 13:50:00 6.3 C 91 % 4.94 C
2472 31-10-2019 13:55:00 6.4 C 91 % 5.04 C
2473 31-10-2019 14:00:00 6.5 C 91 % 5.14 C
2474 31-10-2019 14:05:00 6.5 C 89 % 4.82 C
2475 31-10-2019 14:10:00 6.7 C 86 % 4.53 C
Sensor: Nr:Datum:Temp:Feuchte:Taupunkt:
Aussen-T/F 2476 31-10-2019 14:15:00 7.1 C 86 % 4.92 C
2477 31-10-2019 14:20:00 7.1 C 85 % 4.75 C
2478 31-10-2019 14:25:00 7.3 C 81 % 4.26 C
2479 31-10-2019 14:30:00 7.7 C 81 % 4.65 C
2480 31-10-2019 14:35:00 7.8 C 83 % 5.1 C
2481 31-10-2019 14:40:00 7.8 C 84 % 5.27 C
2482 31-10-2019 14:45:00 7.7 C 84 % 5.17 C
2483 31-10-2019 14:50:00 7.6 C 81 % 4.55 C
2484 31-10-2019 14:55:00 7.7 C 80 % 4.47 C
2485 31-10-2019 15:00:00 7.9 C 79 % 4.49 C
2486 31-10-2019 15:05:00 8 C 82 % 5.12 C
2487 31-10-2019 15:10:00 7.8 C 82 % 4.92 C
2488 31-10-2019 15:15:00 7.7 C 83 % 5 C
2489 31-10-2019 15:20:00 7.5 C 83 % 4.81 C
2490 31-10-2019 15:25:00 7.4 C 83 % 4.71 C
2491 31-10-2019 15:30:00 7.4 C 83 % 4.71 C
2492 31-10-2019 15:35:00 7.3 C 84 % 4.78 C
2493 31-10-2019 15:40:00 7.3 C 85 % 4.95 C
2494 31-10-2019 15:45:00 7.1 C 85 % 4.75 C
2495 31-10-2019 15:50:00 7 C 86 % 4.82 C
2496 31-10-2019 15:55:00 6.9 C 86 % 4.72 C
2497 31-10-2019 16:00:00 6.8 C 86 % 4.63 C
2498 31-10-2019 16:05:00 6.6 C 86 % 4.43 C
2499 31-10-2019 16:10:00 6.4 C 87 % 4.4 C
2500 31-10-2019 16:15:00 6.4 C 87 % 4.4 C
Sensor: Nr:Datum:Temp:Feuchte:Taupunkt:
Aussen-T/F 2501 31-10-2019 16:20:00 6.3 C 88 % 4.46 C
2502 31-10-2019 16:25:00 6.2 C 88 % 4.36 C
2503 31-10-2019 16:30:00 6.1 C 88 % 4.27 C
2504 31-10-2019 16:35:00 6 C 88 % 4.17 C
2505 31-10-2019 16:40:00 5.8 C 88 % 3.97 C
2506 31-10-2019 16:45:00 5.8 C 88 % 3.97 C
2507 31-10-2019 16:50:00 5.6 C 88 % 3.77 C
2508 31-10-2019 16:55:00 5.5 C 87 % 3.51 C
2509 31-10-2019 17:00:00 5.3 C 87 % 3.32 C
2510 31-10-2019 17:05:00 5.2 C 87 % 3.22 C
2511 31-10-2019 17:10:00 5.1 C 88 % 3.28 C
2512 31-10-2019 17:15:00 4.9 C 88 % 3.08 C
2513 31-10-2019 17:20:00 4.8 C 88 % 2.99 C
2514 31-10-2019 17:25:00 4.7 C 89 % 3.05 C
2515 31-10-2019 17:30:00 4.6 C 89 % 2.95 C
2516 31-10-2019 17:35:00 4.4 C 89 % 2.75 C
2517 31-10-2019 17:40:00 4.3 C 89 % 2.65 C
2518 31-10-2019 17:45:00 4.2 C 89 % 2.55 C
2519 31-10-2019 17:50:00 4.1 C 89 % 2.45 C
2520 31-10-2019 17:55:00 4 C 89 % 2.36 C
2521 31-10-2019 18:00:00 3.9 C 89 % 2.26 C
2522 31-10-2019 18:05:00 3.9 C 89 % 2.26 C
2523 31-10-2019 18:10:00 3.8 C 89 % 2.16 C
2524 31-10-2019 18:15:00 3.8 C 89 % 2.16 C
2525 31-10-2019 18:20:00 3.8 C 89 % 2.16 C
Sensor: Nr:Datum:Temp:Feuchte:Taupunkt:
Aussen-T/F 2526 31-10-2019 18:25:00 3.7 C 89 % 2.06 C
2527 31-10-2019 18:30:00 3.7 C 89 % 2.06 C
2528 31-10-2019 18:35:00 3.7 C 89 % 2.06 C
2529 31-10-2019 18:40:00 3.6 C 89 % 1.96 C
2530 31-10-2019 18:45:00 3.6 C 89 % 1.96 C
2531 31-10-2019 18:50:00 3.5 C 89 % 1.86 C
2532 31-10-2019 18:55:00 3.5 C 90 % 2.02 C
2533 31-10-2019 19:00:00 3.4 C 90 % 1.92 C
2534 31-10-2019 19:05:00 3.4 C 90 % 1.92 C
2535 31-10-2019 19:10:00 3.4 C 90 % 1.92 C
2536 31-10-2019 19:15:00 3.4 C 90 % 1.92 C
2537 31-10-2019 19:20:00 3.3 C 90 % 1.82 C
2538 31-10-2019 19:25:00 3.2 C 90 % 1.72 C
2539 31-10-2019 19:30:00 3.2 C 90 % 1.72 C
2540 31-10-2019 19:35:00 3.1 C 91 % 1.78 C
2541 31-10-2019 19:40:00 3 C 91 % 1.68 C
2542 31-10-2019 19:45:00 2.9 C 91 % 1.58 C
2543 31-10-2019 19:50:00 2.9 C 91 % 1.58 C
2544 31-10-2019 19:55:00 2.9 C 91 % 1.58 C
2545 31-10-2019 20:00:00 2.8 C 91 % 1.48 C
2546 31-10-2019 20:05:00 2.7 C 91 % 1.38 C
2547 31-10-2019 20:10:00 2.6 C 91 % 1.28 C
2548 31-10-2019 20:15:00 2.5 C 91 % 1.18 C
2549 31-10-2019 20:20:00 2.4 C 92 % 1.24 C
2550 31-10-2019 20:25:00 2.3 C 92 % 1.14 C
Sensor: Nr:Datum:Temp:Feuchte:Taupunkt:
Aussen-T/F 2551 31-10-2019 20:30:00 2.3 C 92 % 1.14 C
2552 31-10-2019 20:35:00 2.2 C 92 % 1.04 C
2553 31-10-2019 20:40:00 2.1 C 93 % 1.09 C
2554 31-10-2019 20:45:00 2.1 C 93 % 1.09 C
2555 31-10-2019 20:50:00 2 C 93 % 0.99 C
2556 31-10-2019 20:55:00 1.9 C 93 % 0.89 C
2557 31-10-2019 21:00:00 1.9 C 93 % 0.89 C
2558 31-10-2019 21:05:00 1.8 C 93 % 0.79 C
2559 31-10-2019 21:10:00 1.8 C 94 % 0.94 C
2560 31-10-2019 21:15:00 1.8 C 93 % 0.79 C
2561 31-10-2019 21:20:00 1.8 C 94 % 0.94 C
2562 31-10-2019 21:25:00 1.7 C 94 % 0.84 C
2563 31-10-2019 21:30:00 1.7 C 94 % 0.84 C
2564 31-10-2019 21:35:00 1.7 C 94 % 0.84 C
2565 31-10-2019 21:40:00 1.6 C 94 % 0.74 C
2566 31-10-2019 21:45:00 1.6 C 94 % 0.74 C
2567 31-10-2019 21:50:00 1.6 C 94 % 0.74 C
2568 31-10-2019 21:55:00 1.6 C 94 % 0.74 C
2569 31-10-2019 22:00:00 1.6 C 94 % 0.74 C
2570 31-10-2019 22:05:00 1.7 C 95 % 0.99 C
2571 31-10-2019 22:10:00 1.7 C 95 % 0.99 C
2572 31-10-2019 22:15:00 1.7 C 94 % 0.84 C
2573 31-10-2019 22:20:00 1.6 C 94 % 0.74 C
2574 31-10-2019 22:25:00 1.5 C 94 % 0.64 C
2575 31-10-2019 22:30:00 1.4 C 94 % 0.54 C
Sensor: Nr:Datum:Temp:Feuchte:Taupunkt:
Aussen-T/F 2576 31-10-2019 22:35:00 1.4 C 94 % 0.54 C
2577 31-10-2019 22:40:00 1.3 C 94 % 0.44 C
2578 31-10-2019 22:45:00 1.3 C 94 % 0.44 C
2579 31-10-2019 22:50:00 1.3 C 94 % 0.44 C
2580 31-10-2019 22:55:00 1.3 C 95 % 0.59 C
2581 31-10-2019 23:00:00 1.3 C 95 % 0.59 C
2582 31-10-2019 23:05:00 1.3 C 95 % 0.59 C
2583 31-10-2019 23:10:00 1.4 C 95 % 0.69 C
2584 31-10-2019 23:15:00 1.4 C 95 % 0.69 C
2585 31-10-2019 23:20:00 1.4 C 95 % 0.69 C
2586 31-10-2019 23:25:00 1.4 C 95 % 0.69 C
2587 31-10-2019 23:30:00 1.3 C 95 % 0.59 C
2588 31-10-2019 23:35:00 1.3 C 95 % 0.59 C
2589 31-10-2019 23:40:00 1.3 C 95 % 0.59 C
2590 31-10-2019 23:45:00 1.2 C 95 % 0.49 C
2591 31-10-2019 23:50:00 1.2 C 95 % 0.49 C
2592 31-10-2019 23:55:00 1.2 C 95 % 0.49 C
2593 01-11-2019 00:00:00 1.1 C 95 % 0.39 C
2594 01-11-2019 00:05:00 1.1 C 95 % 0.39 C
2595 01-11-2019 00:10:00 1.1 C 95 % 0.39 C
2596 01-11-2019 00:15:00 1 C 95 % 0.29 C
2597 01-11-2019 00:20:00 0.9 C 95 % 0.19 C
2598 01-11-2019 00:25:00 0.8 C 95 % 0.09 C
2599 01-11-2019 00:30:00 0.8 C 95 % 0.09 C
2600 01-11-2019 00:35:00 0.8 C 95 % 0.09 C
Sensor: Nr:Datum:Temp:Feuchte:Taupunkt:
Aussen-T/F 2601 01-11-2019 00:40:00 0.8 C 95 % 0.09 C
2602 01-11-2019 00:45:00 0.8 C 95 % 0.09 C
2603 01-11-2019 00:50:00 0.7 C 95 % -0.01 C
2604 01-11-2019 00:55:00 0.7 C 95 % -0.01 C
2605 01-11-2019 01:00:00 0.7 C 95 % -0.01 C
2606 01-11-2019 01:05:00 0.6 C 95 % -0.11 C
2607 01-11-2019 01:10:00 0.6 C 95 % -0.11 C
2608 01-11-2019 01:15:00 0.6 C 95 % -0.11 C
2609 01-11-2019 01:20:00 0.6 C 95 % -0.11 C
2610 01-11-2019 01:25:00 0.6 C 95 % -0.11 C
2611 01-11-2019 01:30:00 0.6 C 95 % -0.11 C
2612 01-11-2019 01:35:00 0.5 C 95 % -0.21 C
2613 01-11-2019 01:40:00 0.6 C 96 % 0.04 C
2614 01-11-2019 01:45:00 0.6 C 96 % 0.04 C
2615 01-11-2019 01:50:00 0.6 C 96 % 0.04 C
2616 01-11-2019 01:55:00 0.6 C 96 % 0.04 C
2617 01-11-2019 02:00:00 0.6 C 96 % 0.04 C
2618 01-11-2019 02:05:00 0.6 C 95 % -0.11 C
2619 01-11-2019 02:10:00 0.6 C 96 % 0.04 C
2620 01-11-2019 02:15:00 0.6 C 96 % 0.04 C
2621 01-11-2019 02:20:00 0.6 C 96 % 0.04 C
2622 01-11-2019 02:25:00 0.6 C 96 % 0.04 C
2623 01-11-2019 02:30:00 0.6 C 96 % 0.04 C
2624 01-11-2019 02:35:00 0.5 C 96 % -0.06 C
2625 01-11-2019 02:40:00 0.5 C 96 % -0.06 C
Sensor: Nr:Datum:Temp:Feuchte:Taupunkt:
Aussen-T/F 2626 01-11-2019 02:45:00 0.5 C 96 % -0.06 C
2627 01-11-2019 02:50:00 0.5 C 96 % -0.06 C
2628 01-11-2019 02:55:00 0.5 C 96 % -0.06 C
2629 01-11-2019 03:00:00 0.5 C 96 % -0.06 C
2630 01-11-2019 03:05:00 0.4 C 96 % -0.16 C
2631 01-11-2019 03:10:00 0.4 C 96 % -0.16 C
2632 01-11-2019 03:15:00 0.5 C 96 % -0.06 C
2633 01-11-2019 03:20:00 0.5 C 96 % -0.06 C
2634 01-11-2019 03:25:00 0.5 C 96 % -0.06 C
2635 01-11-2019 03:30:00 0.5 C 96 % -0.06 C
2636 01-11-2019 03:35:00 0.4 C 96 % -0.16 C
2637 01-11-2019 03:40:00 0.4 C 96 % -0.16 C
2638 01-11-2019 03:45:00 0.4 C 96 % -0.16 C
2639 01-11-2019 03:50:00 0.4 C 96 % -0.16 C
2640 01-11-2019 03:55:00 0.4 C 96 % -0.16 C
2641 01-11-2019 04:00:00 0.6 C 96 % 0.04 C
2642 01-11-2019 04:05:00 0.6 C 96 % 0.04 C
2643 01-11-2019 04:10:00 0.7 C 96 % 0.14 C
2644 01-11-2019 04:15:00 0.8 C 96 % 0.24 C
2645 01-11-2019 04:20:00 0.9 C 97 % 0.48 C
2646 01-11-2019 04:25:00 1 C 97 % 0.58 C
2647 01-11-2019 04:30:00 1.1 C 96 % 0.54 C
2648 01-11-2019 04:35:00 1.2 C 96 % 0.63 C
2649 01-11-2019 04:40:00 1.2 C 97 % 0.78 C
2650 01-11-2019 04:45:00 1.3 C 97 % 0.88 C
Sensor: Nr:Datum:Temp:Feuchte:Taupunkt:
Aussen-T/F 2651 01-11-2019 04:50:00 1.4 C 97 % 0.98 C
2652 01-11-2019 04:55:00 1.6 C 97 % 1.18 C
2653 01-11-2019 05:00:00 1.7 C 97 % 1.28 C
2654 01-11-2019 05:05:00 1.8 C 97 % 1.38 C
2655 01-11-2019 05:10:00 1.9 C 97 % 1.48 C
2656 01-11-2019 05:15:00 2 C 97 % 1.58 C
2657 01-11-2019 05:20:00 2.1 C 97 % 1.67 C
2658 01-11-2019 05:25:00 2.2 C 97 % 1.77 C
2659 01-11-2019 05:30:00 2.2 C 97 % 1.77 C
2660 01-11-2019 05:35:00 2.3 C 97 % 1.87 C
2661 01-11-2019 05:40:00 2.3 C 97 % 1.87 C
2662 01-11-2019 05:45:00 2.4 C 97 % 1.97 C
2663 01-11-2019 05:50:00 2.5 C 97 % 2.07 C
2664 01-11-2019 05:55:00 2.6 C 97 % 2.17 C
2665 01-11-2019 06:00:00 2.6 C 97 % 2.17 C
2666 01-11-2019 06:05:00 2.7 C 97 % 2.27 C
2667 01-11-2019 06:10:00 2.7 C 97 % 2.27 C
2668 01-11-2019 06:15:00 2.8 C 97 % 2.37 C
2669 01-11-2019 06:20:00 2.8 C 97 % 2.37 C
2670 01-11-2019 06:25:00 2.8 C 97 % 2.37 C
2671 01-11-2019 06:30:00 2.8 C 97 % 2.37 C
2672 01-11-2019 06:35:00 2.9 C 97 % 2.47 C
2673 01-11-2019 06:40:00 2.9 C 97 % 2.47 C
2674 01-11-2019 06:45:00 3 C 97 % 2.57 C
2675 01-11-2019 06:50:00 3.1 C 97 % 2.67 C
Sensor: Nr:Datum:Temp:Feuchte:Taupunkt:
Aussen-T/F 2676 01-11-2019 06:55:00 3.2 C 97 % 2.77 C
2677 01-11-2019 07:00:00 3.2 C 97 % 2.77 C
2678 01-11-2019 07:05:00 3.3 C 97 % 2.87 C
2679 01-11-2019 07:10:00 3.3 C 97 % 2.87 C
2680 01-11-2019 07:15:00 3.4 C 97 % 2.97 C
2681 01-11-2019 07:20:00 3.4 C 97 % 2.97 C
2682 01-11-2019 07:25:00 3.5 C 97 % 3.07 C
2683 01-11-2019 07:30:00 3.6 C 97 % 3.17 C
2684 01-11-2019 07:35:00 3.7 C 97 % 3.27 C
2685 01-11-2019 07:40:00 3.7 C 97 % 3.27 C
2686 01-11-2019 07:45:00 3.8 C 97 % 3.37 C
2687 01-11-2019 07:50:00 3.8 C 97 % 3.37 C
2688 01-11-2019 07:55:00 3.9 C 97 % 3.47 C
2689 01-11-2019 08:00:00 3.9 C 97 % 3.47 C
2690 01-11-2019 08:05:00 4.1 C 97 % 3.67 C
2691 01-11-2019 08:10:00 4.1 C 97 % 3.67 C
2692 01-11-2019 08:15:00 4.2 C 97 % 3.77 C
2693 01-11-2019 08:20:00 4.2 C 97 % 3.77 C
2694 01-11-2019 08:25:00 4.3 C 97 % 3.87 C
2695 01-11-2019 08:30:00 4.3 C 97 % 3.87 C
2696 01-11-2019 08:35:00 4.4 C 97 % 3.97 C
2697 01-11-2019 08:40:00 4.6 C 97 % 4.17 C
2698 01-11-2019 08:45:00 4.7 C 97 % 4.27 C
2699 01-11-2019 08:50:00 4.7 C 97 % 4.27 C
2700 01-11-2019 08:55:00 4.8 C 97 % 4.37 C
Sensor: Nr:Datum:Temp:Feuchte:Taupunkt:
Aussen-T/F 2701 01-11-2019 09:00:00 4.9 C 97 % 4.46 C
2702 01-11-2019 09:05:00 5.1 C 97 % 4.66 C
2703 01-11-2019 09:10:00 5.1 C 97 % 4.66 C
2704 01-11-2019 09:15:00 5.2 C 97 % 4.76 C
2705 01-11-2019 09:20:00 5.3 C 97 % 4.86 C
2706 01-11-2019 09:25:00 5.3 C 97 % 4.86 C
2707 01-11-2019 09:30:00 5.5 C 97 % 5.06 C
2708 01-11-2019 09:35:00 5.6 C 97 % 5.16 C
2709 01-11-2019 09:40:00 5.6 C 97 % 5.16 C
2710 01-11-2019 09:45:00 5.7 C 97 % 5.26 C
2711 01-11-2019 09:50:00 5.8 C 97 % 5.36 C
2712 01-11-2019 09:55:00 5.8 C 97 % 5.36 C
2713 01-11-2019 10:00:00 5.9 C 97 % 5.46 C
2714 01-11-2019 10:05:00 6 C 97 % 5.56 C
2715 01-11-2019 10:10:00 6.1 C 97 % 5.66 C
2716 01-11-2019 10:15:00 6.2 C 97 % 5.76 C
2717 01-11-2019 10:20:00 6.3 C 97 % 5.86 C
2718 01-11-2019 10:25:00 6.4 C 97 % 5.96 C
2719 01-11-2019 10:30:00 6.4 C 97 % 5.96 C
2720 01-11-2019 10:35:00 6.5 C 97 % 6.06 C
2721 01-11-2019 10:40:00 6.6 C 97 % 6.16 C
2722 01-11-2019 10:45:00 6.7 C 97 % 6.26 C
2723 01-11-2019 10:50:00 6.7 C 97 % 6.26 C
2724 01-11-2019 10:55:00 6.8 C 97 % 6.36 C
2725 01-11-2019 11:00:00 6.9 C 97 % 6.46 C
Sensor: Nr:Datum:Temp:Feuchte:Taupunkt:
Aussen-T/F 2726 01-11-2019 11:05:00 7.1 C 97 % 6.66 C
2727 01-11-2019 11:10:00 7.1 C 97 % 6.66 C
2728 01-11-2019 11:15:00 7.2 C 96 % 6.61 C
2729 01-11-2019 11:20:00 7.2 C 96 % 6.61 C
2730 01-11-2019 11:25:00 7.3 C 96 % 6.71 C
2731 01-11-2019 11:30:00 7.3 C 95 % 6.55 C
2732 01-11-2019 11:35:00 7.3 C 95 % 6.55 C
2733 01-11-2019 11:40:00 7.4 C 95 % 6.65 C
2734 01-11-2019 11:45:00 7.5 C 95 % 6.75 C
2735 01-11-2019 11:50:00 7.6 C 94 % 6.7 C
2736 01-11-2019 11:55:00 7.6 C 94 % 6.7 C
2737 01-11-2019 12:00:00 7.7 C 94 % 6.8 C
2738 01-11-2019 12:05:00 7.8 C 94 % 6.9 C
2739 01-11-2019 12:10:00 7.9 C 94 % 7 C
2740 01-11-2019 12:15:00 8 C 94 % 7.09 C
2741 01-11-2019 12:20:00 8.1 C 94 % 7.19 C
2742 01-11-2019 12:25:00 8.1 C 93 % 7.04 C
2743 01-11-2019 12:30:00 8.2 C 93 % 7.14 C
2744 01-11-2019 12:35:00 8.3 C 93 % 7.24 C
2745 01-11-2019 12:40:00 8.2 C 92 % 6.98 C
2746 01-11-2019 12:45:00 8.2 C 93 % 7.14 C
2747 01-11-2019 12:50:00 8.3 C 93 % 7.24 C
2748 01-11-2019 12:55:00 8.3 C 93 % 7.24 C
2749 01-11-2019 13:00:00 8.3 C 93 % 7.24 C
2750 01-11-2019 13:05:00 8.4 C 93 % 7.34 C
Sensor: Nr:Datum:Temp:Feuchte:Taupunkt:
Aussen-T/F 2751 01-11-2019 13:10:00 8.3 C 92 % 7.08 C
2752 01-11-2019 13:15:00 8.4 C 93 % 7.34 C
2753 01-11-2019 13:20:00 8.5 C 93 % 7.43 C
2754 01-11-2019 13:25:00 8.6 C 93 % 7.53 C
2755 01-11-2019 13:30:00 8.6 C 93 % 7.53 C
2756 01-11-2019 13:35:00 8.6 C 93 % 7.53 C
2757 01-11-2019 13:40:00 8.6 C 93 % 7.53 C
2758 01-11-2019 13:45:00 8.7 C 93 % 7.63 C
2759 01-11-2019 13:50:00 8.7 C 93 % 7.63 C
2760 01-11-2019 13:55:00 8.7 C 94 % 7.79 C
2761 01-11-2019 14:00:00 8.7 C 94 % 7.79 C
2762 01-11-2019 14:05:00 8.7 C 94 % 7.79 C
2763 01-11-2019 14:10:00 8.7 C 94 % 7.79 C
2764 01-11-2019 14:15:00 8.7 C 94 % 7.79 C
2765 01-11-2019 14:20:00 8.7 C 94 % 7.79 C
2766 01-11-2019 14:25:00 8.7 C 95 % 7.94 C
2767 01-11-2019 14:30:00 8.7 C 95 % 7.94 C
2768 01-11-2019 14:35:00 8.7 C 95 % 7.94 C
2769 01-11-2019 14:40:00 8.8 C 95 % 8.04 C
2770 01-11-2019 14:45:00 8.8 C 95 % 8.04 C
2771 01-11-2019 14:50:00 8.8 C 95 % 8.04 C
2772 01-11-2019 14:55:00 8.8 C 95 % 8.04 C
2773 01-11-2019 15:00:00 8.7 C 95 % 7.94 C
2774 01-11-2019 15:05:00 8.7 C 95 % 7.94 C
2775 01-11-2019 15:10:00 8.7 C 95 % 7.94 C
Sensor: Nr:Datum:Temp:Feuchte:Taupunkt:
Aussen-T/F 2776 01-11-2019 15:15:00 8.7 C 96 % 8.1 C
2777 01-11-2019 15:20:00 8.7 C 96 % 8.1 C
2778 01-11-2019 15:25:00 8.7 C 96 % 8.1 C
2779 01-11-2019 15:30:00 8.7 C 95 % 7.94 C
2780 01-11-2019 15:35:00 8.7 C 96 % 8.1 C
2781 01-11-2019 15:40:00 8.7 C 96 % 8.1 C
2782 01-11-2019 15:45:00 8.7 C 96 % 8.1 C
2783 01-11-2019 15:50:00 8.7 C 96 % 8.1 C
2784 01-11-2019 15:55:00 8.7 C 96 % 8.1 C
2785 01-11-2019 16:00:00 8.8 C 96 % 8.2 C
2786 01-11-2019 16:05:00 8.8 C 96 % 8.2 C
2787 01-11-2019 16:10:00 8.8 C 96 % 8.2 C
2788 01-11-2019 16:15:00 8.8 C 96 % 8.2 C
2789 01-11-2019 16:20:00 8.8 C 96 % 8.2 C
2790 01-11-2019 16:25:00 8.8 C 96 % 8.2 C
2791 01-11-2019 16:30:00 8.8 C 96 % 8.2 C
2792 01-11-2019 16:35:00 8.8 C 96 % 8.2 C
2793 01-11-2019 16:40:00 8.8 C 96 % 8.2 C
2794 01-11-2019 16:45:00 8.8 C 96 % 8.2 C
2795 01-11-2019 16:50:00 8.8 C 96 % 8.2 C
2796 01-11-2019 16:55:00 8.8 C 96 % 8.2 C
2797 01-11-2019 17:00:00 8.8 C 96 % 8.2 C
2798 01-11-2019 17:05:00 8.8 C 96 % 8.2 C
2799 01-11-2019 17:10:00 8.8 C 96 % 8.2 C
2800 01-11-2019 17:15:00 8.8 C 96 % 8.2 C
Sensor: Nr:Datum:Temp:Feuchte:Taupunkt:
Aussen-T/F 2801 01-11-2019 17:20:00 8.8 C 96 % 8.2 C
2802 01-11-2019 17:25:00 8.9 C 96 % 8.3 C
2803 01-11-2019 17:30:00 8.9 C 96 % 8.3 C
2804 01-11-2019 17:35:00 8.9 C 96 % 8.3 C
2805 01-11-2019 17:40:00 8.9 C 96 % 8.3 C
2806 01-11-2019 17:45:00 8.9 C 96 % 8.3 C
2807 01-11-2019 17:50:00 8.9 C 96 % 8.3 C
2808 01-11-2019 17:55:00 8.9 C 96 % 8.3 C
2809 01-11-2019 18:00:00 8.9 C 96 % 8.3 C
2810 01-11-2019 18:05:00 8.9 C 96 % 8.3 C
2811 01-11-2019 18:10:00 8.9 C 96 % 8.3 C
2812 01-11-2019 18:15:00 8.9 C 96 % 8.3 C
2813 01-11-2019 18:20:00 8.9 C 96 % 8.3 C
2814 01-11-2019 18:25:00 8.9 C 96 % 8.3 C
2815 01-11-2019 18:30:00 8.9 C 96 % 8.3 C
2816 01-11-2019 18:35:00 8.9 C 96 % 8.3 C
2817 01-11-2019 18:40:00 8.8 C 96 % 8.2 C
2818 01-11-2019 18:45:00 8.8 C 96 % 8.2 C
2819 01-11-2019 18:50:00 8.8 C 97 % 8.35 C
2820 01-11-2019 18:55:00 8.8 C 97 % 8.35 C
2821 01-11-2019 19:00:00 8.8 C 97 % 8.35 C
2822 01-11-2019 19:05:00 8.8 C 97 % 8.35 C
2823 01-11-2019 19:10:00 8.9 C 97 % 8.45 C
2824 01-11-2019 19:15:00 8.9 C 97 % 8.45 C
2825 01-11-2019 19:20:00 8.9 C 97 % 8.45 C
Sensor: Nr:Datum:Temp:Feuchte:Taupunkt:
Aussen-T/F 2826 01-11-2019 19:25:00 8.9 C 97 % 8.45 C
2827 01-11-2019 19:30:00 8.9 C 97 % 8.45 C
2828 01-11-2019 19:35:00 9 C 97 % 8.55 C
2829 01-11-2019 19:40:00 9 C 97 % 8.55 C
2830 01-11-2019 19:45:00 9 C 97 % 8.55 C
2831 01-11-2019 19:50:00 9.1 C 97 % 8.65 C
2832 01-11-2019 19:55:00 9 C 97 % 8.55 C
2833 01-11-2019 20:00:00 9.1 C 97 % 8.65 C
2834 01-11-2019 20:05:00 9.1 C 97 % 8.65 C
2835 01-11-2019 20:10:00 9.1 C 97 % 8.65 C
2836 01-11-2019 20:15:00 9.2 C 97 % 8.75 C
2837 01-11-2019 20:20:00 9.2 C 97 % 8.75 C
2838 01-11-2019 20:25:00 9.2 C 97 % 8.75 C
2839 01-11-2019 20:30:00 9.2 C 97 % 8.75 C
2840 01-11-2019 20:35:00 9.3 C 97 % 8.85 C
2841 01-11-2019 20:40:00 9.3 C 97 % 8.85 C
2842 01-11-2019 20:45:00 9.3 C 97 % 8.85 C
2843 01-11-2019 20:50:00 9.3 C 97 % 8.85 C
2844 01-11-2019 20:55:00 9.4 C 97 % 8.95 C
2845 01-11-2019 21:00:00 9.4 C 97 % 8.95 C
2846 01-11-2019 21:05:00 9.5 C 97 % 9.05 C
2847 01-11-2019 21:10:00 9.5 C 97 % 9.05 C
2848 01-11-2019 21:15:00 9.6 C 97 % 9.15 C
2849 01-11-2019 21:20:00 9.6 C 97 % 9.15 C
2850 01-11-2019 21:25:00 9.6 C 97 % 9.15 C
Sensor: Nr:Datum:Temp:Feuchte:Taupunkt:
Aussen-T/F 2851 01-11-2019 21:30:00 9.7 C 97 % 9.25 C
2852 01-11-2019 21:35:00 9.7 C 97 % 9.25 C
2853 01-11-2019 21:40:00 9.7 C 97 % 9.25 C
2854 01-11-2019 21:45:00 9.8 C 97 % 9.35 C
2855 01-11-2019 21:50:00 9.8 C 97 % 9.35 C
2856 01-11-2019 21:55:00 9.8 C 98 % 9.5 C
2857 01-11-2019 22:00:00 9.9 C 98 % 9.6 C
2858 01-11-2019 22:05:00 9.9 C 98 % 9.6 C
2859 01-11-2019 22:10:00 10 C 98 % 9.7 C
2860 01-11-2019 22:15:00 10.1 C 98 % 9.8 C
2861 01-11-2019 22:20:00 10.1 C 98 % 9.8 C
2862 01-11-2019 22:25:00 10.2 C 98 % 9.9 C
2863 01-11-2019 22:30:00 10.2 C 98 % 9.9 C
2864 01-11-2019 22:35:00 10.2 C 98 % 9.9 C
2865 01-11-2019 22:40:00 10.2 C 98 % 9.9 C
2866 01-11-2019 22:45:00 10.3 C 98 % 10 C
2867 01-11-2019 22:50:00 10.3 C 98 % 10 C
2868 01-11-2019 22:55:00 10.4 C 98 % 10.1 C
2869 01-11-2019 23:00:00 10.4 C 98 % 10.1 C
2870 01-11-2019 23:05:00 10.4 C 98 % 10.1 C
2871 01-11-2019 23:10:00 10.4 C 98 % 10.1 C
2872 01-11-2019 23:15:00 10.4 C 98 % 10.1 C
2873 01-11-2019 23:20:00 10.5 C 98 % 10.2 C
2874 01-11-2019 23:25:00 10.5 C 98 % 10.2 C
2875 01-11-2019 23:30:00 10.6 C 98 % 10.3 C
Sensor: Nr:Datum:Temp:Feuchte:Taupunkt:
Aussen-T/F 2876 01-11-2019 23:35:00 10.6 C 98 % 10.3 C
2877 01-11-2019 23:40:00 10.6 C 98 % 10.3 C
2878 01-11-2019 23:45:00 10.6 C 98 % 10.3 C
2879 01-11-2019 23:50:00 10.6 C 98 % 10.3 C
2880 01-11-2019 23:55:00 10.7 C 98 % 10.4 C
2881 02-11-2019 00:00:00 10.7 C 98 % 10.4 C
2882 02-11-2019 00:05:00 10.8 C 98 % 10.5 C
2883 02-11-2019 00:10:00 10.9 C 98 % 10.6 C
2884 02-11-2019 00:15:00 11.1 C 98 % 10.8 C
2885 02-11-2019 00:20:00 11.2 C 98 % 10.9 C
2886 02-11-2019 00:25:00 11.2 C 98 % 10.9 C
2887 02-11-2019 00:30:00 11.3 C 98 % 11 C
2888 02-11-2019 00:35:00 11.3 C 98 % 11 C
2889 02-11-2019 00:40:00 11.4 C 98 % 11.1 C
2890 02-11-2019 00:45:00 11.4 C 98 % 11.1 C
2891 02-11-2019 00:50:00 11.4 C 98 % 11.1 C
2892 02-11-2019 00:55:00 11.5 C 98 % 11.2 C
2893 02-11-2019 01:00:00 11.6 C 98 % 11.29 C
2894 02-11-2019 01:05:00 11.7 C 98 % 11.39 C
2895 02-11-2019 01:10:00 11.8 C 98 % 11.49 C
2896 02-11-2019 01:15:00 11.9 C 98 % 11.59 C
2897 02-11-2019 01:20:00 11.9 C 98 % 11.59 C
2898 02-11-2019 01:25:00 12.1 C 98 % 11.79 C
2899 02-11-2019 01:30:00 12.1 C 98 % 11.79 C
2900 02-11-2019 01:35:00 12.1 C 98 % 11.79 C
Sensor: Nr:Datum:Temp:Feuchte:Taupunkt:
Aussen-T/F 2901 02-11-2019 01:40:00 12.1 C 98 % 11.79 C
2902 02-11-2019 01:45:00 12.1 C 98 % 11.79 C
2903 02-11-2019 01:50:00 12.1 C 98 % 11.79 C
2904 02-11-2019 01:55:00 12.1 C 98 % 11.79 C
2905 02-11-2019 02:00:00 12.1 C 98 % 11.79 C
2906 02-11-2019 02:05:00 12.2 C 98 % 11.89 C
2907 02-11-2019 02:10:00 12.1 C 98 % 11.79 C
2908 02-11-2019 02:15:00 12.3 C 98 % 11.99 C
2909 02-11-2019 02:20:00 12.3 C 98 % 11.99 C
2910 02-11-2019 02:25:00 12.2 C 98 % 11.89 C
2911 02-11-2019 02:30:00 12.2 C 98 % 11.89 C
2912 02-11-2019 02:35:00 12.2 C 98 % 11.89 C
2913 02-11-2019 02:40:00 12.2 C 98 % 11.89 C
2914 02-11-2019 02:45:00 12.2 C 98 % 11.89 C
2915 02-11-2019 02:50:00 12.3 C 98 % 11.99 C
2916 02-11-2019 02:55:00 12.3 C 98 % 11.99 C
2917 02-11-2019 03:00:00 12.2 C 98 % 11.89 C
2918 02-11-2019 03:05:00 12.1 C 98 % 11.79 C
2919 02-11-2019 03:10:00 12.2 C 98 % 11.89 C
2920 02-11-2019 03:15:00 12.3 C 98 % 11.99 C
2921 02-11-2019 03:20:00 12.3 C 98 % 11.99 C
2922 02-11-2019 03:25:00 12.4 C 98 % 12.09 C
2923 02-11-2019 03:30:00 12.4 C 98 % 12.09 C
2924 02-11-2019 03:35:00 12.4 C 98 % 12.09 C
2925 02-11-2019 03:40:00 12.3 C 98 % 11.99 C
Sensor: Nr:Datum:Temp:Feuchte:Taupunkt:
Aussen-T/F 2926 02-11-2019 03:45:00 12.3 C 98 % 11.99 C
2927 02-11-2019 03:50:00 12.3 C 98 % 11.99 C
2928 02-11-2019 03:55:00 12.2 C 98 % 11.89 C
2929 02-11-2019 04:00:00 12.1 C 98 % 11.79 C
2930 02-11-2019 04:05:00 12.2 C 98 % 11.89 C
2931 02-11-2019 04:10:00 12.2 C 98 % 11.89 C
2932 02-11-2019 04:15:00 12.2 C 98 % 11.89 C
2933 02-11-2019 04:20:00 12.2 C 98 % 11.89 C
2934 02-11-2019 04:25:00 12.2 C 98 % 11.89 C
2935 02-11-2019 04:30:00 12.3 C 98 % 11.99 C
2936 02-11-2019 04:35:00 12.3 C 98 % 11.99 C
2937 02-11-2019 04:40:00 12.4 C 98 % 12.09 C
2938 02-11-2019 04:45:00 12.3 C 98 % 11.99 C
2939 02-11-2019 04:50:00 12.3 C 98 % 11.99 C
2940 02-11-2019 04:55:00 12.3 C 98 % 11.99 C
2941 02-11-2019 05:00:00 12.4 C 98 % 12.09 C
2942 02-11-2019 05:05:00 12.4 C 98 % 12.09 C
2943 02-11-2019 05:10:00 12.6 C 98 % 12.29 C
2944 02-11-2019 05:15:00 12.6 C 98 % 12.29 C
2945 02-11-2019 05:20:00 12.7 C 98 % 12.39 C
2946 02-11-2019 05:25:00 12.7 C 98 % 12.39 C
2947 02-11-2019 05:30:00 12.7 C 98 % 12.39 C
2948 02-11-2019 05:35:00 12.7 C 98 % 12.39 C
2949 02-11-2019 05:40:00 12.7 C 98 % 12.39 C
2950 02-11-2019 05:45:00 12.8 C 98 % 12.49 C
Sensor: Nr:Datum:Temp:Feuchte:Taupunkt:
Aussen-T/F 2951 02-11-2019 05:50:00 12.8 C 98 % 12.49 C
2952 02-11-2019 05:55:00 12.8 C 98 % 12.49 C
2953 02-11-2019 06:00:00 12.8 C 98 % 12.49 C
2954 02-11-2019 06:05:00 12.9 C 98 % 12.59 C
2955 02-11-2019 06:10:00 12.9 C 98 % 12.59 C
2956 02-11-2019 06:15:00 13.1 C 98 % 12.79 C
2957 02-11-2019 06:20:00 13.1 C 98 % 12.79 C
2958 02-11-2019 06:25:00 13 C 98 % 12.69 C
2959 02-11-2019 06:30:00 13.1 C 98 % 12.79 C
2960 02-11-2019 06:35:00 13.2 C 98 % 12.89 C
2961 02-11-2019 06:40:00 13.2 C 98 % 12.89 C
2962 02-11-2019 06:45:00 13.2 C 98 % 12.89 C
2963 02-11-2019 06:50:00 13.3 C 98 % 12.99 C
2964 02-11-2019 06:55:00 13.4 C 98 % 13.09 C
2965 02-11-2019 07:00:00 13.5 C 98 % 13.19 C
2966 02-11-2019 07:05:00 13.5 C 98 % 13.19 C
2967 02-11-2019 07:10:00 13.5 C 98 % 13.19 C
2968 02-11-2019 07:15:00 13.4 C 98 % 13.09 C
2969 02-11-2019 07:20:00 13.4 C 98 % 13.09 C
2970 02-11-2019 07:25:00 13.4 C 98 % 13.09 C
2971 02-11-2019 07:30:00 13.3 C 98 % 12.99 C
2972 02-11-2019 07:35:00 13.4 C 98 % 13.09 C
2973 02-11-2019 07:40:00 13.4 C 98 % 13.09 C
2974 02-11-2019 07:45:00 13.6 C 98 % 13.29 C
2975 02-11-2019 07:50:00 13.7 C 98 % 13.39 C
Sensor: Nr:Datum:Temp:Feuchte:Taupunkt:
Aussen-T/F 2976 02-11-2019 07:55:00 13.7 C 98 % 13.39 C
2977 02-11-2019 08:00:00 13.7 C 98 % 13.39 C
2978 02-11-2019 08:05:00 13.8 C 98 % 13.49 C
2979 02-11-2019 08:10:00 13.8 C 98 % 13.49 C
2980 02-11-2019 08:15:00 13.8 C 98 % 13.49 C
2981 02-11-2019 08:20:00 13.8 C 98 % 13.49 C
2982 02-11-2019 08:25:00 13.8 C 98 % 13.49 C
2983 02-11-2019 08:30:00 13.8 C 98 % 13.49 C
2984 02-11-2019 08:35:00 13.9 C 98 % 13.59 C
2985 02-11-2019 08:40:00 13.9 C 98 % 13.59 C
2986 02-11-2019 08:45:00 13.9 C 98 % 13.59 C
2987 02-11-2019 08:50:00 13.9 C 98 % 13.59 C
2988 02-11-2019 08:55:00 14 C 98 % 13.69 C
2989 02-11-2019 09:00:00 14.1 C 98 % 13.79 C
2990 02-11-2019 09:05:00 14.1 C 98 % 13.79 C
2991 02-11-2019 09:10:00 14.2 C 98 % 13.89 C
2992 02-11-2019 09:15:00 14.2 C 98 % 13.89 C
2993 02-11-2019 09:20:00 14.3 C 98 % 13.99 C
2994 02-11-2019 09:25:00 14.3 C 98 % 13.99 C
2995 02-11-2019 09:30:00 14.3 C 98 % 13.99 C
2996 02-11-2019 09:35:00 14.3 C 98 % 13.99 C
2997 02-11-2019 09:40:00 14.4 C 98 % 14.09 C
2998 02-11-2019 09:45:00 14.4 C 98 % 14.09 C
2999 02-11-2019 09:50:00 14.5 C 97 % 14.03 C
3000 02-11-2019 09:55:00 14.6 C 97 % 14.13 C
Sensor: Nr:Datum:Temp:Feuchte:Taupunkt:
Aussen-T/F 3001 02-11-2019 10:00:00 14.6 C 95 % 13.81 C
3002 02-11-2019 10:05:00 14.7 C 95 % 13.91 C
3003 02-11-2019 10:10:00 14.8 C 95 % 14.01 C
3004 02-11-2019 10:15:00 14.9 C 94 % 13.94 C
3005 02-11-2019 10:20:00 15.1 C 93 % 13.98 C
3006 02-11-2019 10:25:00 15.2 C 93 % 14.08 C
3007 02-11-2019 10:30:00 15.1 C 92 % 13.81 C
3008 02-11-2019 10:35:00 14.9 C 92 % 13.61 C
3009 02-11-2019 10:40:00 14.9 C 93 % 13.78 C
3010 02-11-2019 10:45:00 14.9 C 92 % 13.61 C
3011 02-11-2019 10:50:00 14.9 C 92 % 13.61 C
3012 02-11-2019 10:55:00 15.1 C 90 % 13.47 C
3013 02-11-2019 11:00:00 15.3 C 90 % 13.67 C
3014 02-11-2019 11:05:00 15.4 C 88 % 13.42 C
3015 02-11-2019 11:10:00 15.5 C 88 % 13.52 C
3016 02-11-2019 11:15:00 15.5 C 86 % 13.17 C
3017 02-11-2019 11:20:00 15.6 C 87 % 13.45 C
3018 02-11-2019 11:25:00 15.7 C 87 % 13.54 C
3019 02-11-2019 11:30:00 15.8 C 85 % 13.28 C
3020 02-11-2019 11:35:00 15.9 C 85 % 13.38 C
3021 02-11-2019 11:40:00 16 C 85 % 13.48 C
3022 02-11-2019 11:45:00 16 C 85 % 13.48 C
3023 02-11-2019 11:50:00 16.1 C 85 % 13.58 C
3024 02-11-2019 11:55:00 16.1 C 84 % 13.4 C
3025 02-11-2019 12:00:00 16.1 C 83 % 13.21 C
Sensor: Nr:Datum:Temp:Feuchte:Taupunkt:
Aussen-T/F 3026 02-11-2019 12:05:00 16.1 C 83 % 13.21 C
3027 02-11-2019 12:10:00 16.1 C 82 % 13.03 C
3028 02-11-2019 12:15:00 16.2 C 83 % 13.31 C
3029 02-11-2019 12:20:00 16.2 C 81 % 12.94 C
3030 02-11-2019 12:25:00 16.2 C 81 % 12.94 C
3031 02-11-2019 12:30:00 16.2 C 81 % 12.94 C
3032 02-11-2019 12:35:00 16.1 C 80 % 12.65 C
3033 02-11-2019 12:40:00 16.2 C 79 % 12.56 C
3034 02-11-2019 12:45:00 16.2 C 78 % 12.36 C
3035 02-11-2019 12:50:00 16.2 C 76 % 11.97 C
3036 02-11-2019 12:55:00 16.1 C 77 % 12.07 C
3037 02-11-2019 13:00:00 16.1 C 77 % 12.07 C
3038 02-11-2019 13:05:00 16.1 C 77 % 12.07 C
3039 02-11-2019 13:10:00 16.1 C 76 % 11.87 C
3040 02-11-2019 13:15:00 16.1 C 78 % 12.27 C
3041 02-11-2019 13:20:00 16.1 C 77 % 12.07 C
3042 02-11-2019 13:25:00 16.2 C 76 % 11.97 C
3043 02-11-2019 13:30:00 16.1 C 74 % 11.47 C
3044 02-11-2019 13:35:00 16.1 C 74 % 11.47 C
3045 02-11-2019 13:40:00 16 C 74 % 11.37 C
3046 02-11-2019 13:45:00 15.9 C 73 % 11.07 C
3047 02-11-2019 13:50:00 15.9 C 74 % 11.28 C
3048 02-11-2019 13:55:00 15.8 C 74 % 11.18 C
3049 02-11-2019 14:00:00 15.8 C 73 % 10.97 C
3050 02-11-2019 14:05:00 15.8 C 74 % 11.18 C
Sensor: Nr:Datum:Temp:Feuchte:Taupunkt:
Aussen-T/F 3051 02-11-2019 14:10:00 15.7 C 75 % 11.28 C
3052 02-11-2019 14:15:00 15.8 C 77 % 11.78 C
3053 02-11-2019 14:20:00 15.8 C 76 % 11.58 C
3054 02-11-2019 14:25:00 15.8 C 74 % 11.18 C
3055 02-11-2019 14:30:00 15.9 C 75 % 11.48 C
3056 02-11-2019 14:35:00 15.9 C 73 % 11.07 C
3057 02-11-2019 14:40:00 15.8 C 75 % 11.38 C
3058 02-11-2019 14:45:00 15.8 C 73 % 10.97 C
3059 02-11-2019 14:50:00 15.8 C 73 % 10.97 C
3060 02-11-2019 14:55:00 15.7 C 74 % 11.08 C
3061 02-11-2019 15:00:00 15.6 C 73 % 10.78 C
3062 02-11-2019 15:05:00 15.5 C 74 % 10.89 C
3063 02-11-2019 15:10:00 15.4 C 76 % 11.19 C
3064 02-11-2019 15:15:00 15.3 C 77 % 11.3 C
3065 02-11-2019 15:20:00 15.2 C 79 % 11.59 C
3066 02-11-2019 15:25:00 15.2 C 76 % 11 C
3067 02-11-2019 15:30:00 15.1 C 77 % 11.1 C
3068 02-11-2019 15:35:00 15 C 79 % 11.39 C
3069 02-11-2019 15:40:00 14.9 C 80 % 11.48 C
3070 02-11-2019 15:45:00 14.8 C 80 % 11.39 C
3071 02-11-2019 15:50:00 14.7 C 78 % 10.91 C
3072 02-11-2019 15:55:00 14.6 C 78 % 10.81 C
3073 02-11-2019 16:00:00 14.7 C 80 % 11.29 C
3074 02-11-2019 16:05:00 14.6 C 79 % 11 C
3075 02-11-2019 16:10:00 14.6 C 79 % 11 C
Sensor: Nr:Datum:Temp:Feuchte:Taupunkt:
Aussen-T/F 3076 02-11-2019 16:15:00 14.6 C 79 % 11 C
3077 02-11-2019 16:20:00 14.5 C 80 % 11.09 C
3078 02-11-2019 16:25:00 14.4 C 79 % 10.81 C
3079 02-11-2019 16:30:00 14.5 C 78 % 10.71 C
3080 02-11-2019 16:35:00 14.5 C 79 % 10.91 C
3081 02-11-2019 16:40:00 14.5 C 77 % 10.52 C
3082 02-11-2019 16:45:00 14.5 C 76 % 10.32 C
3083 02-11-2019 16:50:00 14.6 C 75 % 10.22 C
3084 02-11-2019 16:55:00 14.7 C 76 % 10.52 C
3085 02-11-2019 17:00:00 14.6 C 75 % 10.22 C
3086 02-11-2019 17:05:00 14.6 C 75 % 10.22 C
3087 02-11-2019 17:10:00 14.6 C 75 % 10.22 C
3088 02-11-2019 17:15:00 14.6 C 77 % 10.62 C
3089 02-11-2019 17:20:00 14.4 C 78 % 10.62 C
3090 02-11-2019 17:25:00 14.3 C 81 % 11.09 C
3091 02-11-2019 17:30:00 13.9 C 83 % 11.06 C
3092 02-11-2019 17:35:00 13.4 C 86 % 11.11 C
3093 02-11-2019 17:40:00 13.1 C 87 % 10.99 C
3094 02-11-2019 17:45:00 12.8 C 87 % 10.69 C
3095 02-11-2019 17:50:00 12.6 C 87 % 10.5 C
3096 02-11-2019 17:55:00 12.5 C 88 % 10.57 C
3097 02-11-2019 18:00:00 12.4 C 88 % 10.47 C
3098 02-11-2019 18:05:00 12.3 C 89 % 10.54 C
3099 02-11-2019 18:10:00 12.2 C 89 % 10.44 C
3100 02-11-2019 18:15:00 12.1 C 89 % 10.34 C
Sensor: Nr:Datum:Temp:Feuchte:Taupunkt:
Aussen-T/F 3101 02-11-2019 18:20:00 12.1 C 90 % 10.51 C
3102 02-11-2019 18:25:00 11.9 C 90 % 10.31 C
3103 02-11-2019 18:30:00 11.8 C 90 % 10.21 C
3104 02-11-2019 18:35:00 11.7 C 91 % 10.28 C
3105 02-11-2019 18:40:00 11.7 C 91 % 10.28 C
3106 02-11-2019 18:45:00 11.6 C 91 % 10.18 C
3107 02-11-2019 18:50:00 11.6 C 91 % 10.18 C
3108 02-11-2019 18:55:00 11.5 C 92 % 10.25 C
3109 02-11-2019 19:00:00 11.5 C 92 % 10.25 C
3110 02-11-2019 19:05:00 11.4 C 92 % 10.15 C
3111 02-11-2019 19:10:00 11.4 C 92 % 10.15 C
3112 02-11-2019 19:15:00 11.4 C 92 % 10.15 C
3113 02-11-2019 19:20:00 11.4 C 92 % 10.15 C
3114 02-11-2019 19:25:00 11.5 C 92 % 10.25 C
3115 02-11-2019 19:30:00 11.5 C 92 % 10.25 C
3116 02-11-2019 19:35:00 11.5 C 92 % 10.25 C
3117 02-11-2019 19:40:00 11.4 C 91 % 9.98 C
3118 02-11-2019 19:45:00 11.4 C 91 % 9.98 C
3119 02-11-2019 19:50:00 11.4 C 92 % 10.15 C
3120 02-11-2019 19:55:00 11.3 C 92 % 10.05 C
3121 02-11-2019 20:00:00 11.3 C 92 % 10.05 C
3122 02-11-2019 20:05:00 11.2 C 92 % 9.95 C
3123 02-11-2019 20:10:00 11.2 C 92 % 9.95 C
3124 02-11-2019 20:15:00 11.3 C 92 % 10.05 C
3125 02-11-2019 20:20:00 11.3 C 92 % 10.05 C
Sensor: Nr:Datum:Temp:Feuchte:Taupunkt:
Aussen-T/F 3126 02-11-2019 20:25:00 11.3 C 91 % 9.89 C
3127 02-11-2019 20:30:00 11.3 C 91 % 9.89 C
3128 02-11-2019 20:35:00 11.3 C 91 % 9.89 C
3129 02-11-2019 20:40:00 11.3 C 91 % 9.89 C
3130 02-11-2019 20:45:00 11.4 C 90 % 9.82 C
3131 02-11-2019 20:50:00 11.4 C 90 % 9.82 C
3132 02-11-2019 20:55:00 11.4 C 90 % 9.82 C
3133 02-11-2019 21:00:00 11.3 C 90 % 9.72 C
3134 02-11-2019 21:05:00 11.2 C 90 % 9.62 C
3135 02-11-2019 21:10:00 11.2 C 89 % 9.46 C
3136 02-11-2019 21:15:00 11.2 C 89 % 9.46 C
3137 02-11-2019 21:20:00 11.2 C 89 % 9.46 C
3138 02-11-2019 21:25:00 11.1 C 89 % 9.36 C
3139 02-11-2019 21:30:00 11.1 C 88 % 9.19 C
3140 02-11-2019 21:35:00 11.1 C 88 % 9.19 C
3141 02-11-2019 21:40:00 11.1 C 88 % 9.19 C
3142 02-11-2019 21:45:00 11.1 C 88 % 9.19 C
3143 02-11-2019 21:50:00 11.1 C 88 % 9.19 C
3144 02-11-2019 21:55:00 11.1 C 88 % 9.19 C
3145 02-11-2019 22:00:00 11.1 C 89 % 9.36 C
3146 02-11-2019 22:05:00 11.1 C 89 % 9.36 C
3147 02-11-2019 22:10:00 11.1 C 88 % 9.19 C
3148 02-11-2019 22:15:00 11.1 C 88 % 9.19 C
3149 02-11-2019 22:20:00 11.1 C 88 % 9.19 C
3150 02-11-2019 22:25:00 11.1 C 88 % 9.19 C
Sensor: Nr:Datum:Temp:Feuchte:Taupunkt:
Aussen-T/F 3151 02-11-2019 22:30:00 11.1 C 88 % 9.19 C
3152 02-11-2019 22:35:00 10.9 C 89 % 9.16 C
3153 02-11-2019 22:40:00 10.9 C 88 % 8.99 C
3154 02-11-2019 22:45:00 10.8 C 88 % 8.89 C
3155 02-11-2019 22:50:00 10.8 C 89 % 9.06 C
3156 02-11-2019 22:55:00 10.7 C 89 % 8.96 C
3157 02-11-2019 23:00:00 10.6 C 89 % 8.86 C
3158 02-11-2019 23:05:00 10.6 C 90 % 9.03 C
3159 02-11-2019 23:10:00 10.4 C 90 % 8.83 C
3160 02-11-2019 23:15:00 10.4 C 90 % 8.83 C
3161 02-11-2019 23:20:00 10.3 C 90 % 8.73 C
3162 02-11-2019 23:25:00 10.3 C 91 % 8.9 C
3163 02-11-2019 23:30:00 10.4 C 90 % 8.83 C
3164 02-11-2019 23:35:00 10.6 C 89 % 8.86 C
3165 02-11-2019 23:40:00 10.7 C 88 % 8.8 C
3166 02-11-2019 23:45:00 10.8 C 88 % 8.89 C
3167 02-11-2019 23:50:00 10.8 C 87 % 8.73 C
3168 02-11-2019 23:55:00 10.9 C 87 % 8.82 C
3169 03-11-2019 00:00:00 10.9 C 86 % 8.65 C
3170 03-11-2019 00:05:00 10.8 C 87 % 8.73 C
3171 03-11-2019 00:10:00 10.8 C 87 % 8.73 C
3172 03-11-2019 00:15:00 10.7 C 87 % 8.63 C
3173 03-11-2019 00:20:00 10.6 C 88 % 8.7 C
3174 03-11-2019 00:25:00 10.6 C 88 % 8.7 C
3175 03-11-2019 00:30:00 10.4 C 89 % 8.67 C
Sensor: Nr:Datum:Temp:Feuchte:Taupunkt:
Aussen-T/F 3176 03-11-2019 00:35:00 10.3 C 89 % 8.57 C
3177 03-11-2019 00:40:00 10.2 C 89 % 8.47 C
3178 03-11-2019 00:45:00 10.2 C 89 % 8.47 C
3179 03-11-2019 00:50:00 10.1 C 90 % 8.54 C
3180 03-11-2019 00:55:00 10.1 C 90 % 8.54 C
3181 03-11-2019 01:00:00 10.1 C 90 % 8.54 C
3182 03-11-2019 01:05:00 10.2 C 90 % 8.64 C
3183 03-11-2019 01:10:00 10.3 C 91 % 8.9 C
3184 03-11-2019 01:15:00 10.4 C 91 % 9 C
3185 03-11-2019 01:20:00 10.4 C 90 % 8.83 C
3186 03-11-2019 01:25:00 10.4 C 90 % 8.83 C
3187 03-11-2019 01:30:00 10.4 C 90 % 8.83 C
3188 03-11-2019 01:35:00 10.6 C 90 % 9.03 C
3189 03-11-2019 01:40:00 10.6 C 90 % 9.03 C
3190 03-11-2019 01:45:00 10.6 C 90 % 9.03 C
3191 03-11-2019 01:50:00 10.5 C 90 % 8.93 C
3192 03-11-2019 01:55:00 10.5 C 90 % 8.93 C
3193 03-11-2019 02:00:00 10.4 C 91 % 9 C
3194 03-11-2019 02:05:00 10.4 C 90 % 8.83 C
3195 03-11-2019 02:10:00 10.3 C 91 % 8.9 C
3196 03-11-2019 02:15:00 10.2 C 91 % 8.8 C
3197 03-11-2019 02:20:00 10.1 C 91 % 8.7 C
3198 03-11-2019 02:25:00 9.9 C 91 % 8.5 C
3199 03-11-2019 02:30:00 9.8 C 91 % 8.4 C
3200 03-11-2019 02:35:00 9.8 C 92 % 8.56 C
Sensor: Nr:Datum:Temp:Feuchte:Taupunkt:
Aussen-T/F 3201 03-11-2019 02:40:00 9.8 C 92 % 8.56 C
3202 03-11-2019 02:45:00 9.9 C 92 % 8.66 C
3203 03-11-2019 02:50:00 9.9 C 93 % 8.82 C
3204 03-11-2019 02:55:00 9.9 C 93 % 8.82 C
3205 03-11-2019 03:00:00 9.9 C 93 % 8.82 C
3206 03-11-2019 03:05:00 9.9 C 93 % 8.82 C
3207 03-11-2019 03:10:00 9.9 C 93 % 8.82 C
3208 03-11-2019 03:15:00 9.9 C 93 % 8.82 C
3209 03-11-2019 03:20:00 10.1 C 93 % 9.02 C
3210 03-11-2019 03:25:00 10.1 C 93 % 9.02 C
3211 03-11-2019 03:30:00 10.1 C 93 % 9.02 C
3212 03-11-2019 03:35:00 10 C 93 % 8.92 C
3213 03-11-2019 03:40:00 10 C 93 % 8.92 C
3214 03-11-2019 03:45:00 10 C 93 % 8.92 C
3215 03-11-2019 03:50:00 10 C 94 % 9.08 C
3216 03-11-2019 03:55:00 10.1 C 94 % 9.18 C
3217 03-11-2019 04:00:00 10.1 C 94 % 9.18 C
3218 03-11-2019 04:05:00 10.2 C 94 % 9.28 C
3219 03-11-2019 04:10:00 10.3 C 94 % 9.38 C
3220 03-11-2019 04:15:00 10.3 C 94 % 9.38 C
3221 03-11-2019 04:20:00 10.3 C 94 % 9.38 C
3222 03-11-2019 04:25:00 10.3 C 94 % 9.38 C
3223 03-11-2019 04:30:00 10.3 C 94 % 9.38 C
3224 03-11-2019 04:35:00 10.3 C 95 % 9.54 C
3225 03-11-2019 04:40:00 10.3 C 95 % 9.54 C
Sensor: Nr:Datum:Temp:Feuchte:Taupunkt:
Aussen-T/F 3226 03-11-2019 04:45:00 10.3 C 95 % 9.54 C
3227 03-11-2019 04:50:00 10.3 C 95 % 9.54 C
3228 03-11-2019 04:55:00 10.2 C 94 % 9.28 C
3229 03-11-2019 05:00:00 10.2 C 95 % 9.44 C
3230 03-11-2019 05:05:00 10.2 C 95 % 9.44 C
3231 03-11-2019 05:10:00 10.3 C 95 % 9.54 C
3232 03-11-2019 05:15:00 10.3 C 95 % 9.54 C
3233 03-11-2019 05:20:00 10.3 C 95 % 9.54 C
3234 03-11-2019 05:25:00 10.3 C 95 % 9.54 C
3235 03-11-2019 05:30:00 10.2 C 95 % 9.44 C
3236 03-11-2019 05:35:00 10.2 C 95 % 9.44 C
3237 03-11-2019 05:40:00 10.2 C 95 % 9.44 C
3238 03-11-2019 05:45:00 10.3 C 95 % 9.54 C
3239 03-11-2019 05:50:00 10.3 C 95 % 9.54 C
3240 03-11-2019 05:55:00 10.2 C 95 % 9.44 C
3241 03-11-2019 06:00:00 10.2 C 95 % 9.44 C
3242 03-11-2019 06:05:00 10.2 C 96 % 9.59 C
3243 03-11-2019 06:10:00 10.3 C 96 % 9.69 C
3244 03-11-2019 06:15:00 10.3 C 96 % 9.69 C
3245 03-11-2019 06:20:00 10.3 C 96 % 9.69 C
3246 03-11-2019 06:25:00 10.3 C 96 % 9.69 C
3247 03-11-2019 06:30:00 10.3 C 96 % 9.69 C
3248 03-11-2019 06:35:00 10.3 C 96 % 9.69 C
3249 03-11-2019 06:40:00 10.3 C 96 % 9.69 C
3250 03-11-2019 06:45:00 10.3 C 96 % 9.69 C
Sensor: Nr:Datum:Temp:Feuchte:Taupunkt:
Aussen-T/F 3251 03-11-2019 06:50:00 10.4 C 96 % 9.79 C
3252 03-11-2019 06:55:00 10.4 C 96 % 9.79 C
3253 03-11-2019 07:00:00 10.4 C 96 % 9.79 C
3254 03-11-2019 07:05:00 10.4 C 96 % 9.79 C
3255 03-11-2019 07:10:00 10.4 C 96 % 9.79 C
3256 03-11-2019 07:15:00 10.4 C 96 % 9.79 C
3257 03-11-2019 07:20:00 10.3 C 96 % 9.69 C
3258 03-11-2019 07:25:00 10.3 C 96 % 9.69 C
3259 03-11-2019 07:30:00 10.3 C 96 % 9.69 C
3260 03-11-2019 07:35:00 10.3 C 96 % 9.69 C
3261 03-11-2019 07:40:00 10.3 C 96 % 9.69 C
3262 03-11-2019 07:45:00 10.3 C 96 % 9.69 C
3263 03-11-2019 07:50:00 10.3 C 96 % 9.69 C
3264 03-11-2019 07:55:00 10.2 C 96 % 9.59 C
3265 03-11-2019 08:00:00 10.2 C 96 % 9.59 C
3266 03-11-2019 08:05:00 10.2 C 96 % 9.59 C
3267 03-11-2019 08:10:00 10.2 C 96 % 9.59 C
3268 03-11-2019 08:15:00 10.3 C 97 % 9.85 C
3269 03-11-2019 08:20:00 10.4 C 97 % 9.94 C
3270 03-11-2019 08:25:00 10.4 C 97 % 9.94 C
3271 03-11-2019 08:30:00 10.6 C 97 % 10.14 C
3272 03-11-2019 08:35:00 10.6 C 97 % 10.14 C
3273 03-11-2019 08:40:00 10.6 C 97 % 10.14 C
3274 03-11-2019 08:45:00 10.7 C 97 % 10.24 C
3275 03-11-2019 08:50:00 10.8 C 97 % 10.34 C
Sensor: Nr:Datum:Temp:Feuchte:Taupunkt:
Aussen-T/F 3276 03-11-2019 08:55:00 10.8 C 97 % 10.34 C
3277 03-11-2019 09:00:00 10.9 C 97 % 10.44 C
3278 03-11-2019 09:05:00 10.9 C 97 % 10.44 C
3279 03-11-2019 09:10:00 11.1 C 97 % 10.64 C
3280 03-11-2019 09:15:00 11.2 C 97 % 10.74 C
3281 03-11-2019 09:20:00 11.2 C 97 % 10.74 C
3282 03-11-2019 09:25:00 11.3 C 97 % 10.84 C
3283 03-11-2019 09:30:00 11.3 C 97 % 10.84 C
3284 03-11-2019 09:35:00 11.3 C 97 % 10.84 C
3285 03-11-2019 09:40:00 11.4 C 97 % 10.94 C
3286 03-11-2019 09:45:00 11.6 C 97 % 11.14 C
3287 03-11-2019 09:50:00 11.7 C 97 % 11.24 C
3288 03-11-2019 09:55:00 11.7 C 97 % 11.24 C
3289 03-11-2019 10:00:00 11.8 C 97 % 11.34 C
3290 03-11-2019 10:05:00 11.8 C 97 % 11.34 C
3291 03-11-2019 10:10:00 11.9 C 96 % 11.28 C
3292 03-11-2019 10:15:00 12 C 96 % 11.38 C
3293 03-11-2019 10:20:00 12.2 C 96 % 11.58 C
3294 03-11-2019 10:25:00 12.3 C 96 % 11.68 C
3295 03-11-2019 10:30:00 12.4 C 95 % 11.62 C
3296 03-11-2019 10:35:00 12.4 C 95 % 11.62 C
3297 03-11-2019 10:40:00 12.5 C 95 % 11.72 C
3298 03-11-2019 10:45:00 12.6 C 95 % 11.82 C
3299 03-11-2019 10:50:00 12.6 C 95 % 11.82 C
3300 03-11-2019 10:55:00 12.7 C 94 % 11.76 C
Sensor: Nr:Datum:Temp:Feuchte:Taupunkt:
Aussen-T/F 3301 03-11-2019 11:00:00 12.8 C 94 % 11.86 C
3302 03-11-2019 11:05:00 12.8 C 94 % 11.86 C
3303 03-11-2019 11:10:00 12.9 C 93 % 11.8 C
3304 03-11-2019 11:15:00 13.1 C 93 % 11.99 C
3305 03-11-2019 11:20:00 13.3 C 92 % 12.03 C
3306 03-11-2019 11:25:00 13.4 C 92 % 12.13 C
3307 03-11-2019 11:30:00 13.7 C 91 % 12.26 C
3308 03-11-2019 11:35:00 13.8 C 91 % 12.36 C
3309 03-11-2019 11:40:00 14 C 88 % 12.05 C
3310 03-11-2019 11:45:00 14.1 C 88 % 12.14 C
3311 03-11-2019 11:50:00 14.2 C 87 % 12.07 C
3312 03-11-2019 11:55:00 14.3 C 87 % 12.17 C
3313 03-11-2019 12:00:00 14.4 C 86 % 12.09 C
3314 03-11-2019 12:05:00 14.5 C 84 % 11.83 C
3315 03-11-2019 12:10:00 14.7 C 83 % 11.85 C
3316 03-11-2019 12:15:00 14.8 C 84 % 12.12 C
3317 03-11-2019 12:20:00 14.8 C 85 % 12.3 C
3318 03-11-2019 12:25:00 14.9 C 83 % 12.04 C
3319 03-11-2019 12:30:00 14.9 C 83 % 12.04 C
3320 03-11-2019 12:35:00 14.9 C 83 % 12.04 C
3321 03-11-2019 12:40:00 15 C 83 % 12.14 C
3322 03-11-2019 12:45:00 15 C 82 % 11.95 C
3323 03-11-2019 12:50:00 15.1 C 83 % 12.24 C
3324 03-11-2019 12:55:00 15.2 C 82 % 12.15 C
3325 03-11-2019 13:00:00 15.2 C 81 % 11.96 C
Sensor: Nr:Datum:Temp:Feuchte:Taupunkt:
Aussen-T/F 3326 03-11-2019 13:05:00 15.3 C 80 % 11.87 C
3327 03-11-2019 13:10:00 15.3 C 81 % 12.06 C
3328 03-11-2019 13:15:00 15.3 C 81 % 12.06 C
3329 03-11-2019 13:20:00 15.4 C 82 % 12.35 C
3330 03-11-2019 13:25:00 15.5 C 81 % 12.26 C
3331 03-11-2019 13:30:00 15.4 C 81 % 12.16 C
3332 03-11-2019 13:35:00 15.4 C 82 % 12.35 C
3333 03-11-2019 13:40:00 15.4 C 82 % 12.35 C
3334 03-11-2019 13:45:00 15.4 C 82 % 12.35 C
3335 03-11-2019 13:50:00 15.5 C 82 % 12.44 C
3336 03-11-2019 13:55:00 15.6 C 83 % 12.72 C
3337 03-11-2019 14:00:00 15.6 C 82 % 12.54 C
3338 03-11-2019 14:05:00 15.7 C 81 % 12.45 C
3339 03-11-2019 14:10:00 15.7 C 81 % 12.45 C
3340 03-11-2019 14:15:00 15.7 C 81 % 12.45 C
3341 03-11-2019 14:20:00 15.6 C 81 % 12.35 C
3342 03-11-2019 14:25:00 15.5 C 82 % 12.44 C
3343 03-11-2019 14:30:00 15.4 C 82 % 12.35 C
3344 03-11-2019 14:35:00 15.3 C 82 % 12.25 C
3345 03-11-2019 14:40:00 15.3 C 82 % 12.25 C
3346 03-11-2019 14:45:00 15.3 C 82 % 12.25 C
3347 03-11-2019 14:50:00 15.2 C 83 % 12.33 C
3348 03-11-2019 14:55:00 15.3 C 82 % 12.25 C
3349 03-11-2019 15:00:00 15.2 C 82 % 12.15 C
3350 03-11-2019 15:05:00 15.2 C 82 % 12.15 C
Sensor: Nr:Datum:Temp:Feuchte:Taupunkt:
Aussen-T/F 3351 03-11-2019 15:10:00 15.1 C 82 % 12.05 C
3352 03-11-2019 15:15:00 15 C 83 % 12.14 C
3353 03-11-2019 15:20:00 14.9 C 83 % 12.04 C
3354 03-11-2019 15:25:00 14.8 C 83 % 11.94 C
3355 03-11-2019 15:30:00 14.8 C 84 % 12.12 C
3356 03-11-2019 15:35:00 14.7 C 84 % 12.03 C
3357 03-11-2019 15:40:00 14.6 C 84 % 11.93 C
3358 03-11-2019 15:45:00 14.6 C 84 % 11.93 C
3359 03-11-2019 15:50:00 14.5 C 84 % 11.83 C
3360 03-11-2019 15:55:00 14.4 C 85 % 11.91 C
3361 03-11-2019 16:00:00 14.3 C 85 % 11.81 C
3362 03-11-2019 16:05:00 14.3 C 85 % 11.81 C
3363 03-11-2019 16:10:00 14.2 C 85 % 11.72 C
3364 03-11-2019 16:15:00 14.2 C 86 % 11.89 C
3365 03-11-2019 16:20:00 14.1 C 86 % 11.8 C
3366 03-11-2019 16:25:00 14.1 C 86 % 11.8 C
3367 03-11-2019 16:30:00 13.9 C 86 % 11.6 C
3368 03-11-2019 16:35:00 13.9 C 87 % 11.77 C
3369 03-11-2019 16:40:00 13.9 C 87 % 11.77 C
3370 03-11-2019 16:45:00 13.8 C 87 % 11.68 C
3371 03-11-2019 16:50:00 13.7 C 87 % 11.58 C
3372 03-11-2019 16:55:00 13.7 C 88 % 11.75 C
3373 03-11-2019 17:00:00 13.5 C 88 % 11.55 C
3374 03-11-2019 17:05:00 13.4 C 89 % 11.63 C
3375 03-11-2019 17:10:00 13.3 C 89 % 11.53 C
Sensor: Nr:Datum:Temp:Feuchte:Taupunkt:
Aussen-T/F 3376 03-11-2019 17:15:00 13.2 C 89 % 11.43 C
3377 03-11-2019 17:20:00 13.1 C 90 % 11.5 C
3378 03-11-2019 17:25:00 13 C 90 % 11.4 C
3379 03-11-2019 17:30:00 12.9 C 90 % 11.3 C
3380 03-11-2019 17:35:00 12.8 C 91 % 11.37 C
3381 03-11-2019 17:40:00 12.8 C 91 % 11.37 C
3382 03-11-2019 17:45:00 12.7 C 92 % 11.43 C
3383 03-11-2019 17:50:00 12.7 C 92 % 11.43 C
3384 03-11-2019 17:55:00 12.7 C 93 % 11.6 C
3385 03-11-2019 18:00:00 12.6 C 93 % 11.5 C
3386 03-11-2019 18:05:00 12.6 C 93 % 11.5 C
3387 03-11-2019 18:10:00 12.5 C 93 % 11.4 C
3388 03-11-2019 18:15:00 12.5 C 93 % 11.4 C
3389 03-11-2019 18:20:00 12.4 C 94 % 11.46 C
3390 03-11-2019 18:25:00 12.4 C 94 % 11.46 C
3391 03-11-2019 18:30:00 12.3 C 94 % 11.36 C
3392 03-11-2019 18:35:00 12.3 C 94 % 11.36 C
3393 03-11-2019 18:40:00 12.2 C 94 % 11.26 C
3394 03-11-2019 18:45:00 12.2 C 94 % 11.26 C
3395 03-11-2019 18:50:00 12.2 C 94 % 11.26 C
3396 03-11-2019 18:55:00 12.1 C 95 % 11.32 C
3397 03-11-2019 19:00:00 12.1 C 95 % 11.32 C
3398 03-11-2019 19:05:00 12.1 C 95 % 11.32 C
3399 03-11-2019 19:10:00 12 C 95 % 11.22 C
3400 03-11-2019 19:15:00 11.9 C 95 % 11.13 C
Sensor: Nr:Datum:Temp:Feuchte:Taupunkt:
Aussen-T/F 3401 03-11-2019 19:20:00 11.9 C 95 % 11.13 C
3402 03-11-2019 19:25:00 11.8 C 95 % 11.03 C
3403 03-11-2019 19:30:00 11.7 C 95 % 10.93 C
3404 03-11-2019 19:35:00 11.6 C 95 % 10.83 C
3405 03-11-2019 19:40:00 11.5 C 95 % 10.73 C
3406 03-11-2019 19:45:00 11.4 C 95 % 10.63 C
3407 03-11-2019 19:50:00 11.3 C 95 % 10.53 C
3408 03-11-2019 19:55:00 11.3 C 95 % 10.53 C
3409 03-11-2019 20:00:00 11.2 C 95 % 10.43 C
3410 03-11-2019 20:05:00 11.2 C 95 % 10.43 C
3411 03-11-2019 20:10:00 11.2 C 96 % 10.59 C
3412 03-11-2019 20:15:00 11.1 C 95 % 10.33 C
3413 03-11-2019 20:20:00 11.1 C 96 % 10.49 C
3414 03-11-2019 20:25:00 11.1 C 96 % 10.49 C
3415 03-11-2019 20:30:00 11.1 C 96 % 10.49 C
3416 03-11-2019 20:35:00 11.1 C 96 % 10.49 C
3417 03-11-2019 20:40:00 11 C 96 % 10.39 C
3418 03-11-2019 20:45:00 11 C 96 % 10.39 C
3419 03-11-2019 20:50:00 10.9 C 96 % 10.29 C
3420 03-11-2019 20:55:00 10.9 C 96 % 10.29 C
3421 03-11-2019 21:00:00 10.9 C 96 % 10.29 C
3422 03-11-2019 21:05:00 10.8 C 96 % 10.19 C
3423 03-11-2019 21:10:00 10.8 C 96 % 10.19 C
3424 03-11-2019 21:15:00 10.8 C 96 % 10.19 C
3425 03-11-2019 21:20:00 10.8 C 96 % 10.19 C
Sensor: Nr:Datum:Temp:Feuchte:Taupunkt:
Aussen-T/F 3426 03-11-2019 21:25:00 10.8 C 96 % 10.19 C
3427 03-11-2019 21:30:00 10.7 C 96 % 10.09 C
3428 03-11-2019 21:35:00 10.7 C 96 % 10.09 C
3429 03-11-2019 21:40:00 10.7 C 96 % 10.09 C
3430 03-11-2019 21:45:00 10.7 C 96 % 10.09 C
3431 03-11-2019 21:50:00 10.7 C 96 % 10.09 C
3432 03-11-2019 21:55:00 10.7 C 96 % 10.09 C
3433 03-11-2019 22:00:00 10.8 C 96 % 10.19 C
3434 03-11-2019 22:05:00 10.8 C 96 % 10.19 C
3435 03-11-2019 22:10:00 10.8 C 96 % 10.19 C
3436 03-11-2019 22:15:00 10.8 C 96 % 10.19 C
3437 03-11-2019 22:20:00 10.7 C 96 % 10.09 C
3438 03-11-2019 22:25:00 10.7 C 96 % 10.09 C
3439 03-11-2019 22:30:00 10.7 C 96 % 10.09 C
3440 03-11-2019 22:35:00 10.7 C 96 % 10.09 C
3441 03-11-2019 22:40:00 10.7 C 96 % 10.09 C
3442 03-11-2019 22:45:00 10.6 C 96 % 9.99 C
3443 03-11-2019 22:50:00 10.6 C 96 % 9.99 C
3444 03-11-2019 22:55:00 10.5 C 96 % 9.89 C
3445 03-11-2019 23:00:00 10.4 C 96 % 9.79 C
3446 03-11-2019 23:05:00 10.4 C 96 % 9.79 C
3447 03-11-2019 23:10:00 10.4 C 96 % 9.79 C
3448 03-11-2019 23:15:00 10.4 C 96 % 9.79 C
3449 03-11-2019 23:20:00 10.4 C 96 % 9.79 C
3450 03-11-2019 23:25:00 10.5 C 96 % 9.89 C
Sensor: Nr:Datum:Temp:Feuchte:Taupunkt:
Aussen-T/F 3451 03-11-2019 23:30:00 10.6 C 96 % 9.99 C
3452 03-11-2019 23:35:00 10.7 C 96 % 10.09 C
3453 03-11-2019 23:40:00 10.8 C 96 % 10.19 C
3454 03-11-2019 23:45:00 10.8 C 96 % 10.19 C
3455 03-11-2019 23:50:00 10.9 C 96 % 10.29 C
3456 03-11-2019 23:55:00 11 C 95 % 10.23 C
3457 04-11-2019 00:00:00 11.2 C 94 % 10.27 C
3458 04-11-2019 00:05:00 11.2 C 94 % 10.27 C
3459 04-11-2019 00:10:00 11.2 C 94 % 10.27 C
3460 04-11-2019 00:15:00 11.2 C 94 % 10.27 C
3461 04-11-2019 00:20:00 11.1 C 93 % 10.01 C
3462 04-11-2019 00:25:00 11.1 C 93 % 10.01 C
3463 04-11-2019 00:30:00 11.1 C 92 % 9.85 C
3464 04-11-2019 00:35:00 11 C 92 % 9.75 C
3465 04-11-2019 00:40:00 11 C 91 % 9.59 C
3466 04-11-2019 00:45:00 11 C 92 % 9.75 C
3467 04-11-2019 00:50:00 10.9 C 91 % 9.49 C
3468 04-11-2019 00:55:00 10.9 C 91 % 9.49 C
3469 04-11-2019 01:00:00 11 C 91 % 9.59 C
3470 04-11-2019 01:05:00 11 C 91 % 9.59 C
3471 04-11-2019 01:10:00 11.1 C 91 % 9.69 C
3472 04-11-2019 01:15:00 11.1 C 91 % 9.69 C
3473 04-11-2019 01:20:00 11.1 C 90 % 9.52 C
3474 04-11-2019 01:25:00 11.1 C 90 % 9.52 C
3475 04-11-2019 01:30:00 11.1 C 90 % 9.52 C
Sensor: Nr:Datum:Temp:Feuchte:Taupunkt:
Aussen-T/F 3476 04-11-2019 01:35:00 11.1 C 91 % 9.69 C
3477 04-11-2019 01:40:00 11 C 91 % 9.59 C
3478 04-11-2019 01:45:00 10.9 C 91 % 9.49 C
3479 04-11-2019 01:50:00 10.9 C 92 % 9.65 C
3480 04-11-2019 01:55:00 10.9 C 92 % 9.65 C
3481 04-11-2019 02:00:00 10.8 C 92 % 9.55 C
3482 04-11-2019 02:05:00 10.7 C 92 % 9.45 C
3483 04-11-2019 02:10:00 10.6 C 92 % 9.36 C
3484 04-11-2019 02:15:00 10.4 C 92 % 9.16 C
3485 04-11-2019 02:20:00 10.3 C 92 % 9.06 C
3486 04-11-2019 02:25:00 10.1 C 92 % 8.86 C
3487 04-11-2019 02:30:00 10 C 93 % 8.92 C
3488 04-11-2019 02:35:00 9.9 C 93 % 8.82 C
3489 04-11-2019 02:40:00 9.8 C 93 % 8.72 C
3490 04-11-2019 02:45:00 9.8 C 93 % 8.72 C
3491 04-11-2019 02:50:00 9.8 C 94 % 8.88 C
3492 04-11-2019 02:55:00 9.7 C 93 % 8.62 C
3493 04-11-2019 03:00:00 9.7 C 94 % 8.78 C
3494 04-11-2019 03:05:00 9.7 C 94 % 8.78 C
3495 04-11-2019 03:10:00 9.8 C 94 % 8.88 C
3496 04-11-2019 03:15:00 9.9 C 94 % 8.98 C
3497 04-11-2019 03:20:00 9.9 C 94 % 8.98 C
3498 04-11-2019 03:25:00 9.9 C 94 % 8.98 C
3499 04-11-2019 03:30:00 9.9 C 94 % 8.98 C
3500 04-11-2019 03:35:00 10 C 94 % 9.08 C
Sensor: Nr:Datum:Temp:Feuchte:Taupunkt:
Aussen-T/F 3501 04-11-2019 03:40:00 10 C 94 % 9.08 C
3502 04-11-2019 03:45:00 10 C 94 % 9.08 C
3503 04-11-2019 03:50:00 10 C 94 % 9.08 C
3504 04-11-2019 03:55:00 10 C 94 % 9.08 C
3505 04-11-2019 04:00:00 10 C 95 % 9.24 C
3506 04-11-2019 04:05:00 10 C 95 % 9.24 C
3507 04-11-2019 04:10:00 10.1 C 95 % 9.34 C
3508 04-11-2019 04:15:00 10.1 C 95 % 9.34 C
3509 04-11-2019 04:20:00 10.1 C 95 % 9.34 C
3510 04-11-2019 04:25:00 10.2 C 95 % 9.44 C
3511 04-11-2019 04:30:00 10.2 C 95 % 9.44 C
3512 04-11-2019 04:35:00 10.3 C 95 % 9.54 C
3513 04-11-2019 04:40:00 10.3 C 95 % 9.54 C
3514 04-11-2019 04:45:00 10.3 C 95 % 9.54 C
3515 04-11-2019 04:50:00 10.3 C 95 % 9.54 C
3516 04-11-2019 04:55:00 10.3 C 95 % 9.54 C
3517 04-11-2019 05:00:00 10.3 C 95 % 9.54 C
3518 04-11-2019 05:05:00 10.3 C 95 % 9.54 C
3519 04-11-2019 05:10:00 10.2 C 95 % 9.44 C
3520 04-11-2019 05:15:00 10.3 C 95 % 9.54 C
3521 04-11-2019 05:20:00 10.3 C 95 % 9.54 C
3522 04-11-2019 05:25:00 10.4 C 95 % 9.63 C
3523 04-11-2019 05:30:00 10.5 C 95 % 9.73 C
3524 04-11-2019 05:35:00 10.6 C 95 % 9.83 C
3525 04-11-2019 05:40:00 10.5 C 95 % 9.73 C
Sensor: Nr:Datum:Temp:Feuchte:Taupunkt:
Aussen-T/F 3526 04-11-2019 05:45:00 10.5 C 94 % 9.58 C
3527 04-11-2019 05:50:00 10.4 C 94 % 9.48 C
3528 04-11-2019 05:55:00 10.3 C 94 % 9.38 C
3529 04-11-2019 06:00:00 10.1 C 94 % 9.18 C
3530 04-11-2019 06:05:00 10 C 94 % 9.08 C
3531 04-11-2019 06:10:00 9.9 C 94 % 8.98 C
3532 04-11-2019 06:15:00 9.9 C 94 % 8.98 C
3533 04-11-2019 06:20:00 9.8 C 94 % 8.88 C
3534 04-11-2019 06:25:00 9.7 C 94 % 8.78 C
3535 04-11-2019 06:30:00 9.7 C 95 % 8.94 C
3536 04-11-2019 06:35:00 9.7 C 95 % 8.94 C
3537 04-11-2019 06:40:00 9.7 C 95 % 8.94 C
3538 04-11-2019 06:45:00 9.7 C 95 % 8.94 C
3539 04-11-2019 06:50:00 9.7 C 95 % 8.94 C
3540 04-11-2019 06:55:00 9.6 C 95 % 8.84 C
3541 04-11-2019 07:00:00 9.4 C 95 % 8.64 C
3542 04-11-2019 07:05:00 9.3 C 95 % 8.54 C
3543 04-11-2019 07:10:00 9.3 C 95 % 8.54 C
3544 04-11-2019 07:15:00 9.3 C 95 % 8.54 C
3545 04-11-2019 07:20:00 9.3 C 95 % 8.54 C
3546 04-11-2019 07:25:00 9.2 C 94 % 8.29 C
3547 04-11-2019 07:30:00 9.1 C 95 % 8.34 C
3548 04-11-2019 07:35:00 9.2 C 95 % 8.44 C
3549 04-11-2019 07:40:00 9.2 C 95 % 8.44 C
3550 04-11-2019 07:45:00 9.3 C 95 % 8.54 C
Sensor: Nr:Datum:Temp:Feuchte:Taupunkt:
Aussen-T/F 3551 04-11-2019 07:50:00 9.3 C 95 % 8.54 C
3552 04-11-2019 07:55:00 9.3 C 95 % 8.54 C
3553 04-11-2019 08:00:00 9.2 C 95 % 8.44 C
3554 04-11-2019 08:05:00 9.2 C 95 % 8.44 C
3555 04-11-2019 08:10:00 9.2 C 95 % 8.44 C
3556 04-11-2019 08:15:00 9.3 C 95 % 8.54 C
3557 04-11-2019 08:20:00 9.4 C 95 % 8.64 C
3558 04-11-2019 08:25:00 9.4 C 96 % 8.8 C
3559 04-11-2019 08:30:00 9.6 C 95 % 8.84 C
3560 04-11-2019 08:35:00 9.6 C 96 % 8.99 C
3561 04-11-2019 08:40:00 9.7 C 96 % 9.09 C
3562 04-11-2019 08:45:00 9.8 C 96 % 9.19 C
3563 04-11-2019 08:50:00 9.8 C 96 % 9.19 C
3564 04-11-2019 08:55:00 9.8 C 96 % 9.19 C
3565 04-11-2019 09:00:00 9.9 C 96 % 9.29 C
3566 04-11-2019 09:05:00 9.8 C 94 % 8.88 C
3567 04-11-2019 09:10:00 9.8 C 94 % 8.88 C
3568 04-11-2019 09:15:00 9.8 C 94 % 8.88 C
3569 04-11-2019 09:20:00 9.9 C 94 % 8.98 C
3570 04-11-2019 09:25:00 10 C 94 % 9.08 C
3571 04-11-2019 09:30:00 10 C 94 % 9.08 C
3572 04-11-2019 09:35:00 10.1 C 94 % 9.18 C
3573 04-11-2019 09:40:00 10.1 C 94 % 9.18 C
3574 04-11-2019 09:45:00 10.2 C 93 % 9.12 C
3575 04-11-2019 09:50:00 10.2 C 93 % 9.12 C
Sensor: Nr:Datum:Temp:Feuchte:Taupunkt:
Aussen-T/F 3576 04-11-2019 09:55:00 10.3 C 93 % 9.22 C
3577 04-11-2019 10:00:00 10.4 C 93 % 9.32 C
3578 04-11-2019 10:05:00 10.5 C 93 % 9.42 C
3579 04-11-2019 10:10:00 10.7 C 93 % 9.62 C
3580 04-11-2019 10:15:00 10.8 C 93 % 9.71 C
3581 04-11-2019 10:20:00 10.9 C 92 % 9.65 C
3582 04-11-2019 10:25:00 11 C 92 % 9.75 C
3583 04-11-2019 10:30:00 11.1 C 91 % 9.69 C
3584 04-11-2019 10:35:00 11.1 C 91 % 9.69 C
3585 04-11-2019 10:40:00 11.1 C 92 % 9.85 C
3586 04-11-2019 10:45:00 11 C 91 % 9.59 C
3587 04-11-2019 10:50:00 11 C 92 % 9.75 C
3588 04-11-2019 10:55:00 10.9 C 92 % 9.65 C
3589 04-11-2019 11:00:00 10.9 C 92 % 9.65 C
3590 04-11-2019 11:05:00 10.9 C 92 % 9.65 C
3591 04-11-2019 11:10:00 10.9 C 93 % 9.81 C
3592 04-11-2019 11:15:00 10.9 C 93 % 9.81 C
3593 04-11-2019 11:20:00 10.9 C 93 % 9.81 C
3594 04-11-2019 11:25:00 10.9 C 93 % 9.81 C
3595 04-11-2019 11:30:00 10.9 C 94 % 9.97 C
3596 04-11-2019 11:35:00 10.9 C 93 % 9.81 C
3597 04-11-2019 11:40:00 10.9 C 93 % 9.81 C
3598 04-11-2019 11:45:00 10.9 C 94 % 9.97 C
3599 04-11-2019 11:50:00 11 C 93 % 9.91 C
3600 04-11-2019 11:55:00 11 C 93 % 9.91 C
Sensor: Nr:Datum:Temp:Feuchte:Taupunkt:
Aussen-T/F 3601 04-11-2019 12:00:00 11 C 93 % 9.91 C
3602 04-11-2019 12:05:00 11.1 C 93 % 10.01 C
3603 04-11-2019 12:10:00 11.1 C 93 % 10.01 C
3604 04-11-2019 12:15:00 11.2 C 93 % 10.11 C
3605 04-11-2019 12:20:00 11.2 C 93 % 10.11 C
3606 04-11-2019 12:25:00 11.3 C 93 % 10.21 C
3607 04-11-2019 12:30:00 11.3 C 93 % 10.21 C
3608 04-11-2019 12:35:00 11.3 C 93 % 10.21 C
3609 04-11-2019 12:40:00 11.3 C 93 % 10.21 C
3610 04-11-2019 12:45:00 11.3 C 93 % 10.21 C
3611 04-11-2019 12:50:00 11.4 C 93 % 10.31 C
3612 04-11-2019 12:55:00 11.5 C 93 % 10.41 C
3613 04-11-2019 13:00:00 11.5 C 92 % 10.25 C
3614 04-11-2019 13:05:00 11.5 C 92 % 10.25 C
3615 04-11-2019 13:10:00 11.6 C 92 % 10.35 C
3616 04-11-2019 13:15:00 11.7 C 93 % 10.61 C
3617 04-11-2019 13:20:00 11.8 C 93 % 10.71 C
3618 04-11-2019 13:25:00 12 C 92 % 10.74 C
3619 04-11-2019 13:30:00 12.1 C 91 % 10.68 C
3620 04-11-2019 13:35:00 12.2 C 91 % 10.78 C
3621 04-11-2019 13:40:00 12.3 C 91 % 10.87 C
3622 04-11-2019 13:45:00 12.4 C 90 % 10.81 C
3623 04-11-2019 13:50:00 12.6 C 90 % 11 C
3624 04-11-2019 13:55:00 12.6 C 89 % 10.84 C
3625 04-11-2019 14:00:00 12.5 C 88 % 10.57 C
Sensor: Nr:Datum:Temp:Feuchte:Taupunkt:
Aussen-T/F 3626 04-11-2019 14:05:00 12.4 C 88 % 10.47 C
3627 04-11-2019 14:10:00 12.3 C 88 % 10.37 C
3628 04-11-2019 14:15:00 12.3 C 87 % 10.2 C
3629 04-11-2019 14:20:00 12.3 C 88 % 10.37 C
3630 04-11-2019 14:25:00 12.4 C 87 % 10.3 C
3631 04-11-2019 14:30:00 12.6 C 87 % 10.5 C
3632 04-11-2019 14:35:00 12.7 C 86 % 10.42 C
3633 04-11-2019 14:40:00 12.8 C 86 % 10.52 C
3634 04-11-2019 14:45:00 12.9 C 85 % 10.44 C
3635 04-11-2019 14:50:00 12.9 C 85 % 10.44 C
3636 04-11-2019 14:55:00 12.9 C 85 % 10.44 C
3637 04-11-2019 15:00:00 12.9 C 85 % 10.44 C
3638 04-11-2019 15:05:00 12.8 C 85 % 10.34 C
3639 04-11-2019 15:10:00 12.8 C 85 % 10.34 C
3640 04-11-2019 15:15:00 12.8 C 84 % 10.17 C
3641 04-11-2019 15:20:00 12.7 C 84 % 10.07 C
3642 04-11-2019 15:25:00 12.7 C 84 % 10.07 C
3643 04-11-2019 15:30:00 12.6 C 84 % 9.97 C
3644 04-11-2019 15:35:00 12.6 C 84 % 9.97 C
3645 04-11-2019 15:40:00 12.5 C 84 % 9.87 C
3646 04-11-2019 15:45:00 12.4 C 85 % 9.95 C
3647 04-11-2019 15:50:00 12.4 C 85 % 9.95 C
3648 04-11-2019 15:55:00 12.3 C 86 % 10.03 C
3649 04-11-2019 16:00:00 12.2 C 87 % 10.1 C
3650 04-11-2019 16:05:00 12.1 C 87 % 10 C
Sensor: Nr:Datum:Temp:Feuchte:Taupunkt:
Aussen-T/F 3651 04-11-2019 16:10:00 11.9 C 87 % 9.81 C
3652 04-11-2019 16:15:00 11.8 C 87 % 9.71 C
3653 04-11-2019 16:20:00 11.7 C 88 % 9.78 C
3654 04-11-2019 16:25:00 11.5 C 88 % 9.58 C
3655 04-11-2019 16:30:00 11.3 C 88 % 9.39 C
3656 04-11-2019 16:35:00 11.2 C 88 % 9.29 C
3657 04-11-2019 16:40:00 11.1 C 89 % 9.36 C
3658 04-11-2019 16:45:00 11 C 89 % 9.26 C
3659 04-11-2019 16:50:00 10.8 C 89 % 9.06 C
3660 04-11-2019 16:55:00 10.7 C 90 % 9.13 C
3661 04-11-2019 17:00:00 10.5 C 90 % 8.93 C
3662 04-11-2019 17:05:00 10.4 C 90 % 8.83 C
3663 04-11-2019 17:10:00 10.3 C 91 % 8.9 C
3664 04-11-2019 17:15:00 10.3 C 91 % 8.9 C
3665 04-11-2019 17:20:00 10.3 C 91 % 8.9 C
3666 04-11-2019 17:25:00 10.2 C 92 % 8.96 C
3667 04-11-2019 17:30:00 10.2 C 92 % 8.96 C
3668 04-11-2019 17:35:00 10.2 C 92 % 8.96 C
3669 04-11-2019 17:40:00 10.3 C 92 % 9.06 C
3670 04-11-2019 17:45:00 10.2 C 92 % 8.96 C
3671 04-11-2019 17:50:00 10.2 C 93 % 9.12 C
3672 04-11-2019 17:55:00 10.2 C 93 % 9.12 C
3673 04-11-2019 18:00:00 10.2 C 93 % 9.12 C
3674 04-11-2019 18:05:00 10.2 C 93 % 9.12 C
3675 04-11-2019 18:10:00 10.1 C 92 % 8.86 C
Sensor: Nr:Datum:Temp:Feuchte:Taupunkt:
Aussen-T/F 3676 04-11-2019 18:15:00 9.9 C 92 % 8.66 C
3677 04-11-2019 18:20:00 9.8 C 92 % 8.56 C
3678 04-11-2019 18:25:00 9.7 C 92 % 8.46 C
3679 04-11-2019 18:30:00 9.5 C 92 % 8.27 C
3680 04-11-2019 18:35:00 9.3 C 93 % 8.23 C
3681 04-11-2019 18:40:00 9.2 C 93 % 8.13 C
3682 04-11-2019 18:45:00 9.2 C 93 % 8.13 C
3683 04-11-2019 18:50:00 9.1 C 94 % 8.19 C
3684 04-11-2019 18:55:00 9.1 C 94 % 8.19 C
3685 04-11-2019 19:00:00 9.2 C 94 % 8.29 C
3686 04-11-2019 19:05:00 9.3 C 95 % 8.54 C
3687 04-11-2019 19:10:00 9.3 C 94 % 8.39 C
3688 04-11-2019 19:15:00 9.3 C 95 % 8.54 C
3689 04-11-2019 19:20:00 9.3 C 95 % 8.54 C
3690 04-11-2019 19:25:00 9.3 C 94 % 8.39 C
3691 04-11-2019 19:30:00 9.2 C 94 % 8.29 C
3692 04-11-2019 19:35:00 9.1 C 94 % 8.19 C
3693 04-11-2019 19:40:00 9.1 C 94 % 8.19 C
3694 04-11-2019 19:45:00 9 C 95 % 8.24 C
3695 04-11-2019 19:50:00 9 C 95 % 8.24 C
3696 04-11-2019 19:55:00 9.1 C 95 % 8.34 C
3697 04-11-2019 20:00:00 9.1 C 95 % 8.34 C
3698 04-11-2019 20:05:00 9.2 C 95 % 8.44 C
3699 04-11-2019 20:10:00 9.2 C 95 % 8.44 C
3700 04-11-2019 20:15:00 9.3 C 95 % 8.54 C
Sensor: Nr:Datum:Temp:Feuchte:Taupunkt:
Aussen-T/F 3701 04-11-2019 20:20:00 9.4 C 96 % 8.8 C
3702 04-11-2019 20:25:00 9.6 C 96 % 8.99 C
3703 04-11-2019 20:30:00 9.7 C 96 % 9.09 C
3704 04-11-2019 20:35:00 9.7 C 96 % 9.09 C
3705 04-11-2019 20:40:00 9.7 C 96 % 9.09 C
3706 04-11-2019 20:45:00 9.7 C 96 % 9.09 C
3707 04-11-2019 20:50:00 9.7 C 96 % 9.09 C
3708 04-11-2019 20:55:00 9.7 C 96 % 9.09 C
3709 04-11-2019 21:00:00 9.7 C 96 % 9.09 C
3710 04-11-2019 21:05:00 9.6 C 96 % 8.99 C
3711 04-11-2019 21:10:00 9.5 C 96 % 8.89 C
3712 04-11-2019 21:15:00 9.4 C 96 % 8.8 C
3713 04-11-2019 21:20:00 9.3 C 95 % 8.54 C
3714 04-11-2019 21:25:00 9.3 C 96 % 8.7 C
3715 04-11-2019 21:30:00 9.2 C 96 % 8.6 C
3716 04-11-2019 21:35:00 9.2 C 96 % 8.6 C
3717 04-11-2019 21:40:00 9.1 C 96 % 8.5 C
3718 04-11-2019 21:45:00 9 C 95 % 8.24 C
3719 04-11-2019 21:50:00 8.9 C 96 % 8.3 C
3720 04-11-2019 21:55:00 8.7 C 96 % 8.1 C
3721 04-11-2019 22:00:00 8.6 C 95 % 7.85 C
3722 04-11-2019 22:05:00 8.4 C 95 % 7.65 C
3723 04-11-2019 22:10:00 8.3 C 95 % 7.55 C
3724 04-11-2019 22:15:00 8.2 C 96 % 7.6 C
3725 04-11-2019 22:20:00 8.2 C 96 % 7.6 C
Sensor: Nr:Datum:Temp:Feuchte:Taupunkt:
Aussen-T/F 3726 04-11-2019 22:25:00 8.1 C 96 % 7.5 C
3727 04-11-2019 22:30:00 8.2 C 96 % 7.6 C
3728 04-11-2019 22:35:00 8.3 C 96 % 7.7 C
3729 04-11-2019 22:40:00 8.3 C 96 % 7.7 C
3730 04-11-2019 22:45:00 8.3 C 96 % 7.7 C
3731 04-11-2019 22:50:00 8.3 C 96 % 7.7 C
3732 04-11-2019 22:55:00 8.3 C 96 % 7.7 C
3733 04-11-2019 23:00:00 8.3 C 97 % 7.85 C
3734 04-11-2019 23:05:00 8.5 C 97 % 8.05 C
3735 04-11-2019 23:10:00 8.6 C 97 % 8.15 C
3736 04-11-2019 23:15:00 8.7 C 97 % 8.25 C
3737 04-11-2019 23:20:00 8.8 C 97 % 8.35 C
3738 04-11-2019 23:25:00 8.9 C 97 % 8.45 C
3739 04-11-2019 23:30:00 9 C 97 % 8.55 C
3740 04-11-2019 23:35:00 9.1 C 97 % 8.65 C
3741 04-11-2019 23:40:00 9.1 C 97 % 8.65 C
3742 04-11-2019 23:45:00 9.2 C 97 % 8.75 C
3743 04-11-2019 23:50:00 9.2 C 96 % 8.6 C
3744 04-11-2019 23:55:00 9.3 C 96 % 8.7 C
3745 05-11-2019 00:00:00 9.3 C 95 % 8.54 C
3746 05-11-2019 00:05:00 9.4 C 95 % 8.64 C
3747 05-11-2019 00:10:00 9.3 C 95 % 8.54 C
3748 05-11-2019 00:15:00 9.4 C 95 % 8.64 C
3749 05-11-2019 00:20:00 9.3 C 95 % 8.54 C
3750 05-11-2019 00:25:00 9.3 C 95 % 8.54 C
Sensor: Nr:Datum:Temp:Feuchte:Taupunkt:
Aussen-T/F 3751 05-11-2019 00:30:00 9.3 C 95 % 8.54 C
3752 05-11-2019 00:35:00 9.2 C 94 % 8.29 C
3753 05-11-2019 00:40:00 9.2 C 94 % 8.29 C
3754 05-11-2019 00:45:00 9.2 C 94 % 8.29 C
3755 05-11-2019 00:50:00 9.2 C 94 % 8.29 C
3756 05-11-2019 00:55:00 9.2 C 94 % 8.29 C
3757 05-11-2019 01:00:00 9.2 C 94 % 8.29 C
3758 05-11-2019 01:05:00 9.2 C 94 % 8.29 C
3759 05-11-2019 01:10:00 9.2 C 94 % 8.29 C
3760 05-11-2019 01:15:00 9.2 C 93 % 8.13 C
3761 05-11-2019 01:20:00 9.2 C 93 % 8.13 C
3762 05-11-2019 01:25:00 9.1 C 92 % 7.87 C
3763 05-11-2019 01:30:00 9.1 C 93 % 8.03 C
3764 05-11-2019 01:35:00 9.1 C 93 % 8.03 C
3765 05-11-2019 01:40:00 9.1 C 93 % 8.03 C
3766 05-11-2019 01:45:00 9.1 C 93 % 8.03 C
3767 05-11-2019 01:50:00 9.1 C 93 % 8.03 C
3768 05-11-2019 01:55:00 9.1 C 93 % 8.03 C
3769 05-11-2019 02:00:00 9.2 C 93 % 8.13 C
3770 05-11-2019 02:05:00 9.2 C 93 % 8.13 C
3771 05-11-2019 02:10:00 9.2 C 93 % 8.13 C
3772 05-11-2019 02:15:00 9.2 C 93 % 8.13 C
3773 05-11-2019 02:20:00 9.2 C 93 % 8.13 C
3774 05-11-2019 02:25:00 9.2 C 93 % 8.13 C
3775 05-11-2019 02:30:00 9.3 C 93 % 8.23 C
Sensor: Nr:Datum:Temp:Feuchte:Taupunkt:
Aussen-T/F 3776 05-11-2019 02:35:00 9.3 C 94 % 8.39 C
3777 05-11-2019 02:40:00 9.3 C 94 % 8.39 C
3778 05-11-2019 02:45:00 9.2 C 94 % 8.29 C
3779 05-11-2019 02:50:00 9.2 C 93 % 8.13 C
3780 05-11-2019 02:55:00 9.2 C 93 % 8.13 C
3781 05-11-2019 03:00:00 9.3 C 93 % 8.23 C
3782 05-11-2019 03:05:00 9.3 C 93 % 8.23 C
3783 05-11-2019 03:10:00 9.3 C 92 % 8.07 C
3784 05-11-2019 03:15:00 9.3 C 92 % 8.07 C
3785 05-11-2019 03:20:00 9.4 C 92 % 8.17 C
3786 05-11-2019 03:25:00 9.4 C 91 % 8.01 C
3787 05-11-2019 03:30:00 9.5 C 91 % 8.11 C
3788 05-11-2019 03:35:00 9.6 C 91 % 8.21 C
3789 05-11-2019 03:40:00 9.5 C 91 % 8.11 C
3790 05-11-2019 03:45:00 9.5 C 91 % 8.11 C
3791 05-11-2019 03:50:00 9.4 C 90 % 7.85 C
3792 05-11-2019 03:55:00 9.4 C 90 % 7.85 C
3793 05-11-2019 04:00:00 9.4 C 90 % 7.85 C
3794 05-11-2019 04:05:00 9.4 C 90 % 7.85 C
3795 05-11-2019 04:10:00 9.4 C 90 % 7.85 C
3796 05-11-2019 04:15:00 9.4 C 90 % 7.85 C
3797 05-11-2019 04:20:00 9.4 C 90 % 7.85 C
3798 05-11-2019 04:25:00 9.5 C 90 % 7.94 C
3799 05-11-2019 04:30:00 9.5 C 90 % 7.94 C
3800 05-11-2019 04:35:00 9.6 C 89 % 7.88 C
Sensor: Nr:Datum:Temp:Feuchte:Taupunkt:
Aussen-T/F 3801 05-11-2019 04:40:00 9.6 C 89 % 7.88 C
3802 05-11-2019 04:45:00 9.6 C 89 % 7.88 C
3803 05-11-2019 04:50:00 9.4 C 89 % 7.68 C
3804 05-11-2019 04:55:00 9.4 C 89 % 7.68 C
3805 05-11-2019 05:00:00 9.4 C 89 % 7.68 C
3806 05-11-2019 05:05:00 9.4 C 90 % 7.85 C
3807 05-11-2019 05:10:00 9.5 C 89 % 7.78 C
3808 05-11-2019 05:15:00 9.6 C 89 % 7.88 C
3809 05-11-2019 05:20:00 9.7 C 89 % 7.98 C
3810 05-11-2019 05:25:00 9.6 C 89 % 7.88 C
3811 05-11-2019 05:30:00 9.6 C 89 % 7.88 C
3812 05-11-2019 05:35:00 9.6 C 89 % 7.88 C
3813 05-11-2019 05:40:00 9.5 C 90 % 7.94 C
3814 05-11-2019 05:45:00 9.5 C 90 % 7.94 C
3815 05-11-2019 05:50:00 9.5 C 90 % 7.94 C
3816 05-11-2019 05:55:00 9.4 C 90 % 7.85 C
3817 05-11-2019 06:00:00 9.4 C 90 % 7.85 C
3818 05-11-2019 06:05:00 9.3 C 90 % 7.75 C
3819 05-11-2019 06:10:00 9.3 C 90 % 7.75 C
3820 05-11-2019 06:15:00 9.3 C 91 % 7.91 C
3821 05-11-2019 06:20:00 9.3 C 91 % 7.91 C
3822 05-11-2019 06:25:00 9.2 C 91 % 7.81 C
3823 05-11-2019 06:30:00 9.2 C 91 % 7.81 C
3824 05-11-2019 06:35:00 9.2 C 91 % 7.81 C
3825 05-11-2019 06:40:00 9.2 C 91 % 7.81 C
Sensor: Nr:Datum:Temp:Feuchte:Taupunkt:
Aussen-T/F 3826 05-11-2019 06:45:00 9.2 C 91 % 7.81 C
3827 05-11-2019 06:50:00 9.2 C 91 % 7.81 C
3828 05-11-2019 06:55:00 9.2 C 91 % 7.81 C
3829 05-11-2019 07:00:00 9.2 C 91 % 7.81 C
3830 05-11-2019 07:05:00 9.3 C 91 % 7.91 C
3831 05-11-2019 07:10:00 9.3 C 91 % 7.91 C
3832 05-11-2019 07:15:00 9.3 C 91 % 7.91 C
3833 05-11-2019 07:20:00 9.3 C 91 % 7.91 C
3834 05-11-2019 07:25:00 9.3 C 91 % 7.91 C
3835 05-11-2019 07:30:00 9.2 C 91 % 7.81 C
3836 05-11-2019 07:35:00 9.2 C 91 % 7.81 C
3837 05-11-2019 07:40:00 9.1 C 91 % 7.71 C
3838 05-11-2019 07:45:00 9 C 91 % 7.61 C
3839 05-11-2019 07:50:00 8.9 C 91 % 7.51 C
3840 05-11-2019 07:55:00 8.8 C 91 % 7.41 C
3841 05-11-2019 08:00:00 8.8 C 91 % 7.41 C
3842 05-11-2019 08:05:00 8.8 C 92 % 7.57 C
3843 05-11-2019 08:10:00 8.8 C 92 % 7.57 C
3844 05-11-2019 08:15:00 8.8 C 92 % 7.57 C
3845 05-11-2019 08:20:00 8.8 C 92 % 7.57 C
3846 05-11-2019 08:25:00 8.9 C 93 % 7.83 C
3847 05-11-2019 08:30:00 9 C 92 % 7.77 C
3848 05-11-2019 08:35:00 9.1 C 92 % 7.87 C
3849 05-11-2019 08:40:00 9.1 C 92 % 7.87 C
3850 05-11-2019 08:45:00 9.1 C 92 % 7.87 C
Sensor: Nr:Datum:Temp:Feuchte:Taupunkt:
Aussen-T/F 3851 05-11-2019 08:50:00 9.1 C 91 % 7.71 C
3852 05-11-2019 08:55:00 9.2 C 91 % 7.81 C
3853 05-11-2019 09:00:00 9.3 C 91 % 7.91 C
3854 05-11-2019 09:05:00 9.3 C 90 % 7.75 C
3855 05-11-2019 09:10:00 9.3 C 90 % 7.75 C
3856 05-11-2019 09:15:00 9.3 C 90 % 7.75 C
3857 05-11-2019 09:20:00 9.4 C 90 % 7.85 C
3858 05-11-2019 09:25:00 9.4 C 90 % 7.85 C
3859 05-11-2019 09:30:00 9.4 C 90 % 7.85 C
3860 05-11-2019 09:35:00 9.4 C 90 % 7.85 C
3861 05-11-2019 09:40:00 9.5 C 90 % 7.94 C
3862 05-11-2019 09:45:00 9.6 C 89 % 7.88 C
3863 05-11-2019 09:50:00 9.7 C 89 % 7.98 C
3864 05-11-2019 09:55:00 9.9 C 88 % 8.01 C
3865 05-11-2019 10:00:00 10.1 C 88 % 8.21 C
3866 05-11-2019 10:05:00 10.3 C 87 % 8.23 C
3867 05-11-2019 10:10:00 10.4 C 86 % 8.16 C
3868 05-11-2019 10:15:00 10.4 C 86 % 8.16 C
3869 05-11-2019 10:20:00 10.4 C 86 % 8.16 C
3870 05-11-2019 10:25:00 10.4 C 86 % 8.16 C
3871 05-11-2019 10:30:00 10.5 C 86 % 8.26 C
3872 05-11-2019 10:35:00 10.6 C 86 % 8.36 C
3873 05-11-2019 10:40:00 10.6 C 86 % 8.36 C
3874 05-11-2019 10:45:00 10.7 C 85 % 8.28 C
3875 05-11-2019 10:50:00 10.7 C 85 % 8.28 C
Sensor: Nr:Datum:Temp:Feuchte:Taupunkt:
Aussen-T/F 3876 05-11-2019 10:55:00 10.7 C 85 % 8.28 C
3877 05-11-2019 11:00:00 10.7 C 83 % 7.93 C
3878 05-11-2019 11:05:00 10.8 C 84 % 8.21 C
3879 05-11-2019 11:10:00 10.8 C 84 % 8.21 C
3880 05-11-2019 11:15:00 10.9 C 83 % 8.13 C
3881 05-11-2019 11:20:00 11.1 C 83 % 8.33 C
3882 05-11-2019 11:25:00 11.2 C 83 % 8.42 C
3883 05-11-2019 11:30:00 11.3 C 83 % 8.52 C
3884 05-11-2019 11:35:00 11.5 C 83 % 8.72 C
3885 05-11-2019 11:40:00 11.6 C 81 % 8.45 C
3886 05-11-2019 11:45:00 11.6 C 79 % 8.09 C
3887 05-11-2019 11:50:00 11.6 C 79 % 8.09 C
3888 05-11-2019 11:55:00 11.6 C 79 % 8.09 C
3889 05-11-2019 12:00:00 11.7 C 79 %